Provisional Data: Chiques Creek near Route 283


Please select a monitoring station.
Please select start date.
Please select start date.

Toggle Unit: C/F Toggle Unit: C/F
Sample Time Temperature (C) Temperature (F) Specific Conductivity (mS/cm) pH   Turbidity (NTU+) DO (mg/L)
4/13/2022 12:00:00 AM 14.39 57.902 0.3 8.05 9.5 10.17
4/13/2022 12:15:00 AM 14.34 57.812 0.259 8.02 8.87 10.14
4/13/2022 12:30:00 AM 14.27 57.686 0.302 8 9.22 10.1
4/13/2022 12:45:00 AM 14.21 57.578 0.329 7.99 9.17 10.07
4/13/2022 1:00:00 AM 14.15 57.47 0.322 7.98 9.25 10.05
4/13/2022 1:15:00 AM 14.09 57.362 0.326 7.95 8.83 10.02
4/13/2022 1:30:00 AM 14.03 57.254 0.384 7.95 9.23 10
4/13/2022 1:45:00 AM 13.97 57.146 0.334 7.92 8.78 9.99
4/13/2022 2:00:00 AM 13.92 57.056 0.297 7.92 9.06 9.95
4/13/2022 2:15:00 AM 13.86 56.948 0.331 7.9 8.87 9.94
4/13/2022 2:30:00 AM 13.82 56.876 0.256 7.9 9.7 9.92
4/13/2022 2:45:00 AM 13.77 56.786 0.333 7.89 9.18 9.91
4/13/2022 3:00:00 AM 13.73 56.714 0.296 7.88 8.91 9.89
4/13/2022 3:15:00 AM 13.69 56.642 0.334 7.86 8.75 9.89
4/13/2022 3:30:00 AM 13.66 56.588 0.305 7.86 9.08 9.87
4/13/2022 3:45:00 AM 13.63 56.534 0.335 7.85 8.62 9.86
4/13/2022 4:00:00 AM 13.6 56.48 0.259 7.85 8.67 9.84
4/13/2022 4:15:00 AM 13.58 56.444 0.289 7.85 11.69 9.84
4/13/2022 4:30:00 AM 13.55 56.39 0.321 7.84 9.4 9.83
4/13/2022 4:45:00 AM 13.53 56.354 0.295 7.84 9.74 9.82
4/13/2022 5:00:00 AM 13.51 56.318 0.386 7.83 9.34 9.81
4/13/2022 5:15:00 AM 13.49 56.282 0.288 7.82 8.46 9.8
4/13/2022 5:30:00 AM 13.47 56.246 0.321 7.82 9.09 9.8
4/13/2022 5:45:00 AM 13.45 56.21 0.314 7.82 9.2 9.8
4/13/2022 6:00:00 AM 13.43 56.174 0.386 7.81 9.09 9.8
4/13/2022 6:15:00 AM 13.4 56.12 0.392 7.81 10.19 9.8
4/13/2022 6:30:00 AM 13.38 56.084 0.27 7.81 9.38 9.8
4/13/2022 6:45:00 AM 13.35 56.03 0.391 7.81 8.59 9.81
4/13/2022 7:00:00 AM 13.33 55.994 0.289 7.8 9.11 9.82
4/13/2022 7:15:00 AM 13.3 55.94 0.276 7.82 8.72 9.83
4/13/2022 7:30:00 AM 13.29 55.922 0.269 7.81 8.66 9.86
4/13/2022 7:45:00 AM 13.26 55.868 0.266 7.82 10.26 9.85
4/13/2022 8:00:00 AM 13.25 55.85 0.238 7.81 8.34 9.89
4/13/2022 8:15:00 AM 13.24 55.832 0.285 7.82 8.33 9.92
4/13/2022 8:30:00 AM 13.24 55.832 0.289 7.83 8.57 9.97
4/13/2022 8:45:00 AM 13.24 55.832 0.386 7.84 8.22 10
4/13/2022 9:00:00 AM 13.26 55.868 0.389 7.84 8.12 10.03
4/13/2022 9:15:00 AM 13.27 55.886 0.293 7.84 8.12 10.06
4/13/2022 9:30:00 AM 13.3 55.94 0.309 7.85 8.07 10.1
4/13/2022 9:45:00 AM 13.33 55.994 0.315 7.85 8.19 10.12
4/13/2022 10:00:00 AM 13.37 56.066 0.293 7.86 8.04 10.17
4/13/2022 10:15:00 AM 13.4 56.12 0.318 7.86 8.27 10.19
4/13/2022 10:30:00 AM 13.44 56.192 0.311 7.88 8.07 10.23
4/13/2022 10:45:00 AM 13.5 56.3 0.292 7.89 8.16 10.27
4/13/2022 11:00:00 AM 13.55 56.39 0.291 7.9 8.27 10.33
4/13/2022 11:15:00 AM 13.6 56.48 0.243 7.9 8 10.35
4/13/2022 11:30:00 AM 13.68 56.624 0.329 7.92 8.08 10.35
4/13/2022 11:45:00 AM 13.76 56.768 0.315 7.93 8.1 10.44
4/13/2022 12:00:00 PM 13.81 56.858 0.331 7.95 8.54 10.47
4/13/2022 12:15:00 PM 13.91 57.038 0.312 7.97 7.96 10.54
4/13/2022 12:30:00 PM 14 57.2 0.381 7.99 8.31 10.61
4/13/2022 12:45:00 PM 14.18 57.524 0.321 8.02 8.86 10.71
4/13/2022 1:00:00 PM 14.33 57.794 0.321 8.05 8.56 10.77
4/13/2022 1:15:00 PM 14.44 57.992 0.305 8.06 7.92 10.77
4/13/2022 1:30:00 PM 14.57 58.226 0.305 8.09 8.6 10.85
4/13/2022 1:45:00 PM 14.73 58.514 0.376 8.13 8.05 10.91
4/13/2022 2:00:00 PM 14.82 58.676 0.312 8.14 8.48 10.91
4/13/2022 2:15:00 PM 14.95 58.91 0.311 8.18 8.07 10.98
4/13/2022 2:30:00 PM 15.05 59.09 0.298 8.21 8.39 11
4/13/2022 2:45:00 PM 15.16 59.288 0.292 8.24 7.98 11.07
4/13/2022 3:00:00 PM 15.29 59.522 0.319 8.28 8.75 11.12
4/13/2022 3:15:00 PM 15.38 59.684 0.336 8.3 8.55 11.11
4/13/2022 3:30:00 PM 15.51 59.918 0.302 8.34 7.88 11.18
4/13/2022 3:45:00 PM 15.6 60.08 0.336 8.37 7.83 11.19
4/13/2022 4:00:00 PM 15.71 60.278 0.328 8.41 9.58 11.21
4/13/2022 4:15:00 PM 15.82 60.476 0.323 8.44 9.22 11.23
4/13/2022 4:30:00 PM 15.91 60.638 0.314 8.46 8.1 11.2
4/13/2022 4:45:00 PM 16 60.8 0.486 8.49 9.02 11.21
4/13/2022 5:00:00 PM 16.09 60.962 0.325 8.5 8.44 11.18
4/13/2022 5:15:00 PM 16.15 61.07 0.486 8.51 8.46 11.13
4/13/2022 5:30:00 PM 16.22 61.196 0.316 8.54 8.08 11.11
4/13/2022 5:45:00 PM 16.28 61.304 0.303 8.55 8.55 11.1
4/13/2022 6:00:00 PM 16.32 61.376 0.301 8.55 8.22 11.08
4/13/2022 6:15:00 PM 16.36 61.448 0.326 8.57 9.91 11.05
4/13/2022 6:30:00 PM 16.39 61.502 0.273 8.58 8.09 11
4/13/2022 6:45:00 PM 16.41 61.538 0.265 8.57 7.91 10.94
4/13/2022 7:00:00 PM 16.42 61.556 0.305 8.57 8.03 10.89
4/13/2022 7:15:00 PM 16.43 61.574 0.316 8.57 11.59 10.84
4/13/2022 7:30:00 PM 16.43 61.574 0.32 8.57 10.95 10.8
4/13/2022 7:45:00 PM 16.43 61.574 0.309 8.56 215.62 10.75
4/13/2022 8:00:00 PM 16.43 61.574 0.295 8.54 8.63 10.72
4/13/2022 8:15:00 PM 16.42 61.556 0.292 8.53 8.43 10.66
4/13/2022 8:30:00 PM 16.4 61.52 0.284 8.52 8.06 10.62
4/13/2022 8:45:00 PM 16.38 61.484 0.318 8.51 8.53 10.57
4/13/2022 9:00:00 PM 16.36 61.448 0.27 8.48 7.51 10.51
4/13/2022 9:15:00 PM 16.33 61.394 0.268 8.46 7.47 10.46
4/13/2022 9:30:00 PM 16.29 61.322 0.307 8.43 8.62 10.4
4/13/2022 9:45:00 PM 16.25 61.25 0.295 8.39 8.84 10.34
4/13/2022 10:00:00 PM 16.21 61.178 0.317 8.36 9.07 10.28
4/13/2022 10:15:00 PM 16.16 61.088 0.289 8.34 8.7 10.22
4/13/2022 10:30:00 PM 16.11 60.998 0.285 8.29 10.08 10.15
4/13/2022 10:45:00 PM 16.06 60.908 0.322 8.26 9.13 10.08
4/13/2022 11:00:00 PM 16.01 60.818 0.28 8.22 8.58 10.03
4/13/2022 11:15:00 PM 15.96 60.728 0.297 8.19 8.5 9.96
4/13/2022 11:30:00 PM 15.91 60.638 0.294 8.16 8.55 9.91
4/13/2022 11:45:00 PM 15.85 60.53 0.306 8.13 8.57 9.84
4/14/2022 12:00:00 AM 15.8 60.44 0.328 8.09 9.72 9.78
4/14/2022 12:15:00 AM 15.75 60.35 0.478 8.08 13.81 9.72
4/14/2022 12:30:00 AM 15.69 60.242 0.489 8.06 14.53 9.66
4/14/2022 12:45:00 AM 15.64 60.152 0.323 8.04 5.37 9.64
4/14/2022 1:00:00 AM 15.58 60.044 0.419 8.03 8.65 9.6
4/14/2022 1:15:00 AM 15.54 59.972 0.42 8.01 18.44 9.57
4/14/2022 1:30:00 AM 15.49 59.882 0.445 7.99 15.54 9.54
4/14/2022 1:45:00 AM 15.44 59.792 0.441 7.97 4.48 9.52
4/14/2022 2:00:00 AM 15.4 59.72 0.457 7.96 4.27 9.47
4/14/2022 2:15:00 AM 15.36 59.648 0.433 7.95 4.64 9.47
4/14/2022 2:30:00 AM 15.33 59.594 0.435 7.93 13.77 9.44
4/14/2022 2:45:00 AM 15.29 59.522 0.427 7.92 6.45 9.42
4/14/2022 3:00:00 AM 15.27 59.486 0.432 7.92 4.83 9.39
4/14/2022 3:15:00 AM 15.24 59.432 0.437 7.9 11.28 9.38
4/14/2022 3:30:00 AM 15.22 59.396 0.391 7.9 10.48 9.36
4/14/2022 3:45:00 AM 15.2 59.36 0.404 7.87 16021.85 9.35
4/14/2022 4:00:00 AM 15.17 59.306 0.26 7.88 12.31 9.34
4/14/2022 4:15:00 AM 15.14 59.252 0.307 7.85 13.47 9.34
4/14/2022 4:30:00 AM 15.11 59.198 0.167 7.83 12.49 9.33
4/14/2022 4:45:00 AM 15.09 59.162 0.187 7.81 11.21 9.17
4/14/2022 5:00:00 AM 15.06 59.108 0.104 7.87 10.26 9.32
4/14/2022 5:15:00 AM 15.03 59.054 0.257 7.81 15.44 9.28
4/14/2022 5:30:00 AM 15.01 59.018 0.321 7.84 36.56 9.31
4/14/2022 5:45:00 AM 14.99 58.982 0.303 7.81 13.76 9.3
4/14/2022 6:00:00 AM 14.96 58.928 0.232 7.82 23.11 9.3
4/14/2022 6:15:00 AM 14.94 58.892 0.31 7.8 8.35 9.3
4/14/2022 6:30:00 AM 14.92 58.856 0.311 7.81 6.05 9.3
4/14/2022 6:45:00 AM 14.91 58.838 0.336 7.84 10.03 9.3
4/14/2022 7:00:00 AM 14.89 58.802 0.325 7.81 7.96 9.32
4/14/2022 7:15:00 AM 14.88 58.784 0.325 7.82 5.73 9.33
4/14/2022 7:30:00 AM 14.87 58.766 0.267 7.8 5.97 9.33
4/14/2022 7:45:00 AM 14.86 58.748 0.378 7.82 23.27 9.35
4/14/2022 8:00:00 AM 14.85 58.73 0.497 7.83 7.11 9.38
4/14/2022 8:15:00 AM 14.85 58.73 0.295 7.84 5.91 9.41
4/14/2022 8:30:00 AM 14.85 58.73 0.498 7.84 9.79 9.45
4/14/2022 8:45:00 AM 14.86 58.748 0.318 7.84 6.45 9.5
4/14/2022 9:00:00 AM 14.88 58.784 0.323 7.84 5.89 9.53
4/14/2022 9:15:00 AM 14.9 58.82 0.284 7.85 6.22 9.58
4/14/2022 9:30:00 AM 14.93 58.874 0.279 7.85 6.32 9.6
4/14/2022 9:45:00 AM 14.95 58.91 0.297 7.85 5.84 9.62
4/14/2022 10:00:00 AM 15 59 0.266 7.86 6.72 9.66
4/14/2022 10:15:00 AM 15.04 59.072 0.27 7.87 6.38 9.7
4/14/2022 10:30:00 AM 15.1 59.18 0.316 7.88 6.33 9.74
4/14/2022 10:45:00 AM 15.16 59.288 0.321 7.88 6.57 9.77
4/14/2022 11:00:00 AM 15.24 59.432 0.484 7.88 5.98 9.81
4/14/2022 11:15:00 AM 15.32 59.576 0.304 7.89 6.91 9.85
4/14/2022 11:30:00 AM 15.41 59.738 0.369 7.89 6.82 9.88
4/14/2022 11:45:00 AM 15.52 59.936 0.263 7.92 6.52 9.93
4/14/2022 12:00:00 PM 15.57 60.026 0.31 7.93 6.67 9.94
4/14/2022 12:15:00 PM 15.68 60.224 0.315 7.95 6.7 10.05
4/14/2022 12:30:00 PM 15.73 60.314 0.317 7.97 6.81 10.03
4/14/2022 12:45:00 PM 15.83 60.494 0.32 7.98 6.87 10.08
4/14/2022 1:00:00 PM 15.97 60.746 0.262 8.02 6.53 10.19
4/14/2022 1:15:00 PM 16.08 60.944 0.31 8.04 6.32 10.23
4/14/2022 1:30:00 PM 16.24 61.232 0.32 8.07 6.44 10.32
4/14/2022 1:45:00 PM 16.36 61.448 0.327 8.09 6.72 10.35
4/14/2022 2:00:00 PM 16.41 61.538 0.327 8.09 7.09 10.18
4/14/2022 2:15:00 PM 16.51 61.718 0.315 8.11 7.14 10.25
4/14/2022 2:30:00 PM 16.6 61.88 0.336 8.13 7.4 10.32
4/14/2022 2:45:00 PM 16.68 62.024 0.326 8.15 7.1 10.28
4/14/2022 3:00:00 PM 16.75 62.15 0.322 8.18 7.08 10.3
4/14/2022 3:15:00 PM 16.81 62.258 0.32 8.21 7.32 10.34
4/14/2022 3:30:00 PM 16.86 62.348 0.304 8.23 7 10.37
4/14/2022 3:45:00 PM 16.92 62.456 0.315 8.28 6.72 10.52
4/14/2022 4:00:00 PM 17.02 62.636 0.317 8.33 7.38 10.69
4/14/2022 4:15:00 PM 17.15 62.87 0.483 8.36 7.13 10.75
4/14/2022 4:30:00 PM 17.16 62.888 0.434 8.38 6.79 10.67
4/14/2022 4:45:00 PM 17.21 62.978 0.309 8.4 9.17 10.65
4/14/2022 5:00:00 PM 17.25 63.05 0.317 8.41 7.13 10.61
4/14/2022 5:15:00 PM 17.3 63.14 0.314 8.43 7.27 10.66
4/14/2022 5:30:00 PM 17.31 63.158 0.316 8.44 7.22 10.64
4/14/2022 5:45:00 PM 17.31 63.158 0.308 8.44 7.32 10.61
4/14/2022 6:00:00 PM 17.3 63.14 0.277 8.43 7.96 10.52
4/14/2022 6:15:00 PM 17.27 63.086 0.312 8.42 8.12 10.47
4/14/2022 6:30:00 PM 17.22 62.996 0.433 8.39 8 10.38
4/14/2022 6:45:00 PM 17.18 62.924 0.434 8.38 8.88 10.35
4/14/2022 7:00:00 PM 17.12 62.816 0.328 8.36 7.09 10.27
4/14/2022 7:15:00 PM 17.09 62.762 0.301 8.33 5.48 10.19
4/14/2022 7:30:00 PM 17.05 62.69 0.342 8.31 5.54 10.14
4/14/2022 7:45:00 PM 17 62.6 0.312 8.3 5.17 10.1
4/14/2022 8:00:00 PM 16.96 62.528 0.331 8.28 6.19 10.08
4/14/2022 8:15:00 PM 16.91 62.438 0.305 8.27 5.67 10.07
4/14/2022 8:30:00 PM 16.87 62.366 0.328 8.27 5.68 10.06
4/14/2022 8:45:00 PM 16.82 62.276 0.273 8.26 5.21 10.06
4/14/2022 9:00:00 PM 16.76 62.168 0.339 8.25 5.4 10.06
4/14/2022 9:15:00 PM 16.68 62.024 0.306 8.25 5.12 10.04
4/14/2022 9:30:00 PM 16.59 61.862 0.335 8.26 5.15 10.04
4/14/2022 9:45:00 PM 16.51 61.718 0.318 8.23 5.44 10.01
4/14/2022 10:00:00 PM 16.41 61.538 0.325 8.21 5.17 9.99
4/14/2022 10:15:00 PM 16.31 61.358 0.31 8.19 5.84 9.95
4/14/2022 10:30:00 PM 16.2 61.16 0.289 8.17 5.54 9.94
4/14/2022 10:45:00 PM 16.1 60.98 0.288 8.15 5.46 9.9
4/14/2022 11:00:00 PM 15.99 60.782 0.308 8.13 5.41 9.86
4/14/2022 11:15:00 PM 15.89 60.602 0.37 8.1 5.54 9.82
4/14/2022 11:30:00 PM 15.8 60.44 0.305 8.08 5.89 9.8
4/14/2022 11:45:00 PM 15.71 60.278 0.303 8.06 5.41 9.75
4/15/2022 12:00:00 AM 15.62 60.116 0.288 8.03 5.61 9.72
4/15/2022 12:15:00 AM 15.53 59.954 0.369 8.02 5.35 9.7
4/15/2022 12:30:00 AM 15.44 59.792 0.286 8 5.32 9.67
4/15/2022 12:45:00 AM 15.36 59.648 0.367 8 5.37 9.64
4/15/2022 1:00:00 AM 15.28 59.504 0.26 7.97 5.22 9.62
4/15/2022 1:15:00 AM 15.19 59.342 0.298 7.96 5.57 9.61
4/15/2022 1:30:00 AM 15.1 59.18 0.299 7.95 5.29 9.59
4/15/2022 1:45:00 AM 15.01 59.018 0.303 7.94 5.25 9.58
4/15/2022 2:00:00 AM 14.92 58.856 0.24 7.92 5.15 9.58
4/15/2022 2:15:00 AM 14.82 58.676 0.305 7.9 4.9 9.57
4/15/2022 2:30:00 AM 14.74 58.532 0.374 7.91 5.63 9.57
4/15/2022 2:45:00 AM 14.64 58.352 0.281 7.89 5.27 9.56
4/15/2022 3:00:00 AM 14.56 58.208 0.286 7.88 5.75 9.57
4/15/2022 3:15:00 AM 14.47 58.046 0.273 7.87 6.29 9.56
4/15/2022 3:30:00 AM 14.39 57.902 0.265 7.87 5.9 9.57
4/15/2022 3:45:00 AM 14.31 57.758 0.286 7.87 5.91 9.58
4/15/2022 4:00:00 AM 14.23 57.614 0.305 7.87 6.19 9.58
4/15/2022 4:15:00 AM 14.15 57.47 0.308 7.85 6.36 9.59
4/15/2022 4:30:00 AM 14.07 57.326 0.383 7.84 6.08 9.59
4/15/2022 4:45:00 AM 14 57.2 0.292 7.85 6.19 9.6
4/15/2022 5:00:00 AM 13.92 57.056 0.223 7.84 6.61 9.61
4/15/2022 5:15:00 AM 13.83 56.894 0.239 7.85 5.75 9.63
4/15/2022 5:30:00 AM 13.75 56.75 0.289 7.84 6.03 9.64
4/15/2022 5:45:00 AM 13.68 56.624 0.29 7.84 6.75 9.64
4/15/2022 6:00:00 AM 13.6 56.48 0.281 7.84 5.88 9.66
4/15/2022 6:15:00 AM 13.52 56.336 0.289 7.83 5.84 9.67
4/15/2022 6:30:00 AM 13.44 56.192 0.262 7.83 5.72 9.69
4/15/2022 6:45:00 AM 13.36 56.048 0.242 7.83 6.66 9.71
4/15/2022 7:00:00 AM 13.29 55.922 0.292 7.83 5.92 9.73
4/15/2022 7:15:00 AM 13.22 55.796 0.279 7.83 6.07 9.76
4/15/2022 7:30:00 AM 13.15 55.67 0.395 7.83 5.85 9.78
4/15/2022 7:45:00 AM 13.09 55.562 0.292 7.83 5.8 9.8
4/15/2022 8:00:00 AM 13.04 55.472 0.277 7.83 5.77 9.84
4/15/2022 8:15:00 AM 12.99 55.382 0.205 7.84 5.99 9.88
4/15/2022 8:30:00 AM 12.95 55.31 0.267 7.85 6.16 9.93
4/15/2022 8:45:00 AM 12.92 55.256 0.226 7.86 5.96 9.99
4/15/2022 9:00:00 AM 12.9 55.22 0.283 7.87 5.75 10.05
4/15/2022 9:15:00 AM 12.89 55.202 0.255 7.87 5.46 10.08
4/15/2022 9:30:00 AM 12.89 55.202 0.321 7.88 5.34 10.12
4/15/2022 9:45:00 AM 12.88 55.184 0.309 7.88 5.38 10.16
4/15/2022 10:00:00 AM 12.88 55.184 0.289 7.88 5.55 10.21
4/15/2022 10:15:00 AM 12.88 55.184 0.329 7.89 5.28 10.25
4/15/2022 10:30:00 AM 12.9 55.22 0.309 7.89 170.6 10.28
4/15/2022 10:45:00 AM 12.92 55.256 0.324 7.9 9.4 10.33
4/15/2022 11:00:00 AM 12.96 55.328 0.305 7.9 6.08 10.37
4/15/2022 11:15:00 AM 13 55.4 0.285 7.91 5.44 10.42
4/15/2022 11:30:00 AM 13.05 55.49 0.394 7.93 5.43 10.45
4/15/2022 11:45:00 AM 13.1 55.58 0.305 7.95 5.12 10.5
4/15/2022 12:00:00 PM 13.18 55.724 0.294 7.93 5.5 10.56
4/15/2022 12:15:00 PM 13.25 55.85 0.279 7.96 5.38 10.61
4/15/2022 12:30:00 PM 13.35 56.03 0.269 7.98 5.12 10.67
4/15/2022 12:45:00 PM 13.45 56.21 0.324 8 5.48 10.72
4/15/2022 1:00:00 PM 13.56 56.408 0.298 8.02 5.24 10.78
4/15/2022 1:15:00 PM 13.69 56.642 0.231 8.04 5.23 10.84
4/15/2022 1:30:00 PM 13.85 56.93 0.33 8.08 5.28 10.88
4/15/2022 1:45:00 PM 13.99 57.182 0.298 8.08 5.09 10.93
4/15/2022 2:00:00 PM 14.14 57.452 0.327 8.12 4.55 10.99
4/15/2022 2:15:00 PM 14.29 57.722 0.239 8.15 4.39 11.03
4/15/2022 2:30:00 PM 14.45 58.01 0.331 8.18 4.61 11.08
4/15/2022 2:45:00 PM 14.59 58.262 0.285 8.2 4.74 11.12
4/15/2022 3:00:00 PM 14.73 58.514 0.29 8.24 4.49 11.15
4/15/2022 3:15:00 PM 14.89 58.802 0.228 8.26 4.61 11.18
4/15/2022 3:30:00 PM 15.03 59.054 0.286 8.3 4.43 11.22
4/15/2022 3:45:00 PM 15.16 59.288 0.284 8.32 4.77 11.24
4/15/2022 4:00:00 PM 15.3 59.54 0.291 8.36 5.04 11.26
4/15/2022 4:15:00 PM 15.41 59.738 0.318 8.39 4.76 11.27
4/15/2022 4:30:00 PM 15.53 59.954 0.29 8.43 4.81 11.27
4/15/2022 4:45:00 PM 15.62 60.116 0.311 8.45 4.68 11.28
4/15/2022 5:00:00 PM 15.71 60.278 0.281 8.46 4.35 11.27
4/15/2022 5:15:00 PM 15.77 60.386 0.327 8.5 4.4 11.25
4/15/2022 5:30:00 PM 15.82 60.476 0.294 8.51 4.65 11.22
4/15/2022 5:45:00 PM 15.85 60.53 0.293 8.54 5.28 11.21
4/15/2022 6:00:00 PM 15.86 60.548 0.315 8.55 4.54 11.16
4/15/2022 6:15:00 PM 15.86 60.548 0.328 8.57 4.54 11.16
4/15/2022 6:30:00 PM 15.85 60.53 0.318 8.58 4.39 11.13
4/15/2022 6:45:00 PM 15.84 60.512 0.324 8.6 4.54 11.11
4/15/2022 7:00:00 PM 15.83 60.494 0.297 8.6 4.63 11.08
4/15/2022 7:15:00 PM 15.81 60.458 0.32 8.6 4.54 11.05
4/15/2022 7:30:00 PM 15.78 60.404 0.306 8.6 4.73 11.03
4/15/2022 7:45:00 PM 15.76 60.368 0.367 8.6 11.27 10.99
4/15/2022 8:00:00 PM 15.74 60.332 0.32 8.59 4.9 10.95
4/15/2022 8:15:00 PM 15.7 60.26 0.295 8.58 4.92 10.92
4/15/2022 8:30:00 PM 15.66 60.188 0.367 8.58 5.23 10.88
4/15/2022 8:45:00 PM 15.62 60.116 0.289 8.57 5.69 10.84
4/15/2022 9:00:00 PM 15.58 60.044 0.285 8.55 5.27 10.79
4/15/2022 9:15:00 PM 15.53 59.954 0.32 8.54 5.01 10.76
4/15/2022 9:30:00 PM 15.48 59.864 0.23 8.51 5.76 10.71
4/15/2022 9:45:00 PM 15.42 59.756 0.329 8.49 5.25 10.66
4/15/2022 10:00:00 PM 15.36 59.648 0.282 8.48 5.57 10.61
4/15/2022 10:15:00 PM 15.29 59.522 0.323 8.45 5.21 10.57
4/15/2022 10:30:00 PM 15.22 59.396 0.277 8.42 5.5 10.48
4/15/2022 10:45:00 PM 15.14 59.252 0.318 8.38 6.31 10.46
4/15/2022 11:00:00 PM 15.06 59.108 0.309 8.36 5.37 10.41
4/15/2022 11:15:00 PM 14.98 58.964 0.285 8.32 4.92 10.35
4/15/2022 11:30:00 PM 14.9 58.82 0.366 8.29 5.42 10.3
4/15/2022 11:45:00 PM 14.81 58.658 0.417 8.27 5.24 10.24
4/16/2022 12:00:00 AM 14.71 58.478 0.184 8.22 5.35 10.2
4/16/2022 12:15:00 AM 14.62 58.316 0.321 8.19 5.15 10.13
4/16/2022 12:30:00 AM 14.53 58.154 0.372 8.17 5.23 10.08
4/16/2022 12:45:00 AM 14.45 58.01 0.293 8.14 4.98 10.04
4/16/2022 1:00:00 AM 14.35 57.83 0.285 8.08 4.88 9.99
4/16/2022 1:15:00 AM 14.26 57.668 0.219 8.09 5.21 9.96
4/16/2022 1:30:00 AM 14.18 57.524 0.214 8.07 4.87 9.93
4/16/2022 1:45:00 AM 14.09 57.362 0.219 8.05 5.32 9.91
4/16/2022 2:00:00 AM 14 57.2 0.225 8.04 5.22 9.88
4/16/2022 2:15:00 AM 13.92 57.056 0.27 8.03 5.14 9.86
4/16/2022 2:30:00 AM 13.84 56.912 0.273 8.01 5.34 9.84
4/16/2022 2:45:00 AM 13.77 56.786 0.272 7.99 5.55 9.83
4/16/2022 3:00:00 AM 13.69 56.642 0.388 7.98 5.01 9.81
4/16/2022 3:15:00 AM 13.63 56.534 0.386 7.97 5.17 9.8
4/16/2022 3:30:00 AM 13.56 56.408 0.288 7.96 5.46 9.78
4/16/2022 3:45:00 AM 13.49 56.282 0.229 7.94 5.19 9.78
4/16/2022 4:00:00 AM 13.42 56.156 0.283 7.93 5.34 9.76
4/16/2022 4:15:00 AM 13.37 56.066 0.292 7.93 4.95 9.77
4/16/2022 4:30:00 AM 13.32 55.976 0.277 7.93 5.5 9.76
4/16/2022 4:45:00 AM 13.28 55.904 0.269 7.93 5.57 9.76
4/16/2022 5:00:00 AM 13.23 55.814 0.293 7.92 5.2 9.76
4/16/2022 5:15:00 AM 13.19 55.742 0.278 7.91 4.99 9.75
4/16/2022 5:30:00 AM 13.15 55.67 0.309 7.92 5.49 9.74
4/16/2022 5:45:00 AM 13.12 55.616 0.296 7.91 5.68 9.75
4/16/2022 6:00:00 AM 13.08 55.544 0.291 7.91 5.55 9.74
4/16/2022 6:15:00 AM 13.05 55.49 0.294 7.9 5.38 9.75
4/16/2022 6:30:00 AM 13.03 55.454 0.287 7.88 5.27 9.74
4/16/2022 6:45:00 AM 12.99 55.382 0.3 7.9 5.51 9.75
4/16/2022 7:00:00 AM 12.97 55.346 0.303 7.89 5.66 9.76
4/16/2022 7:15:00 AM 12.95 55.31 0.226 7.89 5.57 9.78
4/16/2022 7:30:00 AM 12.93 55.274 0.284 7.9 5.46 9.77
4/16/2022 7:45:00 AM 12.92 55.256 0.269 7.9 5.29 9.8
4/16/2022 8:00:00 AM 12.92 55.256 0.28 7.9 5.34 9.83
4/16/2022 8:15:00 AM 12.92 55.256 0.271 7.9 5.01 9.88
4/16/2022 8:30:00 AM 12.92 55.256 0.396 7.91 4.98 9.87
4/16/2022 8:45:00 AM 12.93 55.274 0.233 7.91 5.48 9.91
4/16/2022 9:00:00 AM 12.94 55.292 0.39 7.9 5.74 9.91
4/16/2022 9:15:00 AM 12.97 55.346 0.391 7.91 4.87 10
4/16/2022 9:30:00 AM 13.01 55.418 0.29 7.88 4.77 10.03
4/16/2022 9:45:00 AM 13.02 55.436 0.395 7.91 4.69 10.01
4/16/2022 10:00:00 AM 13.04 55.472 0.243 7.92 4.67 10.01
4/16/2022 10:15:00 AM 13.08 55.544 0.288 7.92 5.07 10.08
4/16/2022 10:30:00 AM 13.14 55.652 0.291 7.93 4.46 10.11
4/16/2022 10:45:00 AM 13.17 55.706 0.298 7.93 4.59 10.13
4/16/2022 11:00:00 AM 13.26 55.868 0.303 7.93 4.4 10.17
4/16/2022 11:15:00 AM 13.29 55.922 0.244 7.94 4.68 10.16
4/16/2022 11:30:00 AM 13.29 55.922 0.303 7.92 4.54 10.11
4/16/2022 11:45:00 AM 13.33 55.994 0.237 7.93 5.01 10.15
4/16/2022 12:00:00 PM 13.35 56.03 0.283 7.94 4.4 10.12
4/16/2022 12:15:00 PM 13.37 56.066 0.287 7.95 4.8 10.09
4/16/2022 12:30:00 PM 13.39 56.102 0.306 7.95 5.49 10.12
4/16/2022 12:45:00 PM 13.41 56.138 0.228 7.95 5.46 10.12
4/16/2022 1:00:00 PM 13.44 56.192 0.267 7.95 4.9 10.22
4/16/2022 1:15:00 PM 13.48 56.264 0.284 7.98 4.73 10.31
4/16/2022 1:30:00 PM 13.57 56.426 0.267 8.02 4.85 10.5
4/16/2022 1:45:00 PM 13.67 56.606 0.238 8 4.86 10.59
4/16/2022 2:00:00 PM 13.74 56.732 0.251 8.07 4.84 10.62
4/16/2022 2:15:00 PM 13.83 56.894 0.239 8.08 4.65 10.71
4/16/2022 2:30:00 PM 13.99 57.182 0.296 8.09 5.01 10.79
4/16/2022 2:45:00 PM 14.13 57.434 0.288 8.14 4.76 10.83
4/16/2022 3:00:00 PM 14.26 57.668 0.271 8.17 4.62 10.88
4/16/2022 3:15:00 PM 14.33 57.794 0.505 8.19 4.77 10.86
4/16/2022 3:30:00 PM 14.38 57.884 0.289 8.2 4.79 10.87
4/16/2022 3:45:00 PM 14.42 57.956 0.221 8.2 4.74 10.85
4/16/2022 4:00:00 PM 14.49 58.082 0.284 8.23 5.25 10.87
4/16/2022 4:15:00 PM 14.54 58.172 0.302 8.24 5.08 10.83
4/16/2022 4:30:00 PM 14.58 58.244 0.305 8.21 4.84 10.89
4/16/2022 4:45:00 PM 14.63 58.334 0.31 8.28 4.67 11
4/16/2022 5:00:00 PM 14.64 58.352 0.297 8.29 4.92 10.97
4/16/2022 5:15:00 PM 14.62 58.316 0.259 8.29 4.98 10.84
4/16/2022 5:30:00 PM 14.64 58.352 0.302 8.3 4.58 10.88
4/16/2022 5:45:00 PM 14.65 58.37 0.276 8.3 5.04 10.86
4/16/2022 6:00:00 PM 14.67 58.406 0.298 8.28 4.63 10.87
4/16/2022 6:15:00 PM 14.7 58.46 0.286 8.33 4.83 10.87
4/16/2022 6:30:00 PM 14.73 58.514 0.287 8.36 4.4 10.91
4/16/2022 6:45:00 PM 14.76 58.568 0.304 8.36 4.37 10.89
4/16/2022 7:00:00 PM 14.79 58.622 0.319 8.37 4.25 10.87
4/16/2022 7:15:00 PM 14.82 58.676 0.249 8.39 4.37 10.89
4/16/2022 7:30:00 PM 14.84 58.712 0.244 8.4 4.36 10.88
4/16/2022 7:45:00 PM 14.87 58.766 0.284 8.41 4.47 10.87
4/16/2022 8:00:00 PM 14.89 58.802 0.29 8.43 4.64 10.84
4/16/2022 8:15:00 PM 14.89 58.802 0.25 8.42 4.77 10.82
4/16/2022 8:30:00 PM 14.88 58.784 0.264 8.41 4.87 10.78
4/16/2022 8:45:00 PM 14.86 58.748 0.497 8.41 5.18 10.74
4/16/2022 9:00:00 PM 14.83 58.694 0.247 8.38 5.41 10.7
4/16/2022 9:15:00 PM 14.79 58.622 0.289 8.36 5.28 10.65
4/16/2022 9:30:00 PM 14.76 58.568 0.283 8.34 5.11 10.6
4/16/2022 9:45:00 PM 14.7 58.46 0.289 8.32 5.11 10.54
4/16/2022 10:00:00 PM 14.67 58.406 0.29 8.29 4.97 10.48
4/16/2022 10:15:00 PM 14.62 58.316 0.29 8.27 5.25 10.43
4/16/2022 10:30:00 PM 14.58 58.244 0.302 8.25 5.11 10.37
4/16/2022 10:45:00 PM 14.53 58.154 0.313 8.22 5.46 10.31
4/16/2022 11:00:00 PM 14.48 58.064 0.302 8.18 5.32 10.26
4/16/2022 11:15:00 PM 14.43 57.974 0.315 8.17 5.33 10.2
4/16/2022 11:30:00 PM 14.37 57.866 0.291 8.13 5.28 10.15
4/16/2022 11:45:00 PM 14.32 57.776 0.496 8.13 5.43 10.1
4/17/2022 12:00:00 AM 14.26 57.668 0.287 8.1 5.11 10.06
4/17/2022 12:15:00 AM 14.19 57.542 0.287 8.08 5.27 10.01
4/17/2022 12:30:00 AM 14.12 57.416 0.279 8.06 5.78 9.97
4/17/2022 12:45:00 AM 14.05 57.29 0.308 8.05 5.13 9.94
4/17/2022 1:00:00 AM 13.98 57.164 0.292 8.02 6.12 9.91
4/17/2022 1:15:00 AM 13.9 57.02 0.309 8.02 5.56 9.89
4/17/2022 1:30:00 AM 13.82 56.876 0.288 8 5.69 9.87
4/17/2022 1:45:00 AM 13.74 56.732 0.283 8 5.64 9.85
4/17/2022 2:00:00 AM 13.67 56.606 0.328 7.99 5.14 9.83
4/17/2022 2:15:00 AM 13.59 56.462 0.303 7.98 5.29 9.82
4/17/2022 2:30:00 AM 13.52 56.336 0.327 7.96 5.15 9.81
4/17/2022 2:45:00 AM 13.45 56.21 0.251 7.95 5.24 9.8
4/17/2022 3:00:00 AM 13.39 56.102 0.242 7.94 5.24 9.79
4/17/2022 3:15:00 AM 13.32 55.976 0.245 7.93 5.42 9.8
4/17/2022 3:30:00 AM 13.25 55.85 0.299 7.9 4.92 9.79
4/17/2022 3:45:00 AM 13.18 55.724 0.199 7.93 4.9 9.79
4/17/2022 4:00:00 AM 13.11 55.598 0.239 7.89 5.49 9.79
4/17/2022 4:15:00 AM 13.04 55.472 0.28 7.91 5.02 9.8
4/17/2022 4:30:00 AM 12.98 55.364 0.276 7.91 5.38 9.79
4/17/2022 4:45:00 AM 12.9 55.22 0.275 7.91 5.62 9.8
4/17/2022 5:00:00 AM 12.82 55.076 0.287 7.9 5.48 9.82
4/17/2022 5:15:00 AM 12.76 54.968 0.312 7.9 5.7 9.83
4/17/2022 5:30:00 AM 12.68 54.824 0.285 7.9 5.75 9.84
4/17/2022 5:45:00 AM 12.61 54.698 0.318 7.9 5.5 9.85
4/17/2022 6:00:00 AM 12.55 54.59 0.262 7.89 5.58 9.87
4/17/2022 6:15:00 AM 12.47 54.446 0.31 7.89 5.6 9.88
4/17/2022 6:30:00 AM 12.41 54.338 0.298 7.87 5.91 9.9
4/17/2022 6:45:00 AM 12.34 54.212 0.237 7.89 5.77 9.93
4/17/2022 7:00:00 AM 12.29 54.122 0.23 7.89 5.61 9.95
4/17/2022 7:15:00 AM 12.23 54.014 0.245 7.86 5.28 9.98
4/17/2022 7:30:00 AM 12.18 53.924 0.401 7.9 5.68 10.01
4/17/2022 7:45:00 AM 12.13 53.834 0.258 7.89 5.55 10.03
4/17/2022 8:00:00 AM 12.09 53.762 0.22 7.89 5.17 10.09
4/17/2022 8:15:00 AM 12.05 53.69 0.403 7.9 5.6 10.11
4/17/2022 8:30:00 AM 12.02 53.636 0.294 7.9 5.58 10.17
4/17/2022 8:45:00 AM 12.01 53.618 0.321 7.91 5.73 10.23
4/17/2022 9:00:00 AM 12.01 53.618 0.294 7.92 5.07 10.29
4/17/2022 9:15:00 AM 11.97 53.546 0.279 7.92 5.7 10.22
4/17/2022 9:30:00 AM 11.98 53.564 0.335 7.93 5.4 10.29
4/17/2022 9:45:00 AM 11.99 53.582 0.299 7.93 5.21 10.37
4/17/2022 10:00:00 AM 11.94 53.492 0.328 7.92 5.2 10.35
4/17/2022 10:15:00 AM 11.89 53.402 0.299 7.93 5.19 10.32
4/17/2022 10:30:00 AM 11.89 53.402 0.302 7.94 5.39 10.44
4/17/2022 10:45:00 AM 11.97 53.546 0.406 7.95 5.25 10.51
4/17/2022 11:00:00 AM 11.91 53.438 0.271 7.95 5.21 10.4
4/17/2022 11:15:00 AM 11.91 53.438 0.283 7.95 5.03 10.45
4/17/2022 11:30:00 AM 11.89 53.402 0.295 7.96 4.77 10.51
4/17/2022 11:45:00 AM 12.03 53.654 0.275 7.98 4.91 10.67
4/17/2022 12:00:00 PM 12.08 53.744 0.222 7.98 5.97 10.66
4/17/2022 12:15:00 PM 12.07 53.726 0.332 7.99 4.93 10.67
4/17/2022 12:30:00 PM 12.1 53.78 0.404 8.01 4.95 10.73
4/17/2022 12:45:00 PM 12.11 53.798 0.275 8.01 4.94 10.74
4/17/2022 1:00:00 PM 12.13 53.834 0.3 8.03 5.09 10.77
4/17/2022 1:15:00 PM 12.18 53.924 0.23 8.04 5.52 10.87
4/17/2022 1:30:00 PM 12.38 54.284 0.303 8.08 5.01 11.02
4/17/2022 1:45:00 PM 12.46 54.428 0.231 8.1 4.89 11.07
4/17/2022 2:00:00 PM 12.52 54.536 0.229 8.11 5.08 11.06
4/17/2022 2:15:00 PM 12.6 54.68 0.312 8.13 5.68 11.14
4/17/2022 2:30:00 PM 12.65 54.77 0.287 8.15 5.29 11.15
4/17/2022 2:45:00 PM 12.75 54.95 0.272 8.19 4.79 11.24
4/17/2022 3:00:00 PM 12.8 55.04 0.255 8.2 4.62 11.26
4/17/2022 3:15:00 PM 12.9 55.22 0.29 8.22 4.78 11.32
4/17/2022 3:30:00 PM 12.97 55.346 0.325 8.25 5.05 11.39
4/17/2022 3:45:00 PM 13.1 55.58 0.291 8.28 5.32 11.5
4/17/2022 4:00:00 PM 13.15 55.67 0.272 8.31 4.57 11.5
4/17/2022 4:15:00 PM 13.17 55.706 0.321 8.32 4.83 11.45
4/17/2022 4:30:00 PM 13.25 55.85 0.283 8.35 5.12 11.52
4/17/2022 4:45:00 PM 13.3 55.94 0.325 8.37 4.92 11.5
4/17/2022 5:00:00 PM 13.36 56.048 0.314 8.39 4.77 11.54
4/17/2022 5:15:00 PM 13.43 56.174 0.285 8.41 5.13 11.55
4/17/2022 5:30:00 PM 13.46 56.228 0.39 8.43 5.18 11.55
4/17/2022 5:45:00 PM 13.49 56.282 0.385 8.45 5.49 11.54
4/17/2022 6:00:00 PM 13.51 56.318 0.28 8.45 4.81 11.52
4/17/2022 6:15:00 PM 13.52 56.336 0.293 8.46 4.88 11.51
4/17/2022 6:30:00 PM 13.5 56.3 0.289 8.44 4.78 11.51
4/17/2022 6:45:00 PM 13.47 56.246 0.391 8.5 4.95 11.52
4/17/2022 7:00:00 PM 13.43 56.174 0.289 8.5 5.13 11.49
4/17/2022 7:15:00 PM 13.39 56.102 0.386 8.52 5.03 11.49
4/17/2022 7:30:00 PM 13.34 56.012 0.323 8.51 5.42 11.48
4/17/2022 7:45:00 PM 13.3 55.94 0.298 8.51 5.43 11.46
4/17/2022 8:00:00 PM 13.25 55.85 0.315 8.51 5.42 11.45
4/17/2022 8:15:00 PM 13.21 55.778 0.235 8.5 5.37 11.44
4/17/2022 8:30:00 PM 13.16 55.688 0.262 8.51 5.77 11.43
4/17/2022 8:45:00 PM 13.12 55.616 0.322 8.51 5.25 11.43
4/17/2022 9:00:00 PM 13.07 55.526 0.234 8.5 5.06 11.41
4/17/2022 9:15:00 PM 13.03 55.454 0.328 8.5 4.94 11.39
4/17/2022 9:30:00 PM 12.97 55.346 0.243 8.49 4.9 11.38
4/17/2022 9:45:00 PM 12.92 55.256 0.309 8.47 5.58 11.34
4/17/2022 10:00:00 PM 12.87 55.166 0.309 8.46 5.28 11.31
4/17/2022 10:15:00 PM 12.81 55.058 0.304 8.44 4.98 11.28
4/17/2022 10:30:00 PM 12.75 54.95 0.304 8.39 5.09 11.24
4/17/2022 10:45:00 PM 12.7 54.86 0.262 8.39 4.94 11.2
4/17/2022 11:00:00 PM 12.63 54.734 0.299 8.38 4.93 11.16
4/17/2022 11:15:00 PM 12.56 54.608 0.307 8.35 5.13 11.12
4/17/2022 11:30:00 PM 12.48 54.464 0.305 8.33 5.43 11.07
4/17/2022 11:45:00 PM 12.41 54.338 0.238 8.28 5.54 11.03
4/18/2022 12:00:00 AM 12.32 54.176 0.213 8.27 5.32 10.97
4/18/2022 12:15:00 AM 12.25 54.05 0.308 8.25 5.3 10.93
4/18/2022 12:30:00 AM 12.17 53.906 0.285 8.22 5.28 10.89
4/18/2022 12:45:00 AM 12.08 53.744 0.264 8.18 5.15 10.84
4/18/2022 1:00:00 AM 11.99 53.582 0.303 8.12 5.21 10.8
4/18/2022 1:15:00 AM 11.91 53.438 0.273 8.14 5.23 10.75
4/18/2022 1:30:00 AM 11.82 53.276 0.326 8.12 5.2 10.72
4/18/2022 1:45:00 AM 11.73 53.114 0.408 8.1 5.58 10.68
4/18/2022 2:00:00 AM 11.64 52.952 0.293 8.08 5.32 10.66
4/18/2022 2:15:00 AM 11.55 52.79 0.237 8.05 5.65 10.63
4/18/2022 2:30:00 AM 11.46 52.628 0.313 8.04 5.34 10.61
4/18/2022 2:45:00 AM 11.37 52.466 0.283 8.02 5.15 10.59
4/18/2022 3:00:00 AM 11.28 52.304 0.277 8.01 5.76 10.58
4/18/2022 3:15:00 AM 11.18 52.124 0.287 7.99 5.34 10.57
4/18/2022 3:30:00 AM 11.1 51.98 0.305 8 5.1 10.56
4/18/2022 3:45:00 AM 11.01 51.818 0.253 7.98 5.03 10.56
4/18/2022 4:00:00 AM 10.9 51.62 0.283 7.97 4.93 10.56
4/18/2022 4:15:00 AM 10.82 51.476 0.304 7.96 4.95 10.56
4/18/2022 4:30:00 AM 10.73 51.314 0.218 7.96 5.21 10.56
4/18/2022 4:45:00 AM 10.64 51.152 0.273 7.95 4.98 10.56
4/18/2022 5:00:00 AM 10.55 50.99 0.28 7.94 5.28 10.57
4/18/2022 5:15:00 AM 10.46 50.828 0.246 7.94 5.3 10.57
4/18/2022 5:30:00 AM 10.38 50.684 0.32 7.93 5.28 10.58
4/18/2022 5:45:00 AM 10.29 50.522 0.245 7.93 5.64 10.59
4/18/2022 6:00:00 AM 10.21 50.378 0.416 7.93 4.92 10.61
4/18/2022 6:15:00 AM 10.13 50.234 0.416 7.93 5.07 10.61
4/18/2022 6:30:00 AM 10.06 50.108 0.264 7.92 5.16 10.62
4/18/2022 6:45:00 AM 9.99 49.982 0.421 7.92 5.1 10.65
4/18/2022 7:00:00 AM 9.92 49.856 0.261 7.89 5.55 10.69
4/18/2022 7:15:00 AM 9.86 49.748 0.246 7.92 5.08 10.73
4/18/2022 7:30:00 AM 9.81 49.658 0.252 7.91 5.08 10.74
4/18/2022 7:45:00 AM 9.75 49.55 0.215 7.92 4.9 10.79
4/18/2022 8:00:00 AM 9.7 49.46 0.318 7.92 4.99 10.81
4/18/2022 8:15:00 AM 9.65 49.37 0.247 7.91 4.77 10.84
4/18/2022 8:30:00 AM 9.6 49.28 0.278 7.92 5.06 10.87
4/18/2022 8:45:00 AM 9.57 49.226 0.269 7.9 5.14 10.93
4/18/2022 9:00:00 AM 9.56 49.208 0.306 7.93 4.98 10.96
4/18/2022 9:15:00 AM 9.51 49.118 0.304 7.94 4.51 10.96
4/18/2022 9:30:00 AM 9.48 49.064 0.425 7.94 6.1 10.96
4/18/2022 9:45:00 AM 9.44 48.992 0.331 7.93 4.49 10.98
4/18/2022 10:00:00 AM 9.42 48.956 0.329 7.94 4.71 11.01
4/18/2022 10:15:00 AM 9.4 48.92 0.346 7.94 4.45 11.07
4/18/2022 10:30:00 AM 9.38 48.884 0.425 7.94 4.6 11.09
4/18/2022 10:45:00 AM 9.35 48.83 0.287 7.94 4.46 11.07
4/18/2022 11:00:00 AM 9.31 48.758 0.303 7.95 4.38 11.08
4/18/2022 11:15:00 AM 9.29 48.722 0.304 7.93 4.41 11.12
4/18/2022 11:30:00 AM 9.28 48.704 0.307 7.93 4.56 11.13
4/18/2022 11:45:00 AM 9.26 48.668 0.295 7.97 4.11 11.16
4/18/2022 12:00:00 PM 9.24 48.632 0.43 7.99 4.36 11.17
4/18/2022 12:15:00 PM 9.22 48.596 0.311 7.95 4.41 11.19
4/18/2022 12:30:00 PM 9.21 48.578 0.282 7.97 4.36 11.19
4/18/2022 12:45:00 PM 9.2 48.56 0.314 7.98 4.81 11.22
4/18/2022 1:00:00 PM 9.18 48.524 0.262 7.98 4.34 11.27
4/18/2022 1:15:00 PM 9.18 48.524 0.228 7.99 4.21 11.31
4/18/2022 1:30:00 PM 9.18 48.524 0.284 8 3.97 11.36
4/18/2022 1:45:00 PM 9.19 48.542 0.426 8.02 4.13 11.43
4/18/2022 2:00:00 PM 9.19 48.542 0.284 8.03 4.11 11.46
4/18/2022 2:15:00 PM 9.2 48.56 0.23 8.05 4.11 11.52
4/18/2022 2:30:00 PM 9.2 48.56 0.43 8.05 4.1 11.56
4/18/2022 2:45:00 PM 9.21 48.578 0.259 8.06 4.08 11.62
4/18/2022 3:00:00 PM 9.21 48.578 0.268 8.07 4.18 11.66
4/18/2022 3:15:00 PM 9.2 48.56 0.274 8.1 3.96 11.7
4/18/2022 3:30:00 PM 9.2 48.56 0.427 8.12 3.88 11.73
4/18/2022 3:45:00 PM 9.19 48.542 0.213 8.13 3.96 11.78
4/18/2022 4:00:00 PM 9.19 48.542 0.301 8.13 4.05 11.82
4/18/2022 4:15:00 PM 9.18 48.524 0.326 8.14 3.77 11.82
4/18/2022 4:30:00 PM 9.17 48.506 0.353 8.15 3.76 11.84
4/18/2022 4:45:00 PM 9.17 48.506 0.37 8.17 3.9 11.87
4/18/2022 5:00:00 PM 9.15 48.47 0.35 8.16 3.79 11.89
4/18/2022 5:15:00 PM 9.14 48.452 0.366 8.17 3.46 11.9
4/18/2022 5:30:00 PM 9.13 48.434 0.323 8.18 3.72 11.9
4/18/2022 5:45:00 PM 9.12 48.416 0.288 8.19 3.37 11.89
4/18/2022 6:00:00 PM 9.1 48.38 0.306 8.18 3.47 11.86
4/18/2022 6:15:00 PM 9.09 48.362 0.317 8.18 3.19 11.85
4/18/2022 6:30:00 PM 9.07 48.326 0.345 8.18 3.2 11.83
4/18/2022 6:45:00 PM 9.06 48.308 0.356 8.17 3.24 11.81
4/18/2022 7:00:00 PM 9.04 48.272 0.429 8.18 3.04 11.78
4/18/2022 7:15:00 PM 9.02 48.236 0.346 8.16 3.08 11.76
4/18/2022 7:30:00 PM 9 48.2 0.34 8.15 3.32 11.74
4/18/2022 7:45:00 PM 8.98 48.164 0.334 8.15 3.06 11.72
4/18/2022 8:00:00 PM 8.95 48.11 0.327 8.15 3.29 11.7
4/18/2022 8:15:00 PM 8.92 48.056 0.306 8.14 3.17 11.69
4/18/2022 8:30:00 PM 8.89 48.002 0.331 8.14 3.18 11.68
4/18/2022 8:45:00 PM 8.86 47.948 0.29 8.13 3.12 11.67
4/18/2022 9:00:00 PM 8.82 47.876 0.327 8.13 3.36 11.66
4/18/2022 9:15:00 PM 8.77 47.786 0.34 8.12 3.56 11.65
4/18/2022 9:30:00 PM 8.74 47.732 0.34 8.1 3.43 11.63
4/18/2022 9:45:00 PM 8.7 47.66 0.278 8.11 3.89 11.62
4/18/2022 10:00:00 PM 8.67 47.606 0.285 8.11 4.33 11.62
4/18/2022 10:15:00 PM 8.63 47.534 0.284 8.09 3.86 11.62
4/18/2022 10:30:00 PM 8.58 47.444 0.278 8.09 4.12 11.61
4/18/2022 10:45:00 PM 8.53 47.354 0.348 8.07 4.25 11.6
4/18/2022 11:00:00 PM 8.48 47.264 0.417 8.07 5.08 11.59
4/18/2022 11:15:00 PM 8.44 47.192 0.308 8.06 4.66 11.59
4/18/2022 11:30:00 PM 8.39 47.102 0.295 8.05 5.09 11.57
4/18/2022 11:45:00 PM 8.34 47.012 0.351 8.03 4.74 11.56
4/19/2022 12:00:00 AM 8.29 46.922 0.329 8.02 5.44 11.54
4/19/2022 12:15:00 AM 8.24 46.832 0.315 8.01 5.27 11.52
4/19/2022 12:30:00 AM 8.18 46.724 0.411 8.01 5.59 11.51
4/19/2022 12:45:00 AM 8.12 46.616 0.408 7.99 5.55 11.5
4/19/2022 1:00:00 AM 8.06 46.508 0.282 7.98 6.06 11.5
4/19/2022 1:15:00 AM 8 46.4 0.319 7.96 6.59 11.5
4/19/2022 1:30:00 AM 7.97 46.346 0.269 7.95 8.96 11.51
4/19/2022 1:45:00 AM 7.92 46.256 0.305 7.94 10 11.51
4/19/2022 2:00:00 AM 7.86 46.148 0.289 7.91 13.41 11.53
4/19/2022 2:15:00 AM 7.79 46.022 0.376 7.9 12.34 11.55
4/19/2022 2:30:00 AM 7.72 45.896 0.374 7.91 14.42 11.57
4/19/2022 2:45:00 AM 7.67 45.806 0.237 7.89 12.22 11.59
4/19/2022 3:00:00 AM 7.61 45.698 0.372 7.87 12.8 11.6
4/19/2022 3:15:00 AM 7.54 45.572 0.267 7.87 13.02 11.64
4/19/2022 3:30:00 AM 7.48 45.464 0.3 7.85 14.05 11.66
4/19/2022 3:45:00 AM 7.43 45.374 0.306 7.87 19.54 11.69
4/19/2022 4:00:00 AM 7.41 45.338 0.241 7.87 22.22 11.71
4/19/2022 4:15:00 AM 7.39 45.302 0.296 7.87 23.32 11.73
4/19/2022 4:30:00 AM 7.36 45.248 0.25 7.87 28.63 11.75
4/19/2022 4:45:00 AM 7.34 45.212 0.369 7.86 46.24 11.76
4/19/2022 5:00:00 AM 7.31 45.158 0.295 7.8 51.48 11.77
4/19/2022 5:15:00 AM 7.27 45.086 0.275 7.84 40.94 11.77
4/19/2022 5:30:00 AM 7.21 44.978 0.256 7.83 66.28 11.79
4/19/2022 5:45:00 AM 7.12 44.816 0.217 7.8 66.94 11.82
4/19/2022 6:00:00 AM 7.01 44.618 0.224 7.8 66.64 11.86
4/19/2022 6:15:00 AM 6.91 44.438 0.201 7.78 102.52 11.91
4/19/2022 6:30:00 AM 6.82 44.276 0.202 7.75 83.21 11.95
4/19/2022 6:45:00 AM 6.74 44.132 0.202 7.76 72.12 11.99
4/19/2022 7:00:00 AM 6.68 44.024 0.183 7.75 90.89 12
4/19/2022 7:15:00 AM 6.63 43.934 0.2 7.75 88.24 12.02
4/19/2022 7:30:00 AM 6.6 43.88 0.181 7.71 114.72 12.03
4/19/2022 7:45:00 AM 6.58 43.844 0.184 7.76 126.54 12.04
4/19/2022 8:00:00 AM 6.56 43.808 0.157 7.72 107.97 12.05
4/19/2022 8:15:00 AM 6.55 43.79 0.196 7.67 142.6 12.04
4/19/2022 8:30:00 AM 6.55 43.79 0.193 7.71 123.78 12.05
4/19/2022 8:45:00 AM 6.55 43.79 0.238 7.73 156.16 12.05
4/19/2022 9:00:00 AM 6.57 43.826 0.165 7.67 120.87 12.05
4/19/2022 9:15:00 AM 6.58 43.844 0.169 7.67 111.85 12.06
4/19/2022 9:30:00 AM 6.6 43.88 0.187 7.7 108.38 12.06
4/19/2022 9:45:00 AM 6.63 43.934 0.185 7.72 101.73 12.05
4/19/2022 10:00:00 AM 6.66 43.988 0.187 7.71 104.17 12.05
4/19/2022 10:15:00 AM 6.69 44.042 0.149 7.7 114.84 12.05
4/19/2022 10:30:00 AM 6.73 44.114 0.193 7.72 108.37 12.05
4/19/2022 10:45:00 AM 6.76 44.168 0.243 7.71 106.2 12.03
4/19/2022 11:00:00 AM 6.81 44.258 0.162 7.7 103.79 12.03
4/19/2022 11:15:00 AM 6.86 44.348 0.178 7.7 98.78 12.01
4/19/2022 11:30:00 AM 6.91 44.438 0.194 7.71 103.54 12
4/19/2022 11:45:00 AM 7 44.6 0.246 7.71 95.68 11.99
4/19/2022 12:00:00 PM 7.07 44.726 0.197 7.67 108.65 11.97
4/19/2022 12:15:00 PM 7.1 44.78 0.157 7.69 90.66 11.97
4/19/2022 12:30:00 PM 7.16 44.888 0.152 7.7 79.6 11.95
4/19/2022 12:45:00 PM 7.22 44.996 0.173 7.71 77.06 11.94
4/19/2022 1:00:00 PM 7.3 45.14 0.18 7.71 71.53 11.93
4/19/2022 1:15:00 PM 7.36 45.248 0.19 7.72 71.01 11.91
4/19/2022 1:30:00 PM 7.39 45.302 0.159 7.72 58.95 11.9
4/19/2022 1:45:00 PM 7.41 45.338 0.253 7.73 65.42 11.89
4/19/2022 2:00:00 PM 7.47 45.446 0.2 7.72 62.2 11.88
4/19/2022 2:15:00 PM 7.52 45.536 0.206 7.74 60.42 11.86
4/19/2022 2:30:00 PM 7.61 45.698 0.19 7.73 56.5 11.86
4/19/2022 2:45:00 PM 7.7 45.86 0.161 7.73 51.91 11.83
4/19/2022 3:00:00 PM 7.77 45.986 0.181 7.71 47.37 11.81
4/19/2022 3:15:00 PM 7.83 46.094 0.2 7.74 48.81 11.8
4/19/2022 3:30:00 PM 7.89 46.202 0.199 7.79 45.8 11.78
4/19/2022 3:45:00 PM 7.92 46.256 0.189 7.76 44.27 11.77
4/19/2022 4:00:00 PM 7.96 46.328 0.186 7.76 41.69 11.77
4/19/2022 4:15:00 PM 8.02 46.436 0.209 7.75 42.1 11.75
4/19/2022 4:30:00 PM 8.06 46.508 0.208 7.75 38.78 11.74
4/19/2022 4:45:00 PM 8.15 46.67 0.262 7.77 47.95 11.74
4/19/2022 5:00:00 PM 8.21 46.778 0.173 7.78 37.12 11.72
4/19/2022 5:15:00 PM 8.25 46.85 0.204 7.77 34.75 11.7
4/19/2022 5:30:00 PM 8.28 46.904 0.194 7.76 36.99 11.7
4/19/2022 5:45:00 PM 8.3 46.94 0.21 7.78 33.65 11.7
4/19/2022 6:00:00 PM 8.32 46.976 0.222 7.78 32.15 11.68
4/19/2022 6:15:00 PM 8.34 47.012 0.217 7.77 33.26 11.67
4/19/2022 6:30:00 PM 8.35 47.03 0.223 7.78 32.15 11.66
4/19/2022 6:45:00 PM 8.35 47.03 0.213 7.77 31.31 11.66
4/19/2022 7:00:00 PM 8.37 47.066 0.271 7.79 29.36 11.65
4/19/2022 7:15:00 PM 8.39 47.102 0.198 7.79 29.59 11.65
4/19/2022 7:30:00 PM 8.4 47.12 0.199 7.8 26.81 11.64
4/19/2022 7:45:00 PM 8.41 47.138 0.204 7.79 26.88 11.63
4/19/2022 8:00:00 PM 8.4 47.12 0.206 7.78 26 11.63
4/19/2022 8:15:00 PM 8.4 47.12 0.277 7.8 27.41 11.62
4/19/2022 8:30:00 PM 8.39 47.102 0.208 7.79 24.39 11.62
4/19/2022 8:45:00 PM 8.39 47.102 0.214 7.8 24.61 11.61
4/19/2022 9:00:00 PM 8.39 47.102 0.24 7.88 22.99 11.6
4/19/2022 9:15:00 PM 8.39 47.102 0.223 7.8 23.28 11.6
4/19/2022 9:30:00 PM 8.38 47.084 0.248 7.8 21.53 11.59
4/19/2022 9:45:00 PM 8.36 47.048 0.209 7.8 21.63 11.59
4/19/2022 10:00:00 PM 8.35 47.03 0.244 7.79 20.32 11.58
4/19/2022 10:15:00 PM 8.33 46.994 0.229 7.82 21.45 11.58
4/19/2022 10:30:00 PM 8.31 46.958 0.249 7.8 20.4 11.57
4/19/2022 10:45:00 PM 8.29 46.922 0.298 7.8 20.05 11.56
4/19/2022 11:00:00 PM 8.27 46.886 0.204 7.81 18.85 11.56
4/19/2022 11:15:00 PM 8.25 46.85 0.215 7.81 20.32 11.57
4/19/2022 11:30:00 PM 8.23 46.814 0.233 7.82 18.88 11.56
4/19/2022 11:45:00 PM 8.21 46.778 0.197 7.81 18.06 11.56
4/20/2022 12:00:00 AM 8.18 46.724 0.234 7.8 16.32 11.56
4/20/2022 12:15:00 AM 8.17 46.706 0.248 7.82 17.48 11.56
4/20/2022 12:30:00 AM 8.15 46.67 0.202 7.81 16.74 11.56
4/20/2022 12:45:00 AM 8.13 46.634 0.252 7.8 17.55 11.56
4/20/2022 1:00:00 AM 8.12 46.616 0.23 7.8 15.25 11.56
4/20/2022 1:15:00 AM 8.1 46.58 0.24 7.81 14.76 11.57
4/20/2022 1:30:00 AM 8.08 46.544 0.268 7.8 14.57 11.57
4/20/2022 1:45:00 AM 8.07 46.526 0.232 7.79 14.26 11.57
4/20/2022 2:00:00 AM 8.05 46.49 0.231 7.81 14.45 11.57
4/20/2022 2:15:00 AM 8.04 46.472 0.215 7.82 13.98 11.57
4/20/2022 2:30:00 AM 8.02 46.436 0.33 7.81 13.51 11.57
4/20/2022 2:45:00 AM 8 46.4 0.245 7.79 13.83 11.58
4/20/2022 3:00:00 AM 7.98 46.364 0.211 7.82 13.36 11.58
4/20/2022 3:15:00 AM 7.96 46.328 0.276 7.8 13.05 11.59
4/20/2022 3:30:00 AM 7.95 46.31 0.252 7.82 13.52 11.59
4/20/2022 3:45:00 AM 7.93 46.274 0.279 7.8 13.12 11.6
4/20/2022 4:00:00 AM 7.91 46.238 0.256 7.82 12.85 11.6
4/20/2022 4:15:00 AM 7.89 46.202 0.284 7.82 12.66 11.6
4/20/2022 4:30:00 AM 7.87 46.166 0.338 7.81 12.13 11.6
4/20/2022 4:45:00 AM 7.85 46.13 0.267 7.82 11.96 11.61
4/20/2022 5:00:00 AM 7.83 46.094 0.251 7.82 11.97 11.62
4/20/2022 5:15:00 AM 7.8 46.04 0.215 7.83 11.74 11.63
4/20/2022 5:30:00 AM 7.77 45.986 0.27 7.81 11.54 11.64
4/20/2022 5:45:00 AM 7.74 45.932 0.262 7.83 11.65 11.65
4/20/2022 6:00:00 AM 7.72 45.896 0.251 7.83 11.22 11.66
4/20/2022 6:15:00 AM 7.69 45.842 0.246 7.81 11.35 11.67
4/20/2022 6:30:00 AM 7.66 45.788 0.239 7.8 10.99 11.68
4/20/2022 6:45:00 AM 7.63 45.734 0.257 7.82 10.82 11.7
4/20/2022 7:00:00 AM 7.6 45.68 0.275 7.83 10.81 11.71
4/20/2022 7:15:00 AM 7.57 45.626 0.34 7.83 10.66 11.72
4/20/2022 7:30:00 AM 7.54 45.572 0.246 7.81 10.7 11.74
4/20/2022 7:45:00 AM 7.51 45.518 0.265 7.83 10.74 11.75
4/20/2022 8:00:00 AM 7.49 45.482 0.287 7.82 9.96 11.76
4/20/2022 8:15:00 AM 7.48 45.464 0.276 7.85 10.02 11.79
4/20/2022 8:30:00 AM 7.47 45.446 0.274 7.85 9.48 11.81
4/20/2022 8:45:00 AM 7.47 45.446 0.262 7.86 9.86 11.83
4/20/2022 9:00:00 AM 7.48 45.464 0.299 7.93 9.62 11.85
4/20/2022 9:15:00 AM 7.51 45.518 0.276 7.86 9.62 11.86
4/20/2022 9:30:00 AM 7.53 45.554 0.301 7.85 8.84 11.87
4/20/2022 9:45:00 AM 7.57 45.626 0.273 7.86 8.91 11.89
4/20/2022 10:00:00 AM 7.61 45.698 0.3 7.87 8.52 11.9
4/20/2022 10:15:00 AM 7.67 45.806 0.275 7.88 8.29 11.92
4/20/2022 10:30:00 AM 7.74 45.932 0.231 7.88 8.32 11.94
4/20/2022 10:45:00 AM 7.82 46.076 0.258 7.89 8.35 11.95
4/20/2022 11:00:00 AM 7.91 46.238 0.276 7.91 7.99 11.97
4/20/2022 11:15:00 AM 8 46.4 0.209 7.9 7.9 11.99
4/20/2022 11:30:00 AM 8.11 46.598 0.263 7.93 7.92 12.02
4/20/2022 11:45:00 AM 8.21 46.778 0.276 7.93 7.65 12.03
4/20/2022 12:00:00 PM 8.33 46.994 0.304 7.93 7.57 12.06
4/20/2022 12:15:00 PM 8.45 47.21 0.247 7.96 7.48 12.08
4/20/2022 12:30:00 PM 8.6 47.48 0.276 7.96 7.17 12.1
4/20/2022 12:45:00 PM 8.76 47.768 0.296 7.98 7.29 12.12
4/20/2022 1:00:00 PM 8.93 48.074 0.265 7.99 7.12 12.13
4/20/2022 1:15:00 PM 9.1 48.38 0.242 8.03 7.46 12.15
4/20/2022 1:30:00 PM 9.28 48.704 0.273 8.03 7.05 12.16
4/20/2022 1:45:00 PM 9.46 49.028 0.29 8.06 6.67 12.17
4/20/2022 2:00:00 PM 9.65 49.37 0.278 8.08 6.69 12.17
4/20/2022 2:15:00 PM 9.82 49.676 0.281 8.08 6.62 12.17
4/20/2022 2:30:00 PM 10.01 50.018 0.312 8.11 6.62 12.17
4/20/2022 2:45:00 PM 10.2 50.36 0.27 8.12 6.54 12.16
4/20/2022 3:00:00 PM 10.38 50.684 0.265 8.12 6.45 12.15
4/20/2022 3:15:00 PM 10.54 50.972 0.307 8.16 6.74 12.15
4/20/2022 3:30:00 PM 10.7 51.26 0.299 8.17 6.33 12.13
4/20/2022 3:45:00 PM 10.85 51.53 0.301 8.18 6.21 12.11
4/20/2022 4:00:00 PM 11 51.8 0.256 8.2 5.92 12.09
4/20/2022 4:15:00 PM 11.13 52.034 0.285 8.22 5.96 12.08
4/20/2022 4:30:00 PM 11.24 52.232 0.297 8.22 6.14 12.05
4/20/2022 4:45:00 PM 11.34 52.412 0.305 8.24 5.81 12.03
4/20/2022 5:00:00 PM 11.43 52.574 0.274 8.24 5.95 12.01
4/20/2022 5:15:00 PM 11.51 52.718 0.254 8.24 5.56 11.98
4/20/2022 5:30:00 PM 11.56 52.808 0.373 8.25 5.62 11.94
4/20/2022 5:45:00 PM 11.6 52.88 0.311 8.25 5.67 11.91
4/20/2022 6:00:00 PM 11.62 52.916 0.282 8.25 5.6 11.88
4/20/2022 6:15:00 PM 11.65 52.97 0.31 8.24 5.6 11.85
4/20/2022 6:30:00 PM 11.66 52.988 0.258 8.23 5.21 11.81
4/20/2022 6:45:00 PM 11.66 52.988 0.292 8.23 5.25 11.77
4/20/2022 7:00:00 PM 11.67 53.006 0.288 8.23 5.46 11.74
4/20/2022 7:15:00 PM 11.67 53.006 0.295 8.22 5.34 11.71
4/20/2022 7:30:00 PM 11.67 53.006 0.286 8.21 5.54 11.67
4/20/2022 7:45:00 PM 11.67 53.006 0.261 8.19 5.9 11.62
4/20/2022 8:00:00 PM 11.66 52.988 0.282 8.17 5.8 11.59
4/20/2022 8:15:00 PM 11.65 52.97 0.274 8.16 5.77 11.55
4/20/2022 8:30:00 PM 11.64 52.952 0.272 8.16 5.64 11.51
4/20/2022 8:45:00 PM 11.62 52.916 0.373 8.15 6.09 11.47
4/20/2022 9:00:00 PM 11.6 52.88 0.308 8.13 5.71 11.43
4/20/2022 9:15:00 PM 11.57 52.826 0.315 8.12 5.71 11.4
4/20/2022 9:30:00 PM 11.55 52.79 0.282 8.11 6.21 11.35
4/20/2022 9:45:00 PM 11.51 52.718 0.315 8.08 5.7 11.32
4/20/2022 10:00:00 PM 11.48 52.664 0.291 8.07 6.2 11.27
4/20/2022 10:15:00 PM 11.43 52.574 0.29 8.06 5.98 11.23
4/20/2022 10:30:00 PM 11.39 52.502 0.292 8.05 6.14 11.2
4/20/2022 10:45:00 PM 11.34 52.412 0.288 8.03 5.93 11.16
4/20/2022 11:00:00 PM 11.29 52.322 0.297 8.01 5.89 11.12
4/20/2022 11:15:00 PM 11.23 52.214 0.321 8 5.87 11.09
4/20/2022 11:30:00 PM 11.18 52.124 0.256 7.99 5.98 11.06
4/20/2022 11:45:00 PM 11.12 52.016 0.289 7.96 5.96 11.03
4/21/2022 12:00:00 AM 11.08 51.944 0.254 7.96 5.7 11
4/21/2022 12:15:00 AM 11.02 51.836 0.326 7.94 6.13 10.98
4/21/2022 12:30:00 AM 10.97 51.746 0.258 7.93 5.84 10.96
4/21/2022 12:45:00 AM 10.92 51.656 0.295 7.93 5.8 10.94
4/21/2022 1:00:00 AM 10.87 51.566 0.382 7.93 5.68 10.93
4/21/2022 1:15:00 AM 10.82 51.476 0.383 7.92 5.7 10.92
4/21/2022 1:30:00 AM 10.77 51.386 0.259 7.92 5.8 10.92
4/21/2022 1:45:00 AM 10.72 51.296 0.321 7.9 5.88 10.91
4/21/2022 2:00:00 AM 10.67 51.206 0.317 7.91 5.79 10.91
4/21/2022 2:15:00 AM 10.63 51.134 0.274 7.89 5.84 10.89
4/21/2022 2:30:00 AM 10.59 51.062 0.384 7.9 5.66 10.88
4/21/2022 2:45:00 AM 10.55 50.99 0.386 7.9 5.67 10.88
4/21/2022 3:00:00 AM 10.52 50.936 0.267 7.9 5.86 10.88
4/21/2022 3:15:00 AM 10.48 50.864 0.39 7.89 5.48 10.86
4/21/2022 3:30:00 AM 10.46 50.828 0.39 7.89 5.75 10.85
4/21/2022 3:45:00 AM 10.44 50.792 0.391 7.89 5.5 10.85
4/21/2022 4:00:00 AM 10.42 50.756 0.285 7.88 5.61 10.85
4/21/2022 4:15:00 AM 10.4 50.72 0.391 7.89 5.54 10.85
4/21/2022 4:30:00 AM 10.38 50.684 0.274 7.88 5.53 10.85
4/21/2022 4:45:00 AM 10.37 50.666 0.314 7.88 5.59 10.85
4/21/2022 5:00:00 AM 10.35 50.63 0.323 7.88 5.59 10.84
4/21/2022 5:15:00 AM 10.34 50.612 0.324 7.87 5.81 10.84
4/21/2022 5:30:00 AM 10.32 50.576 0.281 7.87 5.47 10.84
4/21/2022 5:45:00 AM 10.31 50.558 0.393 7.88 6.24 10.83
4/21/2022 6:00:00 AM 10.29 50.522 0.324 7.87 5.73 10.84
4/21/2022 6:15:00 AM 10.27 50.486 0.393 7.87 5.84 10.83
4/21/2022 6:30:00 AM 10.26 50.468 0.394 7.88 6.17 10.83
4/21/2022 6:45:00 AM 10.24 50.432 0.394 7.88 6 10.85
4/21/2022 7:00:00 AM 10.23 50.414 0.302 7.88 6.13 10.86
4/21/2022 7:15:00 AM 10.22 50.396 0.293 7.89 5.88 10.87
4/21/2022 7:30:00 AM 10.22 50.396 0.254 7.88 5.77 10.89
4/21/2022 7:45:00 AM 10.23 50.414 0.309 7.89 6.21 10.92
4/21/2022 8:00:00 AM 10.23 50.414 0.287 7.88 5.57 10.92
4/21/2022 8:15:00 AM 10.23 50.414 0.307 7.89 5.89 10.93
4/21/2022 8:30:00 AM 10.24 50.432 0.312 7.89 5.53 10.94
4/21/2022 8:45:00 AM 10.25 50.45 0.265 7.89 5.49 10.96
4/21/2022 9:00:00 AM 10.26 50.468 0.28 7.89 5.48 10.96
4/21/2022 9:15:00 AM 10.3 50.54 0.398 7.9 5.67 11
4/21/2022 9:30:00 AM 10.33 50.594 0.313 7.9 5.53 11.02
4/21/2022 9:45:00 AM 10.35 50.63 0.325 7.9 5.28 11.03
4/21/2022 10:00:00 AM 10.4 50.72 0.326 7.93 5.09 11.06
4/21/2022 10:15:00 AM 10.42 50.756 0.322 7.91 5.36 11.05
4/21/2022 10:30:00 AM 10.5 50.9 0.279 7.92 5.03 11.11
4/21/2022 10:45:00 AM 10.57 51.026 0.316 7.93 5.25 11.14
4/21/2022 11:00:00 AM 10.62 51.116 0.333 7.94 5.23 11.14
4/21/2022 11:15:00 AM 10.64 51.152 0.324 7.94 5.49 11.13
4/21/2022 11:30:00 AM 10.68 51.224 0.313 7.95 5.3 11.16
4/21/2022 11:45:00 AM 10.7 51.26 0.309 7.95 4.93 11.13
4/21/2022 12:00:00 PM 10.73 51.314 0.324 7.96 5.09 11.2
4/21/2022 12:15:00 PM 10.79 51.422 0.266 7.99 4.92 11.3
4/21/2022 12:30:00 PM 10.87 51.566 0.397 8 5.17 11.36
4/21/2022 12:45:00 PM 11.07 51.926 0.313 8.02 4.86 11.43
4/21/2022 1:00:00 PM 11.2 52.16 0.266 8.04 5.08 11.45
4/21/2022 1:15:00 PM 11.24 52.232 0.333 8.04 4.75 11.42
4/21/2022 1:30:00 PM 11.32 52.376 0.334 8.05 4.68 11.4
4/21/2022 1:45:00 PM 11.42 52.556 0.317 8.07 4.85 11.44
4/21/2022 2:00:00 PM 11.49 52.682 0.301 8.08 4.63 11.44
4/21/2022 2:15:00 PM 11.56 52.808 0.316 8.1 4.93 11.52
4/21/2022 2:30:00 PM 11.64 52.952 0.323 8.11 4.77 11.57
4/21/2022 2:45:00 PM 11.68 53.024 0.345 8.13 4.61 11.54
4/21/2022 3:00:00 PM 11.77 53.186 0.335 8.14 4.61 11.6
4/21/2022 3:15:00 PM 11.81 53.258 0.298 8.13 4.6 11.5
4/21/2022 3:30:00 PM 11.87 53.366 0.268 8.14 4.66 11.5
4/21/2022 3:45:00 PM 11.91 53.438 0.186 8.14 4.32 11.46
4/21/2022 4:00:00 PM 11.96 53.528 0.271 8.14 4.54 11.45
4/21/2022 4:15:00 PM 12.01 53.618 0.274 8.16 4.47 11.47
4/21/2022 4:30:00 PM 12.05 53.69 0.29 8.16 4.39 11.44
4/21/2022 4:45:00 PM 12.09 53.762 0.246 8.17 4.37 11.43
4/21/2022 5:00:00 PM 12.14 53.852 0.284 8.16 4.53 11.43
4/21/2022 5:15:00 PM 12.18 53.924 0.286 8.17 4.79 11.42
4/21/2022 5:30:00 PM 12.23 54.014 0.285 8.17 4.71 11.43
4/21/2022 5:45:00 PM 12.26 54.068 0.312 8.18 4.86 11.4
4/21/2022 6:00:00 PM 12.28 54.104 0.286 8.16 4.85 11.37
4/21/2022 6:15:00 PM 12.29 54.122 0.338 8.18 4.77 11.34
4/21/2022 6:30:00 PM 12.29 54.122 0.398 8.2 4.79 11.3
4/21/2022 6:45:00 PM 12.28 54.104 0.346 8.17 4.43 11.26
4/21/2022 7:00:00 PM 12.27 54.086 0.291 8.14 4.38 11.23
4/21/2022 7:15:00 PM 12.26 54.068 0.255 8.13 4.47 11.18
4/21/2022 7:30:00 PM 12.25 54.05 0.285 8.1 5 11.14
4/21/2022 7:45:00 PM 12.23 54.014 0.266 8.11 4.53 11.1
4/21/2022 8:00:00 PM 12.21 53.978 0.344 8.1 4.71 11.06
4/21/2022 8:15:00 PM 12.18 53.924 0.312 8.07 5.24 11.02
4/21/2022 8:30:00 PM 12.16 53.888 0.302 8.07 5.18 10.98
4/21/2022 8:45:00 PM 12.13 53.834 0.395 8.06 5.16 10.93
4/21/2022 9:00:00 PM 12.11 53.798 0.334 8.04 4.95 10.9
4/21/2022 9:15:00 PM 12.09 53.762 0.327 8.02 4.88 10.87
4/21/2022 9:30:00 PM 12.06 53.708 0.396 8.02 5.21 10.85
4/21/2022 9:45:00 PM 12.03 53.654 0.299 8.01 5.06 10.82
4/21/2022 10:00:00 PM 12 53.6 0.323 7.97 5.29 10.82
4/21/2022 10:15:00 PM 11.98 53.564 0.328 7.98 4.9 10.77
4/21/2022 10:30:00 PM 11.94 53.492 0.396 7.97 5.3 10.75
4/21/2022 10:45:00 PM 11.91 53.438 0.339 7.97 5.17 10.72
4/21/2022 11:00:00 PM 11.87 53.366 0.327 7.96 5.54 10.7
4/21/2022 11:15:00 PM 11.83 53.294 0.33 7.95 5.23 10.7
4/21/2022 11:30:00 PM 11.79 53.222 0.301 7.94 5.17 10.65
4/21/2022 11:45:00 PM 11.75 53.15 0.319 7.92 5.44 10.65
4/22/2022 12:00:00 AM 11.71 53.078 0.33 7.92 5.57 10.62
4/22/2022 12:15:00 AM 11.68 53.024 0.325 7.91 5.25 10.61
4/22/2022 12:30:00 AM 11.65 52.97 0.315 7.9 5.18 10.59
4/22/2022 12:45:00 AM 11.61 52.898 0.311 7.91 5.32 10.6
4/22/2022 1:00:00 AM 11.58 52.844 0.332 7.9 5.18 10.59
4/22/2022 1:15:00 AM 11.54 52.772 0.281 7.9 5.22 10.58
4/22/2022 1:30:00 AM 11.51 52.718 0.401 7.89 5.33 10.57
4/22/2022 1:45:00 AM 11.47 52.646 0.28 7.88 5.44 10.57
4/22/2022 2:00:00 AM 11.43 52.574 0.399 7.88 5.18 10.56
4/22/2022 2:15:00 AM 11.4 52.52 0.303 7.87 5.28 10.56
4/22/2022 2:30:00 AM 11.36 52.448 0.288 7.87 5.66 10.56
4/22/2022 2:45:00 AM 11.32 52.376 0.329 7.87 5.36 10.56
4/22/2022 3:00:00 AM 11.28 52.304 0.333 7.87 5.5 10.56
4/22/2022 3:15:00 AM 11.24 52.232 0.407 7.86 5.44 10.57
4/22/2022 3:30:00 AM 11.2 52.16 0.308 7.86 5.7 10.56
4/22/2022 3:45:00 AM 11.17 52.106 0.307 7.87 5.35 10.57
4/22/2022 4:00:00 AM 11.13 52.034 0.239 7.86 5.37 10.56
4/22/2022 4:15:00 AM 11.1 51.98 0.271 7.86 6.61 10.57
4/22/2022 4:30:00 AM 11.06 51.908 0.256 7.86 5.59 10.58
4/22/2022 4:45:00 AM 11.02 51.836 0.262 7.85 5.66 10.59
4/22/2022 5:00:00 AM 10.98 51.764 0.216 7.86 5.85 10.58
4/22/2022 5:15:00 AM 10.94 51.692 0.269 7.86 5.57 10.6
4/22/2022 5:30:00 AM 10.9 51.62 0.246 7.85 5.83 10.6
4/22/2022 5:45:00 AM 10.86 51.548 0.31 7.84 5.68 10.61
4/22/2022 6:00:00 AM 10.82 51.476 0.301 7.84 5.86 10.62
4/22/2022 6:15:00 AM 10.77 51.386 0.287 7.85 6.19 10.64
4/22/2022 6:30:00 AM 10.72 51.296 0.282 7.85 5.91 10.66
4/22/2022 6:45:00 AM 10.68 51.224 0.412 7.86 5.67 10.67
4/22/2022 7:00:00 AM 10.63 51.134 0.318 7.83 5.72 10.69
4/22/2022 7:15:00 AM 10.6 51.08 0.282 7.84 6.07 10.72
4/22/2022 7:30:00 AM 10.56 51.008 0.334 7.84 5.74 10.73
4/22/2022 7:45:00 AM 10.52 50.936 0.293 7.85 5.76 10.76
4/22/2022 8:00:00 AM 10.5 50.9 0.294 7.86 5.75 10.78
4/22/2022 8:15:00 AM 10.49 50.882 0.272 7.87 5.75 10.82
4/22/2022 8:30:00 AM 10.48 50.864 0.301 7.87 5.65 10.85
4/22/2022 8:45:00 AM 10.49 50.882 0.296 7.87 5.41 10.9
4/22/2022 9:00:00 AM 10.5 50.9 0.301 7.87 5.55 10.92
4/22/2022 9:15:00 AM 10.52 50.936 0.412 7.89 5.57 10.93
4/22/2022 9:30:00 AM 10.55 50.99 0.412 7.89 5.15 10.96
4/22/2022 9:45:00 AM 10.59 51.062 0.331 7.88 4.97 10.99
4/22/2022 10:00:00 AM 10.63 51.134 0.282 7.9 5.18 11.01
4/22/2022 10:15:00 AM 10.67 51.206 0.409 7.91 5.02 11.01
4/22/2022 10:30:00 AM 10.73 51.314 0.322 7.9 5.2 11.03
4/22/2022 10:45:00 AM 10.8 51.44 0.335 7.91 5.49 11.05
4/22/2022 11:00:00 AM 10.89 51.602 0.33 7.92 4.76 11.1
4/22/2022 11:15:00 AM 10.98 51.764 0.332 7.93 4.66 11.12
4/22/2022 11:30:00 AM 11.07 51.926 0.302 7.94 4.58 11.15
4/22/2022 11:45:00 AM 11.19 52.142 0.222 7.95 4.49 11.16
4/22/2022 12:00:00 PM 11.31 52.358 0.217 7.97 4.62 11.2
4/22/2022 12:15:00 PM 11.43 52.574 0.3 7.97 4.54 11.22
4/22/2022 12:30:00 PM 11.58 52.844 0.303 7.98 4.35 11.25
4/22/2022 12:45:00 PM 11.73 53.114 0.277 8 4.74 11.28
4/22/2022 1:00:00 PM 11.9 53.42 0.215 8.02 4.86 11.3
4/22/2022 1:15:00 PM 12.07 53.726 0.31 8.04 4.55 11.32
4/22/2022 1:30:00 PM 12.25 54.05 0.224 8.05 4.67 11.34
4/22/2022 1:45:00 PM 12.44 54.392 0.225 8.07 4.51 11.35
4/22/2022 2:00:00 PM 12.6 54.68 0.27 8.09 4.38 11.36
4/22/2022 2:15:00 PM 12.8 55.04 0.31 8.11 4.33 11.37
4/22/2022 2:30:00 PM 12.96 55.328 0.308 8.12 4.21 11.39
4/22/2022 2:45:00 PM 13.09 55.562 0.276 8.14 4.43 11.35
4/22/2022 3:00:00 PM 13.22 55.796 0.282 8.15 4.32 11.35
4/22/2022 3:15:00 PM 13.35 56.03 0.307 8.16 4.26 11.33
4/22/2022 3:30:00 PM 13.46 56.228 0.28 8.18 4.21 11.31
4/22/2022 3:45:00 PM 13.59 56.462 0.264 8.2 4.18 11.35
4/22/2022 4:00:00 PM 13.74 56.732 0.3 8.21 4.17 11.37
4/22/2022 4:15:00 PM 13.84 56.912 0.306 8.22 4.73 11.34
4/22/2022 4:30:00 PM 13.96 57.128 0.258 8.23 4.21 11.32
4/22/2022 4:45:00 PM 14.09 57.362 0.252 8.24 4.13 11.29
4/22/2022 5:00:00 PM 14.18 57.524 0.282 8.24 4.24 11.26
4/22/2022 5:15:00 PM 14.26 57.668 0.311 8.25 4.47 11.22
4/22/2022 5:30:00 PM 14.35 57.83 0.313 8.26 4.42 11.21
4/22/2022 5:45:00 PM 14.41 57.938 0.265 8.26 4.23 11.16
4/22/2022 6:00:00 PM 14.44 57.992 0.248 8.26 4.19 11.11
4/22/2022 6:15:00 PM 14.46 58.028 0.285 8.25 4.25 11.08
4/22/2022 6:30:00 PM 14.48 58.064 0.279 8.25 4.24 11.05
4/22/2022 6:45:00 PM 14.5 58.1 0.314 8.25 4.44 11.02
4/22/2022 7:00:00 PM 14.51 58.118 0.315 8.25 4.66 10.99
4/22/2022 7:15:00 PM 14.51 58.118 0.272 8.23 4.56 10.94
4/22/2022 7:30:00 PM 14.51 58.118 0.285 8.23 4.57 10.89
4/22/2022 7:45:00 PM 14.5 58.1 0.266 8.22 4.79 10.83
4/22/2022 8:00:00 PM 14.5 58.1 0.262 8.2 4.84 10.8
4/22/2022 8:15:00 PM 14.48 58.064 0.233 8.19 5.19 10.76
4/22/2022 8:30:00 PM 14.47 58.046 0.276 8.17 5.07 10.74
4/22/2022 8:45:00 PM 14.45 58.01 0.216 8.15 5.12 10.71
4/22/2022 9:00:00 PM 14.43 57.974 0.217 8.15 5.1 10.67
4/22/2022 9:15:00 PM 14.41 57.938 0.272 8.13 5.06 10.62
4/22/2022 9:30:00 PM 14.38 57.884 0.302 8.12 5.47 10.59
4/22/2022 9:45:00 PM 14.34 57.812 0.301 8.1 5.52 10.55
4/22/2022 10:00:00 PM 14.3 57.74 0.281 8.09 5.53 10.51
4/22/2022 10:15:00 PM 14.25 57.65 0.275 8.06 5.25 10.47
4/22/2022 10:30:00 PM 14.2 57.56 0.379 8.06 5.17 10.44
4/22/2022 10:45:00 PM 14.14 57.452 0.278 8.03 5.19 10.39
4/22/2022 11:00:00 PM 14.08 57.344 0.273 8.02 5.4 10.35
4/22/2022 11:15:00 PM 14.01 57.218 0.226 8 5.31 10.32
4/22/2022 11:30:00 PM 13.96 57.128 0.317 7.99 6.23 10.29
4/22/2022 11:45:00 PM 13.9 57.02 0.303 7.96 5.61 10.25
4/23/2022 12:00:00 AM 13.84 56.912 0.306 7.95 5.49 10.22
4/23/2022 12:15:00 AM 13.79 56.822 0.227 7.94 5.89 10.19
4/23/2022 12:30:00 AM 13.74 56.732 0.263 7.93 5.74 10.16
4/23/2022 12:45:00 AM 13.68 56.624 0.287 7.92 5.65 10.13
4/23/2022 1:00:00 AM 13.63 56.534 0.233 7.92 5.84 10.12
4/23/2022 1:15:00 AM 13.58 56.444 0.28 7.9 5.41 10.08
4/23/2022 1:30:00 AM 13.53 56.354 0.226 7.91 5.33 10.08
4/23/2022 1:45:00 AM 13.48 56.264 0.273 7.9 5.98 10.06
4/23/2022 2:00:00 AM 13.43 56.174 0.39 7.9 5.94 10.06
4/23/2022 2:15:00 AM 13.38 56.084 0.265 7.9 5.92 10.05
4/23/2022 2:30:00 AM 13.33 55.994 0.301 7.88 5.55 10.04
4/23/2022 2:45:00 AM 13.29 55.922 0.213 7.88 5.88 10.03
4/23/2022 3:00:00 AM 13.24 55.832 0.27 7.87 5.81 10.02
4/23/2022 3:15:00 AM 13.2 55.76 0.217 7.87 5.97 10
4/23/2022 3:30:00 AM 13.16 55.688 0.309 7.87 5.99 10.02
4/23/2022 3:45:00 AM 13.12 55.616 0.253 7.86 5.8 10.01
4/23/2022 4:00:00 AM 13.08 55.544 0.252 7.86 5.25 10.01
4/23/2022 4:15:00 AM 13.05 55.49 0.213 7.86 5.49 10.01
4/23/2022 4:30:00 AM 13.02 55.436 0.294 7.85 5.3 10.01
4/23/2022 4:45:00 AM 13 55.4 0.296 7.86 5.34 10
4/23/2022 5:00:00 AM 12.98 55.364 0.283 7.85 5.26 10
4/23/2022 5:15:00 AM 12.97 55.346 0.389 7.85 5.31 10
4/23/2022 5:30:00 AM 12.95 55.31 0.391 7.86 5.67 10
4/23/2022 5:45:00 AM 12.93 55.274 0.397 7.86 5.34 10
4/23/2022 6:00:00 AM 12.91 55.238 0.389 7.83 5.74 10
4/23/2022 6:15:00 AM 12.9 55.22 0.298 7.81 5.81 10
4/23/2022 6:30:00 AM 12.88 55.184 0.235 7.8 5.73 10
4/23/2022 6:45:00 AM 12.86 55.148 0.213 7.85 5.79 10.01
4/23/2022 7:00:00 AM 12.85 55.13 0.394 7.87 5.82 10.03
4/23/2022 7:15:00 AM 12.83 55.094 0.314 7.85 6.35 10.03
4/23/2022 7:30:00 AM 12.82 55.076 0.285 7.86 5.9 10.04
4/23/2022 7:45:00 AM 12.8 55.04 0.396 7.86 6 10.06
4/23/2022 8:00:00 AM 12.79 55.022 0.306 7.87 5.68 10.07
4/23/2022 8:15:00 AM 12.78 55.004 0.224 7.85 5.55 10.08
4/23/2022 8:30:00 AM 12.77 54.986 0.314 7.85 5.51 10.08
4/23/2022 8:45:00 AM 12.76 54.968 0.237 7.86 5.27 10.09
4/23/2022 9:00:00 AM 12.76 54.968 0.207 7.87 5.33 10.1
4/23/2022 9:15:00 AM 12.76 54.968 0.266 7.85 5.17 10.11
4/23/2022 9:30:00 AM 12.76 54.968 0.312 7.87 5.12 10.18
4/23/2022 9:45:00 AM 12.77 54.986 0.319 7.87 5.37 10.17
4/23/2022 10:00:00 AM 12.77 54.986 0.224 7.88 5.39 10.21
4/23/2022 10:15:00 AM 12.77 54.986 0.32 7.87 5.24 10.19
4/23/2022 10:30:00 AM 12.79 55.022 0.399 7.88 4.9 10.25
4/23/2022 10:45:00 AM 12.81 55.058 0.313 7.87 4.98 10.28
4/23/2022 11:00:00 AM 12.86 55.148 0.281 7.88 4.92 10.31
4/23/2022 11:15:00 AM 12.84 55.112 0.301 7.88 4.82 10.26
4/23/2022 11:30:00 AM 12.85 55.13 0.281 7.87 4.86 10.28
4/23/2022 11:45:00 AM 12.87 55.166 0.389 7.89 4.84 10.32
4/23/2022 12:00:00 PM 12.88 55.184 0.282 7.89 4.6 10.28
4/23/2022 12:15:00 PM 12.88 55.184 0.213 7.9 4.92 10.3
4/23/2022 12:30:00 PM 12.88 55.184 0.202 7.91 4.7 10.33
4/23/2022 12:45:00 PM 12.9 55.22 0.257 7.91 4.83 10.36
4/23/2022 1:00:00 PM 12.9 55.22 0.286 7.92 4.97 10.35
4/23/2022 1:15:00 PM 12.91 55.238 0.397 7.92 4.87 10.41
4/23/2022 1:30:00 PM 12.92 55.256 0.288 7.93 4.85 10.43
4/23/2022 1:45:00 PM 12.97 55.346 0.215 7.96 4.85 10.54
4/23/2022 2:00:00 PM 12.98 55.364 0.275 7.97 4.84 10.54
4/23/2022 2:15:00 PM 13 55.4 0.388 7.99 4.89 10.59
4/23/2022 2:30:00 PM 13.03 55.454 0.245 7.98 4.84 10.62
4/23/2022 2:45:00 PM 13.12 55.616 0.388 8 4.65 10.75
4/23/2022 3:00:00 PM 13.19 55.742 0.273 8.02 4.68 10.76
4/23/2022 3:15:00 PM 13.22 55.796 0.393 8.06 4.53 10.78
4/23/2022 3:30:00 PM 13.26 55.868 0.323 8.05 4.61 10.79
4/23/2022 3:45:00 PM 13.32 55.976 0.223 8.06 4.78 10.84
4/23/2022 4:00:00 PM 13.42 56.156 0.271 8.08 4.72 10.87
4/23/2022 4:15:00 PM 13.48 56.264 0.305 8.09 4.78 10.86
4/23/2022 4:30:00 PM 13.54 56.372 0.273 8.1 4.64 10.86
4/23/2022 4:45:00 PM 13.56 56.408 0.256 8.1 4.47 10.84
4/23/2022 5:00:00 PM 13.62 56.516 0.386 8.1 4.33 10.88
4/23/2022 5:15:00 PM 13.66 56.588 0.308 8.11 4.56 10.83
4/23/2022 5:30:00 PM 13.69 56.642 0.302 8.11 4.32 10.81
4/23/2022 5:45:00 PM 13.71 56.678 0.302 8.11 4.41 10.79
4/23/2022 6:00:00 PM 13.73 56.714 0.313 8.11 4.41 10.77
4/23/2022 6:15:00 PM 13.74 56.732 0.269 8.12 4.51 10.76
4/23/2022 6:30:00 PM 13.74 56.732 0.314 8.12 4.73 10.75
4/23/2022 6:45:00 PM 13.75 56.75 0.27 8.13 4.47 10.75
4/23/2022 7:00:00 PM 13.75 56.75 0.298 8.13 5.85 10.75
4/23/2022 7:15:00 PM 13.75 56.75 0.315 8.13 4.69 10.75
4/23/2022 7:30:00 PM 13.75 56.75 0.228 8.14 4.64 10.74
4/23/2022 7:45:00 PM 13.75 56.75 0.21 8.14 4.6 10.73
4/23/2022 8:00:00 PM 13.76 56.768 0.236 8.15 4.67 10.73
4/23/2022 8:15:00 PM 13.77 56.786 0.299 8.13 4.84 10.72
4/23/2022 8:30:00 PM 13.77 56.786 0.237 8.09 4.77 10.72
4/23/2022 8:45:00 PM 13.77 56.786 0.279 8.13 5.07 10.71
4/23/2022 9:00:00 PM 13.77 56.786 0.239 8.1 4.76 10.7
4/23/2022 9:15:00 PM 13.77 56.786 0.318 8.13 5.45 10.68
4/23/2022 9:30:00 PM 13.76 56.768 0.29 8.09 5.08 10.66
4/23/2022 9:45:00 PM 13.75 56.75 0.324 8.12 5.39 10.64
4/23/2022 10:00:00 PM 13.73 56.714 0.381 8.11 5.58 10.61
4/23/2022 10:15:00 PM 13.71 56.678 0.311 8.11 5.33 10.58
4/23/2022 10:30:00 PM 13.68 56.624 0.223 8.08 5.3 10.54
4/23/2022 10:45:00 PM 13.65 56.57 0.269 8.08 5.59 10.51
4/23/2022 11:00:00 PM 13.62 56.516 0.262 8.07 6.12 10.47
4/23/2022 11:15:00 PM 13.59 56.462 0.391 8.05 5.98 10.43
4/23/2022 11:30:00 PM 13.55 56.39 0.272 8.02 5.68 10.4
4/23/2022 11:45:00 PM 13.51 56.318 0.304 8.02 6 10.36
4/24/2022 12:00:00 AM 13.46 56.228 0.388 8.01 5.48 10.32
4/24/2022 12:15:00 AM 13.42 56.156 0.236 8 5.38 10.28
4/24/2022 12:30:00 AM 13.37 56.066 0.256 7.98 5.47 10.25
4/24/2022 12:45:00 AM 13.32 55.976 0.292 7.98 5.07 10.22
4/24/2022 1:00:00 AM 13.28 55.904 0.307 7.95 5.14 10.19
4/24/2022 1:15:00 AM 13.23 55.814 0.288 7.92 5.21 10.17
4/24/2022 1:30:00 AM 13.18 55.724 0.288 7.94 5.16 10.15
4/24/2022 1:45:00 AM 13.13 55.634 0.288 7.93 4.89 10.14
4/24/2022 2:00:00 AM 13.08 55.544 0.291 7.93 4.85 10.11
4/24/2022 2:15:00 AM 13.04 55.472 0.281 7.92 5.5 10.1
4/24/2022 2:30:00 AM 12.99 55.382 0.323 7.92 5.06 10.1
4/24/2022 2:45:00 AM 12.93 55.274 0.314 7.91 5.24 10.09
4/24/2022 3:00:00 AM 12.88 55.184 0.267 7.89 5.67 10.08
4/24/2022 3:15:00 AM 12.83 55.094 0.285 7.9 5.43 10.08
4/24/2022 3:30:00 AM 12.77 54.986 0.317 7.88 6.02 10.08
4/24/2022 3:45:00 AM 12.72 54.896 0.395 7.9 5.19 10.08
4/24/2022 4:00:00 AM 12.67 54.806 0.273 7.89 5.36 10.08
4/24/2022 4:15:00 AM 12.61 54.698 0.308 7.89 5.65 10.08
4/24/2022 4:30:00 AM 12.56 54.608 0.314 7.88 5.55 10.08
4/24/2022 4:45:00 AM 12.51 54.518 0.306 7.88 5.28 10.09
4/24/2022 5:00:00 AM 12.46 54.428 0.215 7.88 5.17 10.1
4/24/2022 5:15:00 AM 12.42 54.356 0.397 7.77 5.9 10.1
4/24/2022 5:30:00 AM 12.37 54.266 0.282 7.87 5.41 10.11
4/24/2022 5:45:00 AM 12.33 54.194 0.316 7.87 5.7 10.11
4/24/2022 6:00:00 AM 12.28 54.104 0.258 7.87 5.68 10.13
4/24/2022 6:15:00 AM 12.23 54.014 0.306 7.87 5.95 10.13
4/24/2022 6:30:00 AM 12.19 53.942 0.234 7.86 5.56 10.15
4/24/2022 6:45:00 AM 12.16 53.888 0.281 7.88 6.2 10.17
4/24/2022 7:00:00 AM 12.12 53.816 0.285 7.87 6.21 10.19
4/24/2022 7:15:00 AM 12.08 53.744 0.286 7.87 5.66 10.19
4/24/2022 7:30:00 AM 12.05 53.69 0.4 7.88 5.7 10.2
4/24/2022 7:45:00 AM 12.02 53.636 0.242 7.87 5.72 10.23
4/24/2022 8:00:00 AM 12 53.6 0.236 7.88 5.64 10.26
4/24/2022 8:15:00 AM 11.98 53.564 0.302 7.89 5.76 10.29
4/24/2022 8:30:00 AM 11.98 53.564 0.286 7.89 5.6 10.33
4/24/2022 8:45:00 AM 12 53.6 0.292 7.88 5.71 10.36
4/24/2022 9:00:00 AM 11.98 53.564 0.291 7.89 5.39 10.34
4/24/2022 9:15:00 AM 12.02 53.636 0.239 7.9 5.46 10.4
4/24/2022 9:30:00 AM 12.06 53.708 0.282 7.91 5.2 10.42
4/24/2022 9:45:00 AM 12.1 53.78 0.32 7.91 5.65 10.43
4/24/2022 10:00:00 AM 12.15 53.87 0.286 7.91 4.83 10.45
4/24/2022 10:15:00 AM 12.21 53.978 0.288 7.91 4.99 10.46
4/24/2022 10:30:00 AM 12.26 54.068 0.246 7.9 4.96 10.47
4/24/2022 10:45:00 AM 12.34 54.212 0.25 7.91 4.52 10.49
4/24/2022 11:00:00 AM 12.41 54.338 0.396 7.9 4.69 10.5
4/24/2022 11:15:00 AM 12.49 54.482 0.31 7.91 5.01 10.51
4/24/2022 11:30:00 AM 12.58 54.644 0.244 7.94 4.57 10.52
4/24/2022 11:45:00 AM 12.69 54.842 0.282 7.95 4.63 10.55
4/24/2022 12:00:00 PM 12.78 55.004 0.278 7.95 4.7 10.56
4/24/2022 12:15:00 PM 12.89 55.202 0.223 7.96 4.72 10.58
4/24/2022 12:30:00 PM 13.02 55.436 0.32 7.98 4.46 10.61
4/24/2022 12:45:00 PM 13.13 55.634 0.396 7.98 4.46 10.62
4/24/2022 1:00:00 PM 13.28 55.904 0.382 8 4.58 10.65
4/24/2022 1:15:00 PM 13.44 56.192 0.237 8.01 4.67 10.69
4/24/2022 1:30:00 PM 13.6 56.48 0.295 8.03 4.44 10.71
4/24/2022 1:45:00 PM 13.77 56.786 0.277 8.01 4.82 10.72
4/24/2022 2:00:00 PM 13.96 57.128 0.25 8.04 4.24 10.74
4/24/2022 2:15:00 PM 14.14 57.452 0.319 8.07 4.53 10.76
4/24/2022 2:30:00 PM 14.32 57.776 0.299 8.09 4.01 10.77
4/24/2022 2:45:00 PM 14.5 58.1 0.324 8.1 4.03 10.78
4/24/2022 3:00:00 PM 14.67 58.406 0.328 8.12 3.88 10.79
4/24/2022 3:15:00 PM 14.84 58.712 0.325 8.14 3.94 10.79
4/24/2022 3:30:00 PM 15.02 59.036 0.325 8.15 4.13 10.78
4/24/2022 3:45:00 PM 15.2 59.36 0.305 8.16 3.51 10.79
4/24/2022 4:00:00 PM 15.37 59.666 0.499 8.18 3.67 10.77
4/24/2022 4:15:00 PM 15.53 59.954 0.266 8.19 3.19 10.77
4/24/2022 4:30:00 PM 15.68 60.224 0.31 8.19 3.4 10.77
4/24/2022 4:45:00 PM 15.82 60.476 0.262 8.2 3.42 10.74
4/24/2022 5:00:00 PM 15.95 60.71 0.259 8.22 3.29 10.72
4/24/2022 5:15:00 PM 16.07 60.926 0.301 8.23 3.65 10.68
4/24/2022 5:30:00 PM 16.17 61.106 0.303 8.24 3.54 10.66
4/24/2022 5:45:00 PM 16.27 61.286 0.31 8.23 3.38 10.62
4/24/2022 6:00:00 PM 16.35 61.43 0.293 8.24 3.48 10.58
4/24/2022 6:15:00 PM 16.41 61.538 0.447 8.24 3.84 10.55
4/24/2022 6:30:00 PM 16.46 61.628 0.344 8.23 3.45 10.5
4/24/2022 6:45:00 PM 16.5 61.7 0.31 8.23 3.47 10.46
4/24/2022 7:00:00 PM 16.54 61.772 0.341 8.22 4.14 10.43
4/24/2022 7:15:00 PM 16.56 61.808 0.304 8.23 3.26 10.39
4/24/2022 7:30:00 PM 16.58 61.844 0.339 8.22 3.35 10.35
4/24/2022 7:45:00 PM 16.6 61.88 0.331 8.21 3.51 10.3
4/24/2022 8:00:00 PM 16.62 61.916 0.332 8.21 3.65 10.26
4/24/2022 8:15:00 PM 16.63 61.934 0.252 8.19 3.98 10.24
4/24/2022 8:30:00 PM 16.63 61.934 0.327 8.2 4.02 10.2
4/24/2022 8:45:00 PM 16.64 61.952 0.33 8.18 4.3 10.14
4/24/2022 9:00:00 PM 16.64 61.952 0.265 8.18 4.26 10.12
4/24/2022 9:15:00 PM 16.64 61.952 0.311 8.17 4.36 10.09
4/24/2022 9:30:00 PM 16.64 61.952 0.307 8.14 4.68 10.05
4/24/2022 9:45:00 PM 16.63 61.934 0.303 8.13 5 10
4/24/2022 10:00:00 PM 16.61 61.898 0.494 8.12 5.36 9.97
4/24/2022 10:15:00 PM 16.6 61.88 0.272 8.12 4.99 9.92
4/24/2022 10:30:00 PM 16.56 61.808 0.262 8.08 4.94 9.87
4/24/2022 10:45:00 PM 16.53 61.754 0.313 8.09 5.15 9.83
4/24/2022 11:00:00 PM 16.49 61.682 0.313 8.07 5.21 9.79
4/24/2022 11:15:00 PM 16.44 61.592 0.307 8.05 5.52 9.74
4/24/2022 11:30:00 PM 16.39 61.502 0.492 8.03 5.06 9.7
4/24/2022 11:45:00 PM 16.33 61.394 0.3 8.03 5.15 9.64
4/25/2022 12:00:00 AM 16.27 61.286 0.303 7.99 5.22 9.62
4/25/2022 12:15:00 AM 16.21 61.178 0.307 8 5.47 9.59
4/25/2022 12:30:00 AM 16.14 61.052 0.305 7.99 5.47 9.56
4/25/2022 12:45:00 AM 16.06 60.908 0.3 7.96 5.37 9.51
4/25/2022 1:00:00 AM 15.99 60.782 0.297 7.94 5.79 9.49
4/25/2022 1:15:00 AM 15.91 60.638 0.303 7.95 5.14 9.47
4/25/2022 1:30:00 AM 15.83 60.494 0.302 7.93 5.07 9.46
4/25/2022 1:45:00 AM 15.75 60.35 0.244 7.94 5.27 9.44
4/25/2022 2:00:00 AM 15.67 60.206 0.228 7.92 5.07 9.43
4/25/2022 2:15:00 AM 15.6 60.08 0.28 7.92 5.63 9.41
4/25/2022 2:30:00 AM 15.52 59.936 0.321 7.9 5.39 9.4
4/25/2022 2:45:00 AM 15.44 59.792 0.297 7.85 5.37 9.4
4/25/2022 3:00:00 AM 15.36 59.648 0.288 7.9 4.58 9.4
4/25/2022 3:15:00 AM 15.29 59.522 0.305 7.91 5 9.4
4/25/2022 3:30:00 AM 15.22 59.396 0.296 7.9 4.82 9.4
4/25/2022 3:45:00 AM 15.15 59.27 0.295 7.88 4.74 9.4
4/25/2022 4:00:00 AM 15.07 59.126 0.318 7.88 4.96 9.39
4/25/2022 4:15:00 AM 15.01 59.018 0.309 7.88 5.44 9.4
4/25/2022 4:30:00 AM 14.94 58.892 0.307 7.88 4.84 9.42
4/25/2022 4:45:00 AM 14.87 58.766 0.246 7.88 4.8 9.42
4/25/2022 5:00:00 AM 14.81 58.658 0.282 7.87 4.77 9.43
4/25/2022 5:15:00 AM 14.75 58.55 0.261 7.88 5.64 9.42
4/25/2022 5:30:00 AM 14.69 58.442 0.254 7.87 5.14 9.43
4/25/2022 5:45:00 AM 14.64 58.352 0.286 7.86 5.58 9.45
4/25/2022 6:00:00 AM 14.58 58.244 0.319 7.86 5.09 9.44
4/25/2022 6:15:00 AM 14.53 58.154 0.383 7.86 5.3 9.45
4/25/2022 6:30:00 AM 14.48 58.064 0.375 7.86 5.65 9.47
4/25/2022 6:45:00 AM 14.43 57.974 0.253 7.87 5.97 9.48
4/25/2022 7:00:00 AM 14.4 57.92 0.25 7.86 5.85 9.51
4/25/2022 7:15:00 AM 14.36 57.848 0.23 7.85 5.42 9.51
4/25/2022 7:30:00 AM 14.33 57.794 0.309 7.85 5.57 9.52
4/25/2022 7:45:00 AM 14.29 57.722 0.383 7.88 4.96 9.54
4/25/2022 8:00:00 AM 14.26 57.668 0.279 7.88 5.3 9.53
4/25/2022 8:15:00 AM 14.23 57.614 0.259 7.86 5.25 9.55
4/25/2022 8:30:00 AM 14.21 57.578 0.284 7.87 5.52 9.58
4/25/2022 8:45:00 AM 14.18 57.524 0.503 7.87 5.73 9.59
4/25/2022 9:00:00 AM 14.16 57.488 0.308 7.87 5.78 9.62
4/25/2022 9:15:00 AM 14.14 57.452 0.29 7.88 5.2 9.63
4/25/2022 9:30:00 AM 14.13 57.434 0.503 7.88 5.06 9.67
4/25/2022 9:45:00 AM 14.12 57.416 0.241 7.89 5.08 9.69
4/25/2022 10:00:00 AM 14.11 57.398 0.23 7.88 5.66 9.71
4/25/2022 10:15:00 AM 14.09 57.362 0.504 7.88 5.31 9.71
4/25/2022 10:30:00 AM 14.09 57.362 0.288 7.88 5.11 9.73
4/25/2022 10:45:00 AM 14.08 57.344 0.268 7.89 5.25 9.75
4/25/2022 11:00:00 AM 14.08 57.344 0.328 7.9 5.3 9.77
4/25/2022 11:15:00 AM 14.08 57.344 0.308 7.9 5.26 9.76
4/25/2022 11:30:00 AM 14.08 57.344 0.507 7.9 5.2 9.81
4/25/2022 11:45:00 AM 14.09 57.362 0.31 7.91 5.15 9.83
4/25/2022 12:00:00 PM 14.1 57.38 0.312 7.91 5.84 9.87
4/25/2022 12:15:00 PM 14.13 57.434 0.302 7.92 5.17 9.91
4/25/2022 12:30:00 PM 14.15 57.47 0.267 7.94 5.52 9.94
4/25/2022 12:45:00 PM 14.17 57.506 0.313 7.92 5.36 9.96
4/25/2022 1:00:00 PM 14.19 57.542 0.231 7.92 5.32 9.98
4/25/2022 1:15:00 PM 14.21 57.578 0.51 7.94 5.05 10
4/25/2022 1:30:00 PM 14.22 57.596 0.509 7.97 4.97 10.02
4/25/2022 1:45:00 PM 14.25 57.65 0.226 7.96 5.16 10.05
4/25/2022 2:00:00 PM 14.28 57.704 0.302 7.97 5.15 10.11
4/25/2022 2:15:00 PM 14.33 57.794 0.509 7.99 5.32 10.16
4/25/2022 2:30:00 PM 14.36 57.848 0.303 7.98 4.79 10.19
4/25/2022 2:45:00 PM 14.39 57.902 0.298 8 5.25 10.22
4/25/2022 3:00:00 PM 14.44 57.992 0.201 8.02 5.27 10.26
4/25/2022 3:15:00 PM 14.48 58.064 0.297 8.01 5.15 10.3
4/25/2022 3:30:00 PM 14.55 58.19 0.3 8.05 4.87 10.36
4/25/2022 3:45:00 PM 14.58 58.244 0.251 8.07 4.79 10.36
4/25/2022 4:00:00 PM 14.63 58.334 0.293 8.06 4.72 10.39
4/25/2022 4:15:00 PM 14.69 58.442 0.255 8.09 4.69 10.42
4/25/2022 4:30:00 PM 14.74 58.532 0.308 8.11 5.3 10.44
4/25/2022 4:45:00 PM 14.77 58.586 0.238 8.1 5.76 10.46
4/25/2022 5:00:00 PM 14.81 58.658 0.271 8.12 4.53 10.47
4/25/2022 5:15:00 PM 14.84 58.712 0.267 8.12 4.93 10.49
4/25/2022 5:30:00 PM 14.87 58.766 0.268 8.13 4.81 10.49
4/25/2022 5:45:00 PM 14.89 58.802 0.228 8.14 4.84 10.47
4/25/2022 6:00:00 PM 14.91 58.838 0.455 8.15 4.99 10.48
4/25/2022 6:15:00 PM 14.93 58.874 0.456 8.16 5.15 10.49
4/25/2022 6:30:00 PM 14.95 58.91 0.329 8.16 4.93 10.49
4/25/2022 6:45:00 PM 14.97 58.946 0.303 8.17 5.11 10.48
4/25/2022 7:00:00 PM 14.98 58.964 0.335 8.17 4.74 10.48
4/25/2022 7:15:00 PM 15 59 0.307 8.17 4.88 10.47
4/25/2022 7:30:00 PM 15.01 59.018 0.504 8.18 4.83 10.47
4/25/2022 7:45:00 PM 15.03 59.054 0.303 8.18 4.82 10.45
4/25/2022 8:00:00 PM 15.04 59.072 0.239 8.17 5.18 10.43
4/25/2022 8:15:00 PM 15.05 59.09 0.27 8.18 5.1 10.43
4/25/2022 8:30:00 PM 15.07 59.126 0.505 8.19 6.17 10.43
4/25/2022 8:45:00 PM 15.08 59.144 0.314 8.18 5.29 10.41
4/25/2022 9:00:00 PM 15.09 59.162 0.314 8.18 6.07 10.4
4/25/2022 9:15:00 PM 15.09 59.162 0.305 8.2 5.18 10.4
4/25/2022 9:30:00 PM 15.1 59.18 0.297 8.19 5.18 10.37
4/25/2022 9:45:00 PM 15.1 59.18 0.3 8.17 4.98 10.33
4/25/2022 10:00:00 PM 15.1 59.18 0.312 8.17 5.12 10.33
4/25/2022 10:15:00 PM 15.09 59.162 0.31 8.17 5.1 10.28
4/25/2022 10:30:00 PM 15.07 59.126 0.292 8.14 5.15 10.24
4/25/2022 10:45:00 PM 15.04 59.072 0.288 8.13 5.51 10.19
4/25/2022 11:00:00 PM 15.02 59.036 0.246 8.14 5.39 10.17
4/25/2022 11:15:00 PM 14.99 58.982 0.309 8.09 5.21 10.12
4/25/2022 11:30:00 PM 14.95 58.91 0.5 8.1 5.6 10.08
4/25/2022 11:45:00 PM 14.92 58.856 0.301 8.08 5.75 10.02
4/26/2022 12:00:00 AM 14.88 58.784 0.501 8.06 6.02 9.99
4/26/2022 12:15:00 AM 14.84 58.712 0.254 8.04 5.41 9.96
4/26/2022 12:30:00 AM 14.81 58.658 0.326 8.02 5.5 9.9
4/26/2022 12:45:00 AM 14.76 58.568 0.3 8.03 5.23 9.88
4/26/2022 1:00:00 AM 14.72 58.496 0.281 8 5.31 9.84
4/26/2022 1:15:00 AM 14.68 58.424 0.276 8 5.41 9.81
4/26/2022 1:30:00 AM 14.64 58.352 0.279 7.99 5.09 9.78
4/26/2022 1:45:00 AM 14.59 58.262 0.297 7.97 6.24 9.76
4/26/2022 2:00:00 AM 14.55 58.19 0.285 7.96 6 9.75
4/26/2022 2:15:00 AM 14.51 58.118 0.294 7.99 5.12 9.73
4/26/2022 2:30:00 AM 14.46 58.028 0.293 7.92 6.68 9.72
4/26/2022 2:45:00 AM 14.42 57.956 0.281 7.95 4.65 9.69
4/26/2022 3:00:00 AM 14.37 57.866 0.233 7.93 5.26 9.68
4/26/2022 3:15:00 AM 14.33 57.794 0.234 7.92 4.93 9.68
4/26/2022 3:30:00 AM 14.29 57.722 0.299 7.91 4.82 9.66
4/26/2022 3:45:00 AM 14.25 57.65 0.38 7.91 4.92 9.65
4/26/2022 4:00:00 AM 14.21 57.578 0.379 7.91 5.13 9.66
4/26/2022 4:15:00 AM 14.17 57.506 0.279 7.91 5.21 9.65
4/26/2022 4:30:00 AM 14.13 57.434 0.38 7.91 5.54 9.65
4/26/2022 4:45:00 AM 14.09 57.362 0.295 7.91 5.07 9.66
4/26/2022 5:00:00 AM 14.05 57.29 0.299 7.86 5.18 9.63
4/26/2022 5:15:00 AM 14.02 57.236 0.25 7.9 5.23 9.65
4/26/2022 5:30:00 AM 13.98 57.164 0.253 7.89 5.3 9.65
4/26/2022 5:45:00 AM 13.95 57.11 0.286 7.9 5.17 9.64
4/26/2022 6:00:00 AM 13.91 57.038 0.295 7.89 5.37 9.65
4/26/2022 6:15:00 AM 13.87 56.966 0.382 7.89 5.48 9.65
4/26/2022 6:30:00 AM 13.84 56.912 0.378 7.89 5.54 9.66
4/26/2022 6:45:00 AM 13.81 56.858 0.189 7.89 5.19 9.67
4/26/2022 7:00:00 AM 13.79 56.822 0.281 7.89 6.42 9.68
4/26/2022 7:15:00 AM 13.76 56.768 0.243 7.89 5.95 9.7
4/26/2022 7:30:00 AM 13.74 56.732 0.279 7.89 5.96 9.72
4/26/2022 7:45:00 AM 13.73 56.714 0.246 7.9 5.48 9.73
4/26/2022 8:00:00 AM 13.72 56.696 0.384 7.89 5.25 9.74
4/26/2022 8:15:00 AM 13.7 56.66 0.305 7.9 4.77 9.77
4/26/2022 8:30:00 AM 13.71 56.678 0.218 7.9 5.17 9.79
4/26/2022 8:45:00 AM 13.7 56.66 0.264 7.9 4.86 9.79
4/26/2022 9:00:00 AM 13.7 56.66 0.306 7.89 5.04 9.82
4/26/2022 9:15:00 AM 13.72 56.696 0.233 7.9 5.47 9.86
4/26/2022 9:30:00 AM 13.71 56.678 0.333 7.9 5.17 9.8
4/26/2022 9:45:00 AM 13.73 56.714 0.309 7.9 5.07 9.86
4/26/2022 10:00:00 AM 13.74 56.732 0.27 7.91 4.94 9.85
4/26/2022 10:15:00 AM 13.75 56.75 0.297 7.91 4.83 9.85
4/26/2022 10:30:00 AM 13.79 56.822 0.267 7.92 4.97 9.9
4/26/2022 10:45:00 AM 13.81 56.858 0.324 7.91 4.92 9.89
4/26/2022 11:00:00 AM 13.82 56.876 0.237 7.9 5.1 9.85
4/26/2022 11:15:00 AM 13.84 56.912 0.324 7.91 5.12 9.9
4/26/2022 11:30:00 AM 13.9 57.02 0.322 7.93 5.31 9.96
4/26/2022 11:45:00 AM 13.93 57.074 0.317 7.93 4.78 9.97
4/26/2022 12:00:00 PM 13.98 57.164 0.297 7.93 4.92 9.98
4/26/2022 12:15:00 PM 13.99 57.182 0.317 7.94 4.71 9.95
4/26/2022 12:30:00 PM 14.01 57.218 0.326 7.94 4.99 9.94
4/26/2022 12:45:00 PM 14.02 57.236 0.311 7.94 4.98 9.94
4/26/2022 1:00:00 PM 14.08 57.344 0.289 7.96 4.94 10.01
4/26/2022 1:15:00 PM 14.08 57.344 0.29 7.95 4.73 9.96
4/26/2022 1:30:00 PM 14.13 57.434 0.268 7.95 4.67 10.08
4/26/2022 1:45:00 PM 14.14 57.452 0.21 7.97 5.06 10.07
4/26/2022 2:00:00 PM 14.16 57.488 0.344 7.99 4.74 10.1
4/26/2022 2:15:00 PM 14.19 57.542 0.309 8 4.82 10.13
4/26/2022 2:30:00 PM 14.21 57.578 0.346 8.01 4.62 10.14
4/26/2022 2:45:00 PM 14.23 57.614 0.268 8.01 4.99 10.17
4/26/2022 3:00:00 PM 14.26 57.668 0.338 8.03 5.15 10.21
4/26/2022 3:15:00 PM 14.32 57.776 0.241 8.06 5.67 10.31
4/26/2022 3:30:00 PM 14.33 57.794 0.512 8.05 5.12 10.28
4/26/2022 3:45:00 PM 14.37 57.866 0.249 8.07 4.76 10.36
4/26/2022 4:00:00 PM 14.41 57.938 0.304 8.07 4.89 10.38
4/26/2022 4:15:00 PM 14.45 58.01 0.314 8.09 4.82 10.4
4/26/2022 4:30:00 PM 14.47 58.046 0.321 8.09 4.91 10.38
4/26/2022 4:45:00 PM 14.5 58.1 0.3 8.11 5.07 10.41
4/26/2022 5:00:00 PM 14.54 58.172 0.338 8.12 5.03 10.41
4/26/2022 5:15:00 PM 14.56 58.208 0.29 8.13 4.97 10.42
4/26/2022 5:30:00 PM 14.59 58.262 0.325 8.13 4.91 10.41
4/26/2022 5:45:00 PM 14.61 58.298 0.307 8.14 4.89 10.41
4/26/2022 6:00:00 PM 14.62 58.316 0.235 8.14 4.86 10.39
4/26/2022 6:15:00 PM 14.63 58.334 0.312 8.14 4.41 10.39
4/26/2022 6:30:00 PM 14.64 58.352 0.3 8.14 5.12 10.37
4/26/2022 6:45:00 PM 14.64 58.352 0.296 8.12 4.86 10.35
4/26/2022 7:00:00 PM 14.64 58.352 0.29 8.12 4.53 10.32
4/26/2022 7:15:00 PM 14.63 58.334 0.297 8.11 4.58 10.3
4/26/2022 7:30:00 PM 14.62 58.316 0.51 8.12 4.89 10.29
4/26/2022 7:45:00 PM 14.61 58.298 0.261 8.11 4.68 10.27
4/26/2022 8:00:00 PM 14.61 58.298 0.331 8.1 5.31 10.24
4/26/2022 8:15:00 PM 14.6 58.28 0.32 8.1 5.2 10.22
4/26/2022 8:30:00 PM 14.59 58.262 0.296 8.09 5.29 10.2
4/26/2022 8:45:00 PM 14.58 58.244 0.289 8.09 5.43 10.18
4/26/2022 9:00:00 PM 14.57 58.226 0.259 8.09 4.73 10.16
4/26/2022 9:15:00 PM 14.56 58.208 0.317 8.08 4.99 10.15
4/26/2022 9:30:00 PM 14.54 58.172 0.254 8.08 4.3 10.12
4/26/2022 9:45:00 PM 14.52 58.136 0.316 8.06 4.73 10.1
4/26/2022 10:00:00 PM 14.49 58.082 0.293 8.05 4.94 10.09
4/26/2022 10:15:00 PM 14.47 58.046 0.231 8.05 4.85 10.06
4/26/2022 10:30:00 PM 14.44 57.992 0.298 8.04 5.11 10.05
4/26/2022 10:45:00 PM 14.41 57.938 0.232 8.04 5.55 10.02
4/26/2022 11:00:00 PM 14.37 57.866 0.226 8.02 4.89 10.01
4/26/2022 11:15:00 PM 14.33 57.794 0.227 8.02 4.91 9.98
4/26/2022 11:30:00 PM 14.3 57.74 0.292 8.01 5 9.96
4/26/2022 11:45:00 PM 14.26 57.668 0.242 8.01 5.57 9.95
4/27/2022 12:00:00 AM 14.22 57.596 0.273 8.01 4.72 9.93
4/27/2022 12:15:00 AM 14.18 57.524 0.235 7.99 5.14 9.89
4/27/2022 12:30:00 AM 14.14 57.452 0.381 7.98 5.38 9.87
4/27/2022 12:45:00 AM 14.1 57.38 0.281 7.97 5.31 9.86
4/27/2022 1:00:00 AM 14.06 57.308 0.29 7.98 4.92 9.85
4/27/2022 1:15:00 AM 14 57.2 0.293 7.93 5.33 9.84
4/27/2022 1:30:00 AM 13.96 57.128 0.38 7.96 5.06 9.82
4/27/2022 1:45:00 AM 13.91 57.038 0.234 7.95 5.26 9.81
4/27/2022 2:00:00 AM 13.87 56.966 0.298 7.94 5.02 9.81
4/27/2022 2:15:00 AM 13.84 56.912 0.29 7.92 5.16 9.79
4/27/2022 2:30:00 AM 13.79 56.822 0.296 7.93 4.95 9.78
4/27/2022 2:45:00 AM 13.74 56.732 0.3 7.94 5.16 9.78
4/27/2022 3:00:00 AM 13.68 56.624 0.306 7.93 5.05 9.79
4/27/2022 3:15:00 AM 13.63 56.534 0.31 7.94 5.17 9.78
4/27/2022 3:30:00 AM 13.58 56.444 0.379 7.94 5.44 9.78
4/27/2022 3:45:00 AM 13.52 56.336 0.281 7.91 5.51 9.78
4/27/2022 4:00:00 AM 13.48 56.264 0.257 7.91 5.22 9.78
4/27/2022 4:15:00 AM 13.42 56.156 0.25 7.91 5.95 9.79
4/27/2022 4:30:00 AM 13.35 56.03 0.306 7.91 5.32 9.81
4/27/2022 4:45:00 AM 13.28 55.904 0.32 7.91 5.66 9.8
4/27/2022 5:00:00 AM 13.24 55.832 0.222 7.89 5.79 9.81
4/27/2022 5:15:00 AM 13.18 55.724 0.326 7.9 5.54 9.82
4/27/2022 5:30:00 AM 13.11 55.598 0.386 7.9 5.52 9.82
4/27/2022 5:45:00 AM 13.04 55.472 0.241 7.89 5.56 9.84
4/27/2022 6:00:00 AM 12.99 55.382 0.305 7.9 5.25 9.86
4/27/2022 6:15:00 AM 12.92 55.256 0.319 7.9 5.31 9.87
4/27/2022 6:30:00 AM 12.87 55.166 0.327 7.91 5.75 9.89
4/27/2022 6:45:00 AM 12.82 55.076 0.323 7.9 5.91 9.91
4/27/2022 7:00:00 AM 12.76 54.968 0.279 7.91 6.11 9.92
4/27/2022 7:15:00 AM 12.7 54.86 0.396 7.9 5.93 9.95
4/27/2022 7:30:00 AM 12.64 54.752 0.292 7.9 5.88 9.97
4/27/2022 7:45:00 AM 12.57 54.626 0.323 7.9 5.77 9.99
4/27/2022 8:00:00 AM 12.52 54.536 0.264 7.89 5.78 10.02
4/27/2022 8:15:00 AM 12.47 54.446 0.275 7.91 5.58 10.05
4/27/2022 8:30:00 AM 12.42 54.356 0.297 7.89 5.39 10.1
4/27/2022 8:45:00 AM 12.39 54.302 0.279 7.93 5.71 10.11
4/27/2022 9:00:00 AM 12.37 54.266 0.306 7.93 5.85 10.16
4/27/2022 9:15:00 AM 12.37 54.266 0.298 7.93 6.76 10.2
4/27/2022 9:30:00 AM 12.33 54.194 0.311 7.94 5.48 10.2
4/27/2022 9:45:00 AM 12.33 54.194 0.239 7.93 5.85 10.22
4/27/2022 10:00:00 AM 12.33 54.194 0.313 7.94 5.86 10.26
4/27/2022 10:15:00 AM 12.3 54.14 0.26 7.96 5.58 10.27
4/27/2022 10:30:00 AM 12.36 54.248 0.306 7.96 6.09 10.33
4/27/2022 10:45:00 AM 12.38 54.284 0.284 7.96 5.56 10.33
4/27/2022 11:00:00 AM -99999.99 -179968 -99999.99 -99999.99 -99999.99 -99999.99
4/27/2022 11:15:00 AM -99999.99 -179968 -99999.99 -99999.99 -99999.99 -99999.99
4/27/2022 11:30:00 AM -99999.99 -179968 -99999.99 -99999.99 -99999.99 -99999.99
4/27/2022 11:45:00 AM -99999.99 -179968 -99999.99 -99999.99 -99999.99 -99999.99
4/27/2022 12:00:00 PM -99999.99 -179968 -99999.99 -99999.99 -99999.99 -99999.99
4/27/2022 12:15:00 PM -99999.99 -179968 -99999.99 -99999.99 -99999.99 -99999.99
4/27/2022 12:30:00 PM -99999.99 -179968 -99999.99 -99999.99 -99999.99 -99999.99
4/27/2022 12:45:00 PM -99999.99 -179968 -99999.99 -99999.99 -99999.99 -99999.99
4/27/2022 1:00:00 PM -99999.99 -179968 -99999.99 -99999.99 -99999.99 -99999.99
4/27/2022 1:15:00 PM -99999.99 -179968 -99999.99 -99999.99 -99999.99 -99999.99
4/27/2022 1:30:00 PM -99999.99 -179968 -99999.99 -99999.99 -99999.99 -99999.99
4/27/2022 1:45:00 PM 12.6 54.68 0.398 8.05 7.16 10.65
4/27/2022 2:00:00 PM 12.58 54.644 0.399 8.05 5.31 10.63
4/27/2022 2:15:00 PM 12.63 54.734 0.396 8.08 4.62 10.71
4/27/2022 2:30:00 PM 12.77 54.986 0.399 8.11 4.08 10.78
4/27/2022 2:45:00 PM 12.84 55.112 0.398 8.12 3.65 10.8
4/27/2022 3:00:00 PM 12.91 55.238 0.395 8.14 4.61 10.83
4/27/2022 3:15:00 PM 12.92 55.256 0.436 8.16 3.98 10.84
4/27/2022 3:30:00 PM 13.03 55.454 0.385 8.17 4.15 10.89
4/27/2022 3:45:00 PM 13.14 55.652 0.509 8.18 3.77 10.93
4/27/2022 4:00:00 PM 13.16 55.688 0.395 8.2 3.88 10.9
4/27/2022 4:15:00 PM 13.27 55.886 0.387 8.21 3.88 10.96
4/27/2022 4:30:00 PM 13.29 55.922 0.507 8.22 3.58 10.96
4/27/2022 4:45:00 PM 13.28 55.904 0.394 8.23 3.38 10.94
4/27/2022 5:00:00 PM 13.27 55.886 0.505 8.23 3.83 10.92
4/27/2022 5:15:00 PM 13.29 55.922 0.505 8.25 3.3 10.97
4/27/2022 5:30:00 PM 13.29 55.922 0.388 8.25 3.79 10.97
4/27/2022 5:45:00 PM 13.27 55.886 0.388 8.26 4.08 10.95
4/27/2022 6:00:00 PM 13.25 55.85 0.456 8.27 3.85 10.98
4/27/2022 6:15:00 PM 13.22 55.796 0.385 8.28 4.07 10.98
4/27/2022 6:30:00 PM 13.17 55.706 0.506 8.28 3.77 10.99
4/27/2022 6:45:00 PM 13.13 55.634 0.395 8.28 3.9 10.98
4/27/2022 7:00:00 PM 13.11 55.598 0.385 8.28 3.7 10.98
4/27/2022 7:15:00 PM 13.08 55.544 0.389 8.28 3.64 10.98
4/27/2022 7:30:00 PM 13.06 55.508 0.508 8.28 4.08 10.99
4/27/2022 7:45:00 PM 13.03 55.454 0.387 8.29 3.84 10.99
4/27/2022 8:00:00 PM 13.01 55.418 0.508 8.28 3.76 10.99
4/27/2022 8:15:00 PM 12.98 55.364 0.397 8.29 4.01 10.98
4/27/2022 8:30:00 PM 12.95 55.31 0.457 8.29 4.06 10.97
4/27/2022 8:45:00 PM 12.93 55.274 0.393 8.29 3.91 10.96
4/27/2022 9:00:00 PM 12.92 55.256 0.433 8.29 3.8 10.96
4/27/2022 9:15:00 PM 12.92 55.256 0.38 8.28 3.56 10.94
4/27/2022 9:30:00 PM 12.88 55.184 0.509 8.28 3.96 10.93
4/27/2022 9:45:00 PM 12.85 55.13 0.396 8.28 3.69 10.91
4/27/2022 10:00:00 PM 12.82 55.076 0.507 8.27 3.85 10.88
4/27/2022 10:15:00 PM 12.76 54.968 0.42 8.26 3.83 10.86
4/27/2022 10:30:00 PM 12.7 54.86 0.508 8.24 4.03 10.84
4/27/2022 10:45:00 PM 12.64 54.752 0.429 8.23 3.72 10.81
4/27/2022 11:00:00 PM 12.57 54.626 0.398 8.21 3.97 10.79
4/27/2022 11:15:00 PM 12.5 54.5 0.394 8.2 3.87 10.77
4/27/2022 11:30:00 PM 12.41 54.338 0.392 8.19 4 10.74
4/27/2022 11:45:00 PM 12.33 54.194 0.394 8.17 4.01 10.72
4/28/2022 12:00:00 AM 12.24 54.032 0.397 8.16 3.9 10.7
4/28/2022 12:15:00 AM 12.16 53.888 0.403 8.14 3.82 10.67
4/28/2022 12:30:00 AM 12.08 53.744 0.404 8.13 3.99 10.65
4/28/2022 12:45:00 AM 12 53.6 0.405 8.11 3.98 10.63
4/28/2022 1:00:00 AM 11.91 53.438 0.402 8.09 3.79 10.61
4/28/2022 1:15:00 AM 11.83 53.294 0.408 8.08 4.03 10.59
4/28/2022 1:30:00 AM 11.75 53.15 0.41 8.06 3.87 10.57
4/28/2022 1:45:00 AM 11.66 52.988 0.409 8.06 3.93 10.55
4/28/2022 2:00:00 AM 11.58 52.844 0.406 8.04 3.72 10.54
4/28/2022 2:15:00 AM 11.5 52.7 0.408 8.04 3.9 10.53
4/28/2022 2:30:00 AM 11.42 52.556 0.412 8.02 4.01 10.53
4/28/2022 2:45:00 AM 11.34 52.412 0.409 8.01 3.89 10.52
4/28/2022 3:00:00 AM 11.25 52.25 0.432 8 3.56 10.51
4/28/2022 3:15:00 AM 11.16 52.088 0.412 8 4.23 10.51
4/28/2022 3:30:00 AM 11.07 51.926 0.416 7.99 4.29 10.52
4/28/2022 3:45:00 AM 10.99 51.782 0.427 7.98 4.11 10.52
4/28/2022 4:00:00 AM 10.9 51.62 0.417 7.98 4.4 10.53
4/28/2022 4:15:00 AM 10.82 51.476 0.418 7.98 5.35 10.52
4/28/2022 4:30:00 AM 10.75 51.35 0.44 7.97 5.17 10.53
4/28/2022 4:45:00 AM 10.66 51.188 0.416 7.97 5.03 10.55
4/28/2022 5:00:00 AM 10.59 51.062 0.416 7.95 4.89 10.56
4/28/2022 5:15:00 AM 10.5 50.9 0.419 7.96 4.64 10.57
4/28/2022 5:30:00 AM 10.43 50.774 0.457 7.96 5.26 10.57
4/28/2022 5:45:00 AM 10.36 50.648 0.419 7.96 5.3 10.58
4/28/2022 6:00:00 AM 10.28 50.504 0.415 7.95 5.26 10.6
4/28/2022 6:15:00 AM 10.21 50.378 0.419 7.95 5.54 10.62
4/28/2022 6:30:00 AM 10.16 50.288 0.419 7.96 5.18 10.63
4/28/2022 6:45:00 AM 10.09 50.162 0.422 7.95 5.63 10.65
4/28/2022 7:00:00 AM 10.04 50.072 0.419 7.95 6.1 10.68
4/28/2022 7:15:00 AM 9.99 49.982 0.429 7.95 5.84 10.7
4/28/2022 7:30:00 AM 9.93 49.874 0.428 7.96 6.06 10.73
4/28/2022 7:45:00 AM 9.9 49.82 0.421 7.94 6.19 10.76
4/28/2022 8:00:00 AM 9.86 49.748 0.422 7.96 6.15 10.79
4/28/2022 8:15:00 AM 9.82 49.676 0.423 7.96 5.77 10.81
4/28/2022 8:30:00 AM 9.79 49.622 0.422 7.97 5.91 10.85
4/28/2022 8:45:00 AM 9.78 49.604 0.424 7.96 5.98 10.88
4/28/2022 9:00:00 AM 9.75 49.55 0.425 7.97 5.86 10.9
4/28/2022 9:15:00 AM 9.76 49.568 0.424 7.97 5.57 10.92
4/28/2022 9:30:00 AM 9.79 49.622 0.428 7.97 6.43 10.94
4/28/2022 9:45:00 AM 9.81 49.658 0.45 7.98 5.89 10.95
4/28/2022 10:00:00 AM 9.83 49.694 0.429 7.98 4.99 10.96
4/28/2022 10:15:00 AM 9.88 49.784 0.428 7.97 5.22 10.98
4/28/2022 10:30:00 AM 9.93 49.874 0.429 7.99 5.8 11
4/28/2022 10:45:00 AM 9.99 49.982 0.425 7.99 4.94 11
4/28/2022 11:00:00 AM 10.04 50.072 0.429 8 5.44 11
4/28/2022 11:15:00 AM 10.1 50.18 0.424 7.99 5.14 11.01
4/28/2022 11:30:00 AM 10.16 50.288 0.424 8 5.33 11.02
4/28/2022 11:45:00 AM 10.22 50.396 0.421 8.01 5.32 11.03
4/28/2022 12:00:00 PM 10.29 50.522 0.425 8.02 4.86 11.03
4/28/2022 12:15:00 PM 10.36 50.648 0.421 8.02 4.96 11.04
4/28/2022 12:30:00 PM 10.45 50.81 0.416 8.03 5.2 11.06
4/28/2022 12:45:00 PM 10.52 50.936 0.45 8.03 7.27 11.07
4/28/2022 1:00:00 PM 10.6 51.08 0.419 8.04 7.5 11.08
4/28/2022 1:15:00 PM 10.7 51.26 0.448 8.05 7.11 11.1
4/28/2022 1:30:00 PM 10.81 51.458 0.42 8.05 8.67 11.11
4/28/2022 1:45:00 PM 10.89 51.602 0.412 8.06 8.43 11.14
4/28/2022 2:00:00 PM 11.03 51.854 0.409 8.07 8.64 11.17
4/28/2022 2:15:00 PM 11.16 52.088 0.409 8.08 9.83 11.18
4/28/2022 2:30:00 PM 11.3 52.34 0.412 8.09 9.32 11.2
4/28/2022 2:45:00 PM 11.44 52.592 0.413 8.11 9.38 11.22
4/28/2022 3:00:00 PM 11.59 52.862 0.527 8.12 8.38 11.26
4/28/2022 3:15:00 PM 11.74 53.132 0.4 8.15 7.83 11.29
4/28/2022 3:30:00 PM 11.89 53.402 0.403 8.17 7.7 11.31
4/28/2022 3:45:00 PM 12.02 53.636 0.401 8.18 8.98 11.33
4/28/2022 4:00:00 PM 12.15 53.87 0.404 8.2 7.71 11.36
4/28/2022 4:15:00 PM 12.28 54.104 0.403 8.21 9.22 11.37
4/28/2022 4:30:00 PM 12.4 54.32 0.447 8.23 8.38 11.36
4/28/2022 4:45:00 PM 12.51 54.518 0.523 8.24 8.38 11.37
4/28/2022 5:00:00 PM 12.61 54.698 0.394 8.25 6.49 11.37
4/28/2022 5:15:00 PM 12.69 54.842 0.394 8.26 7.39 11.36
4/28/2022 5:30:00 PM 12.77 54.986 0.522 8.27 5.77 11.37
4/28/2022 5:45:00 PM 12.84 55.112 0.395 8.3 4.92 11.36
4/28/2022 6:00:00 PM 12.89 55.202 0.396 8.31 4.76 11.35
4/28/2022 6:15:00 PM 12.94 55.292 0.397 8.31 5.24 11.33
4/28/2022 6:30:00 PM 12.96 55.328 0.396 8.32 4.82 11.32
4/28/2022 6:45:00 PM 12.99 55.382 0.444 8.33 4.73 11.31
4/28/2022 7:00:00 PM 12.99 55.382 0.518 8.33 4.61 11.31
4/28/2022 7:15:00 PM 13.01 55.418 0.519 8.33 4.5 11.3
4/28/2022 7:30:00 PM 13.03 55.454 0.519 8.35 4.25 11.28
4/28/2022 7:45:00 PM 13.03 55.454 0.392 8.35 3.94 11.27
4/28/2022 8:00:00 PM 13.03 55.454 0.422 8.36 4.07 11.26
4/28/2022 8:15:00 PM 13.02 55.436 0.443 8.35 4.59 11.25
4/28/2022 8:30:00 PM 13.02 55.436 0.396 8.35 5.07 11.23
4/28/2022 8:45:00 PM 13.01 55.418 0.518 8.34 5.51 11.21
4/28/2022 9:00:00 PM 13 55.4 0.387 8.34 3.74 11.19
4/28/2022 9:15:00 PM 12.98 55.364 0.517 8.34 3.52 11.18
4/28/2022 9:30:00 PM 12.97 55.346 0.392 8.35 3.6 11.16
4/28/2022 9:45:00 PM 12.94 55.292 0.516 8.34 3.52 11.14
4/28/2022 10:00:00 PM 12.92 55.256 0.514 8.34 3.91 11.12
4/28/2022 10:15:00 PM 12.89 55.202 0.516 8.33 3.72 11.09
4/28/2022 10:30:00 PM 12.86 55.148 0.396 8.33 3.87 11.07
4/28/2022 10:45:00 PM 12.82 55.076 0.392 8.31 3.7 11.04
4/28/2022 11:00:00 PM 12.77 54.986 0.392 8.31 3.77 11.02
4/28/2022 11:15:00 PM 12.73 54.914 0.393 8.29 4.3 10.99
4/28/2022 11:30:00 PM 12.68 54.824 0.391 8.28 4.15 10.97
4/28/2022 11:45:00 PM 12.62 54.716 0.392 8.27 4.15 10.94
4/29/2022 12:00:00 AM 12.55 54.59 0.392 8.25 4.29 10.92
4/29/2022 12:15:00 AM 12.48 54.464 0.393 8.23 4.76 10.89
4/29/2022 12:30:00 AM 12.41 54.338 0.398 8.22 4.52 10.86
4/29/2022 12:45:00 AM 12.33 54.194 0.403 8.2 4.39 10.83
4/29/2022 1:00:00 AM 12.25 54.05 0.401 8.19 4.17 10.81
4/29/2022 1:15:00 AM 12.17 53.906 0.402 8.17 4.41 10.78
4/29/2022 1:30:00 AM 12.09 53.762 0.44 8.17 4.34 10.75
4/29/2022 1:45:00 AM 12.01 53.618 0.429 8.15 4.92 10.71
4/29/2022 2:00:00 AM 11.92 53.456 0.402 8.12 4.78 10.7
4/29/2022 2:15:00 AM 11.84 53.312 0.405 8.12 4.26 10.67
4/29/2022 2:30:00 AM 11.74 53.132 0.402 8.09 4.43 10.64
4/29/2022 2:45:00 AM 11.66 52.988 0.404 8.1 4.21 10.63
4/29/2022 3:00:00 AM 11.57 52.826 0.411 8.07 4.39 10.61
4/29/2022 3:15:00 AM 11.47 52.646 0.412 8.06 4.27 10.6
4/29/2022 3:30:00 AM 11.38 52.484 0.404 8.06 4.42 10.59
4/29/2022 3:45:00 AM 11.29 52.322 0.406 8.05 4.25 10.58
4/29/2022 4:00:00 AM 11.19 52.142 0.44 8.04 4.18 10.57
4/29/2022 4:15:00 AM 11.1 51.98 0.414 8.03 4.44 10.57
4/29/2022 4:30:00 AM 11.01 51.818 0.44 8.01 4.13 10.57
4/29/2022 4:45:00 AM 10.92 51.656 0.414 8.01 4.14 10.58
4/29/2022 5:00:00 AM 10.83 51.494 0.419 8 4.11 10.58
4/29/2022 5:15:00 AM 10.74 51.332 0.415 8 4.08 10.59
4/29/2022 5:30:00 AM 10.64 51.152 0.421 7.99 4.18 10.59
4/29/2022 5:45:00 AM 10.56 51.008 0.416 7.99 4.07 10.59
4/29/2022 6:00:00 AM 10.48 50.864 0.42 7.98 4.19 10.6
4/29/2022 6:15:00 AM 10.39 50.702 0.42 7.97 3.89 10.62
4/29/2022 6:30:00 AM 10.3 50.54 0.42 7.95 4.02 10.64
4/29/2022 6:45:00 AM 10.22 50.396 0.421 7.97 4.34 10.66
4/29/2022 7:00:00 AM 10.15 50.27 0.426 7.97 4.26 10.68
4/29/2022 7:15:00 AM 10.08 50.144 0.424 7.96 4.01 10.7
4/29/2022 7:30:00 AM 10.03 50.054 0.425 7.96 4.37 10.72
4/29/2022 7:45:00 AM 9.97 49.946 0.427 7.97 4.16 10.75
4/29/2022 8:00:00 AM 9.92 49.856 0.428 7.96 4.09 10.78
4/29/2022 8:15:00 AM 9.88 49.784 0.427 7.96 4.07 10.8
4/29/2022 8:30:00 AM 9.84 49.712 0.431 7.95 3.87 10.84
4/29/2022 8:45:00 AM 9.83 49.694 0.428 7.97 4.08 10.86
4/29/2022 9:00:00 AM 9.84 49.712 0.428 7.97 4.17 10.89
4/29/2022 9:15:00 AM 9.84 49.712 0.45 7.98 3.69 10.91
4/29/2022 9:30:00 AM 9.88 49.784 0.428 7.96 4.01 10.93
4/29/2022 9:45:00 AM 9.9 49.82 0.43 7.99 3.51 10.95
4/29/2022 10:00:00 AM 9.94 49.892 0.428 7.96 3.9 10.97
4/29/2022 10:15:00 AM 9.97 49.946 0.425 7.98 3.3 10.97
4/29/2022 10:30:00 AM 10.02 50.036 0.426 7.98 4.24 10.98
4/29/2022 10:45:00 AM 10.07 50.126 0.448 7.99 3.4 10.99
4/29/2022 11:00:00 AM 10.12 50.216 0.427 7.98 3.38 11
4/29/2022 11:15:00 AM 10.18 50.324 0.421 8 3.33 11.01
4/29/2022 11:30:00 AM 10.26 50.468 0.423 8 3.51 11.02
4/29/2022 11:45:00 AM 10.33 50.594 0.415 8.01 3.06 11.02
4/29/2022 12:00:00 PM 10.42 50.756 0.424 8 3.23 11.03
4/29/2022 12:15:00 PM 10.5 50.9 0.422 8.01 3.18 11.03
4/29/2022 12:30:00 PM 10.59 51.062 0.453 8.03 3.17 11.05
4/29/2022 12:45:00 PM 10.67 51.206 0.417 8.03 3.59 11.06
4/29/2022 1:00:00 PM 10.78 51.404 0.41 8.03 3.45 11.07
4/29/2022 1:15:00 PM 10.89 51.602 0.406 8.05 3.41 11.09
4/29/2022 1:30:00 PM 10.98 51.764 0.403 8.05 3.6 11.1
4/29/2022 1:45:00 PM 11.08 51.944 0.405 8.06 3.47 11.13
4/29/2022 2:00:00 PM 11.19 52.142 0.536 8.06 3.73 11.15
4/29/2022 2:15:00 PM 11.32 52.376 0.406 8.09 3.6 11.17
4/29/2022 2:30:00 PM 11.48 52.664 0.411 8.1 3.55 11.19
4/29/2022 2:45:00 PM 11.62 52.916 0.405 8.11 3.7 11.22
4/29/2022 3:00:00 PM 11.77 53.186 0.459 8.13 3.77 11.26
4/29/2022 3:15:00 PM 11.93 53.474 0.395 8.15 3.4 11.28
4/29/2022 3:30:00 PM 12.06 53.708 0.536 8.16 3.54 11.3
4/29/2022 3:45:00 PM 12.21 53.978 0.535 8.19 3.42 11.3
4/29/2022 4:00:00 PM 12.35 54.23 0.459 8.2 3.13 11.32
4/29/2022 4:15:00 PM 12.5 54.5 0.535 8.22 3.24 11.34
4/29/2022 4:30:00 PM 12.63 54.734 0.459 8.22 3.33 11.35
4/29/2022 4:45:00 PM 12.76 54.968 0.535 8.25 3.29 11.36
4/29/2022 5:00:00 PM 12.88 55.184 0.391 8.26 3.09 11.36
4/29/2022 5:15:00 PM 12.99 55.382 0.534 8.28 3.46 11.37
4/29/2022 5:30:00 PM 13.09 55.562 0.396 8.28 3.49 11.35
4/29/2022 5:45:00 PM 13.17 55.706 0.482 8.3 3.58 11.34
4/29/2022 6:00:00 PM 13.25 55.85 0.455 8.32 3.35 11.34
4/29/2022 6:15:00 PM 13.31 55.958 0.481 8.32 3.85 11.32
4/29/2022 6:30:00 PM 13.37 56.066 0.531 8.34 3.62 11.31
4/29/2022 6:45:00 PM 13.41 56.138 0.529 8.34 3.43 11.29
4/29/2022 7:00:00 PM 13.45 56.21 0.442 8.36 3.18 11.28
4/29/2022 7:15:00 PM 13.49 56.282 0.526 8.35 3.77 11.27
4/29/2022 7:30:00 PM 13.53 56.354 0.442 8.38 3.28 11.25
4/29/2022 7:45:00 PM 13.57 56.426 0.475 8.37 3.62 11.23
4/29/2022 8:00:00 PM 13.59 56.462 0.43 8.38 3.48 11.21
4/29/2022 8:15:00 PM 13.61 56.498 0.475 8.37 3.96 11.18
4/29/2022 8:30:00 PM 13.62 56.516 0.525 8.37 3.64 11.17
4/29/2022 8:45:00 PM 13.62 56.516 0.524 8.37 3.85 11.15
4/29/2022 9:00:00 PM 13.62 56.516 0.4 8.38 3.91 11.13
4/29/2022 9:15:00 PM 13.62 56.516 0.474 8.36 4.28 11.11
4/29/2022 9:30:00 PM 13.61 56.498 0.523 8.37 4.33 11.09
4/29/2022 9:45:00 PM 13.59 56.462 0.474 8.36 4.2 11.07
4/29/2022 10:00:00 PM 13.58 56.444 0.523 8.36 4.3 11.05
4/29/2022 10:15:00 PM 13.55 56.39 0.522 8.34 4.21 11.01
4/29/2022 10:30:00 PM 13.52 56.336 0.523 8.35 4.06 10.99
4/29/2022 10:45:00 PM 13.49 56.282 0.473 8.33 4.12 10.96
4/29/2022 11:00:00 PM 13.45 56.21 0.522 8.33 4.16 10.94
4/29/2022 11:15:00 PM 13.41 56.138 0.473 8.31 4.11 10.92
4/29/2022 11:30:00 PM 13.37 56.066 0.433 8.3 3.88 10.88
4/29/2022 11:45:00 PM 13.32 55.976 0.522 8.29 3.98 10.85
4/30/2022 12:00:00 AM 13.27 55.886 0.522 8.27 4.2 10.81
4/30/2022 12:15:00 AM 13.22 55.796 0.473 8.26 4.43 10.78
4/30/2022 12:30:00 AM 13.16 55.688 0.523 8.26 3.74 10.76
4/30/2022 12:45:00 AM 13.09 55.562 0.473 8.23 4.33 10.72
4/30/2022 1:00:00 AM 13.02 55.436 0.523 8.23 4.11 10.69
4/30/2022 1:15:00 AM 12.94 55.292 0.524 8.19 3.94 10.66
4/30/2022 1:30:00 AM 12.86 55.148 0.387 8.19 3.81 10.62
4/30/2022 1:45:00 AM 12.79 55.022 0.525 8.16 4.04 10.59
4/30/2022 2:00:00 AM 12.7 54.86 0.395 8.16 4.24 10.57
4/30/2022 2:15:00 AM 12.62 54.716 0.525 8.12 4.15 10.53
4/30/2022 2:30:00 AM 12.53 54.554 0.399 8.13 4.01 10.51
4/30/2022 2:45:00 AM 12.45 54.41 0.396 8.11 4.13 10.48
4/30/2022 3:00:00 AM 12.36 54.248 0.526 8.1 4.39 10.45
4/30/2022 3:15:00 AM 12.27 54.086 0.392 8.08 4.07 10.43
4/30/2022 3:30:00 AM 12.18 53.924 0.45 8.06 4.38 10.41
4/30/2022 3:45:00 AM 12.08 53.744 0.397 8.06 4.46 10.4
4/30/2022 4:00:00 AM 11.99 53.582 0.449 8.06 4.11 10.38
4/30/2022 4:15:00 AM 11.9 53.42 0.396 8.04 4.17 10.38
4/30/2022 4:30:00 AM 11.81 53.258 0.449 8.01 4.21 10.36
4/30/2022 4:45:00 AM 11.71 53.078 0.402 8.01 4 10.35
4/30/2022 5:00:00 AM 11.63 52.934 0.407 8 4.05 10.36
4/30/2022 5:15:00 AM 11.53 52.754 0.411 8 4.12 10.35
4/30/2022 5:30:00 AM 11.45 52.61 0.406 7.99 4.38 10.36
4/30/2022 5:45:00 AM 11.35 52.43 0.447 7.98 4.23 10.36
4/30/2022 6:00:00 AM 11.27 52.286 0.405 7.96 4.46 10.37
4/30/2022 6:15:00 AM 11.18 52.124 0.411 7.97 4.24 10.38
4/30/2022 6:30:00 AM 11.09 51.962 0.417 7.97 4.39 10.4
4/30/2022 6:45:00 AM 11.01 51.818 0.416 7.95 4.68 10.41
4/30/2022 7:00:00 AM 10.93 51.674 0.449 7.97 4.56 10.44
4/30/2022 7:15:00 AM 10.85 51.53 0.418 7.96 4.69 10.47
4/30/2022 7:30:00 AM 10.79 51.422 0.411 7.96 5.46 10.48
4/30/2022 7:45:00 AM 10.72 51.296 0.418 7.96 4.61 10.51
4/30/2022 8:00:00 AM 10.68 51.224 0.419 7.95 4.88 10.53
4/30/2022 8:15:00 AM 10.63 51.134 0.417 7.96 4.95 10.57
4/30/2022 8:30:00 AM 10.61 51.098 0.416 7.97 4.98 10.59
4/30/2022 8:45:00 AM 10.6 51.08 0.42 7.97 4.77 10.63
4/30/2022 9:00:00 AM 10.61 51.098 0.419 7.95 4.46 10.65
4/30/2022 9:15:00 AM 10.61 51.098 0.421 7.97 4.4 10.68
4/30/2022 9:30:00 AM 10.63 51.134 0.414 7.97 4.04 10.69
4/30/2022 9:45:00 AM 10.65 51.17 0.447 7.97 3.98 10.7
4/30/2022 10:00:00 AM 10.68 51.224 0.42 7.97 3.87 10.72
4/30/2022 10:15:00 AM 10.72 51.296 0.416 7.98 3.96 10.73
4/30/2022 10:30:00 AM 10.76 51.368 0.411 7.98 3.99 10.75
4/30/2022 10:45:00 AM 10.81 51.458 0.417 7.97 3.77 10.76
4/30/2022 11:00:00 AM 10.87 51.566 0.413 7.98 3.56 10.76
4/30/2022 11:15:00 AM 10.92 51.656 0.453 7.98 3.99 10.77
4/30/2022 11:30:00 AM 10.97 51.746 0.454 7.99 3.8 10.77
4/30/2022 11:45:00 AM 11.02 51.836 0.414 7.99 3.96 10.79
4/30/2022 12:00:00 PM 11.09 51.962 0.409 7.99 4.11 10.8
4/30/2022 12:15:00 PM 11.17 52.106 0.402 7.99 4.05 10.81
4/30/2022 12:30:00 PM 11.24 52.232 0.412 8 3.99 10.82
4/30/2022 12:45:00 PM 11.36 52.448 0.403 8 4.06 10.82
4/30/2022 1:00:00 PM 11.42 52.556 0.404 8.01 4.01 10.84
4/30/2022 1:15:00 PM 11.5 52.7 0.394 8.02 4.15 10.86
4/30/2022 1:30:00 PM 11.6 52.88 0.464 8.03 4.03 10.87
4/30/2022 1:45:00 PM 11.7 53.06 0.409 8.03 3.86 10.9
4/30/2022 2:00:00 PM 11.85 53.33 0.467 8.05 3.64 10.91
4/30/2022 2:15:00 PM 11.98 53.564 0.545 8.06 3.83 10.94
4/30/2022 2:30:00 PM 12.12 53.816 0.545 8.07 3.39 10.96
4/30/2022 2:45:00 PM 12.28 54.104 0.467 8.09 3.3 10.98
4/30/2022 3:00:00 PM 12.45 54.41 0.544 8.1 3.37 11.01
4/30/2022 3:15:00 PM 12.55 54.59 0.545 8.12 3.66 11.04
4/30/2022 3:30:00 PM 12.72 54.896 0.544 8.13 3.6 11.08
4/30/2022 3:45:00 PM 12.91 55.238 0.49 8.16 3.5 11.09
4/30/2022 4:00:00 PM 13.06 55.508 0.489 8.18 3.26 11.11
4/30/2022 4:15:00 PM 13.23 55.814 0.463 8.18 3.11 11.13
4/30/2022 4:30:00 PM 13.36 56.048 0.537 8.21 3.16 11.16
4/30/2022 4:45:00 PM 13.52 56.336 0.486 8.22 3.24 11.14
4/30/2022 5:00:00 PM 13.64 56.552 0.536 8.24 2.88 11.17
4/30/2022 5:15:00 PM 13.75 56.75 0.485 8.25 3.11 11.17
4/30/2022 5:30:00 PM 13.84 56.912 0.483 8.26 2.92 11.16
4/30/2022 5:45:00 PM 13.95 57.11 0.534 8.28 3.19 11.18
4/30/2022 6:00:00 PM 14.05 57.29 0.481 8.3 3.23 11.18
4/30/2022 6:15:00 PM 14.14 57.452 0.532 8.31 3.1 11.16
4/30/2022 6:30:00 PM 14.22 57.596 0.48 8.32 3.51 11.14
4/30/2022 6:45:00 PM 14.28 57.704 0.455 8.33 3.03 11.13
4/30/2022 7:00:00 PM 14.34 57.812 0.479 8.34 3.49 11.12
4/30/2022 7:15:00 PM 14.39 57.902 0.478 8.35 3.54 11.1
4/30/2022 7:30:00 PM 14.44 57.992 0.477 8.36 3.45 11.1
4/30/2022 7:45:00 PM 14.49 58.082 0.476 8.36 3.52 11.08
4/30/2022 8:00:00 PM 14.53 58.154 0.477 8.37 4.12 11.05
4/30/2022 8:15:00 PM 14.57 58.226 0.525 8.38 3.63 11.04
4/30/2022 8:30:00 PM 14.6 58.28 0.451 8.38 4.1 11.01
4/30/2022 8:45:00 PM 14.63 58.334 0.474 8.38 4.38 10.99
4/30/2022 9:00:00 PM 14.66 58.388 0.45 8.39 4.87 10.97
4/30/2022 9:15:00 PM 14.68 58.424 0.474 8.38 3.95 10.95
4/30/2022 9:30:00 PM 14.7 58.46 0.458 8.39 4.47 10.91
4/30/2022 9:45:00 PM 14.7 58.46 0.473 8.39 3.85 10.89
4/30/2022 10:00:00 PM 14.71 58.478 0.458 8.38 4.02 10.84
4/30/2022 10:15:00 PM 14.71 58.478 0.474 8.37 3.8 10.84
4/30/2022 10:30:00 PM 14.7 58.46 0.474 8.37 3.79 10.81
4/30/2022 10:45:00 PM 14.69 58.442 0.474 8.36 3.95 10.78
4/30/2022 11:00:00 PM 14.67 58.406 0.475 8.35 4.11 10.75
4/30/2022 11:15:00 PM 14.65 58.37 0.475 8.35 3.94 10.72
4/30/2022 11:30:00 PM 14.63 58.334 0.457 8.33 4.03 10.67
4/30/2022 11:45:00 PM 14.59 58.262 0.476 8.32 4.61 10.64
5/1/2022 12:00:00 AM 14.55 58.19 0.526 8.31 4.49 10.61
5/1/2022 12:15:00 AM 14.5 58.1 0.449 8.29 4.64 10.56
5/1/2022 12:30:00 AM 14.45 58.01 0.476 8.28 4.63 10.52
5/1/2022 12:45:00 AM 14.39 57.902 0.461 8.26 4.49 10.48
5/1/2022 1:00:00 AM 14.32 57.776 0.421 8.25 4.33 10.45
5/1/2022 1:15:00 AM 14.25 57.65 0.461 8.22 4.77 10.41
5/1/2022 1:30:00 AM 14.18 57.524 0.477 8.21 4.42 10.36
5/1/2022 1:45:00 AM 14.1 57.38 0.478 8.18 4.76 10.33
5/1/2022 2:00:00 AM 14.02 57.236 0.528 8.17 4.63 10.28
5/1/2022 2:15:00 AM 13.95 57.11 0.478 8.14 4.56 10.24
5/1/2022 2:30:00 AM 13.87 56.966 0.429 8.14 4.86 10.21
5/1/2022 2:45:00 AM 13.79 56.822 0.478 8.11 4.6 10.18
5/1/2022 3:00:00 AM 13.7 56.66 0.383 8.1 4.36 10.15
5/1/2022 3:15:00 AM 13.61 56.498 0.478 8.08 4.5 10.11
5/1/2022 3:30:00 AM 13.53 56.354 0.528 8.07 4.55 10.09
5/1/2022 3:45:00 AM 13.44 56.192 0.529 8.04 4.59 10.06
5/1/2022 4:00:00 AM 13.34 56.012 0.529 8.04 4.9 10.04
5/1/2022 4:15:00 AM 13.25 55.85 0.53 8.03 4.71 10.04
5/1/2022 4:30:00 AM 13.15 55.67 0.529 8.02 4.68 10
5/1/2022 4:45:00 AM 13.06 55.508 0.478 8.01 4.66 10
5/1/2022 5:00:00 AM 12.97 55.346 0.38 8 4.8 9.99
5/1/2022 5:15:00 AM 12.87 55.166 0.478 7.98 4.67 9.99
5/1/2022 5:30:00 AM 12.78 55.004 0.529 7.99 4.53 9.99
5/1/2022 5:45:00 AM 12.68 54.824 0.528 7.97 4.97 9.99
5/1/2022 6:00:00 AM 12.59 54.662 0.528 7.97 4.91 9.99
5/1/2022 6:15:00 AM 12.5 54.5 0.4 7.95 5.08 10
5/1/2022 6:30:00 AM 12.42 54.356 0.398 7.95 5.26 10.02
5/1/2022 6:45:00 AM 12.33 54.194 0.531 7.93 5.07 10.05
5/1/2022 7:00:00 AM 12.25 54.05 0.401 7.95 5.1 10.07
5/1/2022 7:15:00 AM 12.17 53.906 0.531 7.94 5.1 10.04
5/1/2022 7:30:00 AM 12.1 53.78 0.402 7.94 4.42 10.08
5/1/2022 7:45:00 AM 12.04 53.672 0.531 7.94 4.44 10.12
5/1/2022 8:00:00 AM 12 53.6 0.403 7.95 4 10.17
5/1/2022 8:15:00 AM 11.96 53.528 0.531 7.94 4.18 10.19
5/1/2022 8:30:00 AM 11.93 53.474 0.45 7.95 4.08 10.22
5/1/2022 8:45:00 AM 11.92 53.456 0.532 7.94 4.21 10.24
5/1/2022 9:00:00 AM 11.91 53.438 0.445 7.96 4.2 10.27
5/1/2022 9:15:00 AM 11.91 53.438 0.407 7.94 4.23 10.3
5/1/2022 9:30:00 AM 11.9 53.42 0.398 7.95 4.27 10.32
5/1/2022 9:45:00 AM 11.91 53.438 0.407 7.96 4.07 10.34
5/1/2022 10:00:00 AM 11.92 53.456 0.406 7.96 4.07 10.36
5/1/2022 10:15:00 AM 11.92 53.456 0.402 7.97 4.29 10.36
5/1/2022 10:30:00 AM 11.96 53.528 0.391 7.96 3.75 10.4
5/1/2022 10:45:00 AM 12.03 53.654 0.405 7.96 3.9 10.42
5/1/2022 11:00:00 AM 12.07 53.726 0.396 7.97 4.38 10.41
5/1/2022 11:15:00 AM 12.02 53.636 0.452 7.95 4.12 10.35
5/1/2022 11:30:00 AM 11.98 53.564 0.453 7.96 4.13 10.36
5/1/2022 11:45:00 AM 12.01 53.618 0.398 7.97 4.09 10.41
5/1/2022 12:00:00 PM 12.03 53.654 0.397 7.97 3.91 10.42
5/1/2022 12:15:00 PM 12.03 53.654 0.399 7.97 4.36 10.41
5/1/2022 12:30:00 PM 12.04 53.672 0.529 7.96 4.22 10.4
5/1/2022 12:45:00 PM 12.05 53.69 0.451 7.98 3.94 10.43
5/1/2022 1:00:00 PM 12.07 53.726 0.528 7.96 4.39 10.44
5/1/2022 1:15:00 PM 12.07 53.726 0.405 7.98 4.63 10.44
5/1/2022 1:30:00 PM 12.09 53.762 0.529 7.97 4.51 10.48
5/1/2022 1:45:00 PM 12.1 53.78 0.4 8 5.01 10.47
5/1/2022 2:00:00 PM 12.11 53.798 0.529 7.99 4.4 10.47
5/1/2022 2:15:00 PM 12.13 53.834 0.39 8 4.7 10.54
5/1/2022 2:30:00 PM 12.19 53.942 0.404 8.03 4.45 10.63
5/1/2022 2:45:00 PM 12.24 54.032 0.404 8.04 4.38 10.68
5/1/2022 3:00:00 PM 12.27 54.086 0.531 8.05 4.57 10.69
5/1/2022 3:15:00 PM 12.31 54.158 0.403 8.06 4.45 10.74
5/1/2022 3:30:00 PM 12.36 54.248 0.534 8.07 4.41 10.76
5/1/2022 3:45:00 PM 12.43 54.374 0.533 8.09 4.84 10.82
5/1/2022 4:00:00 PM 12.48 54.464 0.394 8.1 4.62 10.84
5/1/2022 4:15:00 PM 12.53 54.554 0.533 8.13 4.52 10.89
5/1/2022 4:30:00 PM 12.59 54.662 0.534 8.14 4.52 10.94
5/1/2022 4:45:00 PM 12.66 54.788 0.535 8.16 4.63 11
5/1/2022 5:00:00 PM 12.73 54.914 0.535 8.19 5.24 11.03
5/1/2022 5:15:00 PM 12.83 55.094 0.397 8.21 4.83 11.14
5/1/2022 5:30:00 PM 12.9 55.22 0.391 8.24 4.83 11.14
5/1/2022 5:45:00 PM 12.95 55.31 0.537 8.24 4.68 11.1
5/1/2022 6:00:00 PM 13 55.4 0.487 8.25 4.77 11.12
5/1/2022 6:15:00 PM 13.08 55.544 0.54 8.27 4.81 11.16
5/1/2022 6:30:00 PM 13.12 55.616 0.488 8.26 4.35 11.11
5/1/2022 6:45:00 PM 13.16 55.688 0.463 8.28 5.03 11.07
5/1/2022 7:00:00 PM 13.2 55.76 0.489 8.28 4.54 11.07
5/1/2022 7:15:00 PM 13.23 55.814 0.488 8.28 4.37 11.03
5/1/2022 7:30:00 PM 13.26 55.868 0.489 8.27 4.73 11
5/1/2022 7:45:00 PM 13.27 55.886 0.488 8.26 5.28 10.97
5/1/2022 8:00:00 PM 13.28 55.904 0.54 8.25 4.82 10.92
5/1/2022 8:15:00 PM 13.29 55.922 0.393 8.26 5 10.89
5/1/2022 8:30:00 PM 13.29 55.922 0.54 8.25 5.3 10.86
5/1/2022 8:45:00 PM 13.28 55.904 0.538 8.24 5.36 10.83
5/1/2022 9:00:00 PM 13.28 55.904 0.486 8.21 5.06 10.8
5/1/2022 9:15:00 PM 13.27 55.886 0.485 8.21 4.92 10.76
5/1/2022 9:30:00 PM 13.26 55.868 0.485 8.2 4.66 10.72
5/1/2022 9:45:00 PM 13.25 55.85 0.536 8.2 4.71 10.7
5/1/2022 10:00:00 PM 13.24 55.832 0.483 8.18 5.14 10.66
5/1/2022 10:15:00 PM 13.22 55.796 0.533 8.17 5.31 10.63
5/1/2022 10:30:00 PM 13.22 55.796 0.482 8.15 4.91 10.6
5/1/2022 10:45:00 PM 13.21 55.778 0.532 8.14 5.04 10.57
5/1/2022 11:00:00 PM 13.2 55.76 0.533 8.13 4.74 10.55
5/1/2022 11:15:00 PM 13.19 55.742 0.456 8.14 4.67 10.53
5/1/2022 11:30:00 PM 13.16 55.688 0.446 8.13 4.74 10.51
5/1/2022 11:45:00 PM 13.14 55.652 0.482 8.12 4.6 10.49
5/2/2022 12:00:00 AM 13.12 55.616 0.533 8.12 4.38 10.48
5/2/2022 12:15:00 AM 13.09 55.562 0.481 8.09 4.54 10.46
5/2/2022 12:30:00 AM 13.07 55.526 0.532 8.1 5.37 10.44
5/2/2022 12:45:00 AM 13.05 55.49 0.454 8.1 4.6 10.42
5/2/2022 1:00:00 AM 13.03 55.454 0.389 8.09 4.7 10.38
5/2/2022 1:15:00 AM 12.99 55.382 0.479 8.07 4.49 10.36
5/2/2022 1:30:00 AM 12.97 55.346 0.388 8.07 4.49 10.33
5/2/2022 1:45:00 AM 12.94 55.292 0.53 8.07 4.46 10.3
5/2/2022 2:00:00 AM 12.91 55.238 0.479 8.04 4.49 10.27
5/2/2022 2:15:00 AM 12.87 55.166 0.529 8.05 4.45 10.24
5/2/2022 2:30:00 AM 12.79 55.022 0.448 8.04 4.76 10.25
5/2/2022 2:45:00 AM 12.78 55.004 0.439 8.03 4.9 10.2
5/2/2022 3:00:00 AM 12.74 54.932 0.525 8 4.64 10.18
5/2/2022 3:15:00 AM 12.71 54.878 0.447 8.01 4.34 10.15
5/2/2022 3:30:00 AM 12.67 54.806 0.527 7.98 4.39 10.14
5/2/2022 3:45:00 AM 12.63 54.734 0.527 7.97 4.5 10.12
5/2/2022 4:00:00 AM 12.59 54.662 0.526 7.98 4.4 10.11
5/2/2022 4:15:00 AM 12.55 54.59 0.524 7.98 4.31 10.1
5/2/2022 4:30:00 AM 12.52 54.536 0.385 7.96 4.25 10.09
5/2/2022 4:45:00 AM 12.48 54.464 0.449 7.96 4.3 10.08
5/2/2022 5:00:00 AM 12.45 54.41 0.395 7.96 4.4 10.08
5/2/2022 5:15:00 AM 12.41 54.338 0.402 7.94 4.46 10.07
5/2/2022 5:30:00 AM 12.38 54.284 0.447 7.96 4.71 10.06
5/2/2022 5:45:00 AM 12.35 54.23 0.397 7.94 4.71 10.07
5/2/2022 6:00:00 AM 12.31 54.158 0.403 7.94 4.54 10.07
5/2/2022 6:15:00 AM 12.28 54.104 0.403 7.94 5.07 10.06
5/2/2022 6:30:00 AM 12.26 54.068 0.397 7.94 4.98 10.06
5/2/2022 6:45:00 AM 12.24 54.032 0.398 7.92 5.43 10.07
5/2/2022 7:00:00 AM 12.22 53.996 0.397 7.94 5.29 10.09
5/2/2022 7:15:00 AM 12.21 53.978 0.4 7.92 5.47 10.1
5/2/2022 7:30:00 AM 12.2 53.96 0.398 7.92 6.1 10.11
5/2/2022 7:45:00 AM 12.19 53.942 0.397 7.93 5.93 10.12
5/2/2022 8:00:00 AM 12.19 53.942 0.395 7.94 5.68 10.15
5/2/2022 8:15:00 AM 12.2 53.96 0.392 7.94 5.77 10.17
5/2/2022 8:30:00 AM 12.2 53.96 0.394 7.93 6.28 10.17
5/2/2022 8:45:00 AM 12.21 53.978 0.404 7.94 6.21 10.18
5/2/2022 9:00:00 AM 12.23 54.014 0.399 7.93 5.87 10.2
5/2/2022 9:15:00 AM 12.25 54.05 0.404 7.93 5.58 10.21
5/2/2022 9:30:00 AM 12.28 54.104 0.399 7.93 5.65 10.22
5/2/2022 9:45:00 AM 12.3 54.14 0.398 7.92 5.88 10.21
5/2/2022 10:00:00 AM 12.33 54.194 0.401 7.93 5.58 10.22
5/2/2022 10:15:00 AM 12.39 54.302 0.39 7.93 5.92 10.24
5/2/2022 10:30:00 AM 12.45 54.41 0.436 7.94 5.81 10.25
5/2/2022 10:45:00 AM 12.53 54.554 0.389 7.95 5.45 10.26
5/2/2022 11:00:00 AM 12.57 54.626 0.436 7.96 4.83 10.27
5/2/2022 11:15:00 AM 12.65 54.77 0.392 7.95 5.29 10.29
5/2/2022 11:30:00 AM 12.68 54.824 0.398 7.95 5.47 10.26
5/2/2022 11:45:00 AM 12.72 54.896 0.385 7.96 5.12 10.27
5/2/2022 12:00:00 PM 12.76 54.968 0.389 7.97 5.35 10.29
5/2/2022 12:15:00 PM 12.97 55.346 0.389 7.98 5.35 10.37
5/2/2022 12:30:00 PM 13.13 55.634 0.392 7.99 5.25 10.38
5/2/2022 12:45:00 PM 13.23 55.814 0.389 7.99 5.15 10.39
5/2/2022 1:00:00 PM 13.32 55.976 0.515 8 4.75 10.42
5/2/2022 1:15:00 PM 13.36 56.048 0.515 8.01 4.92 10.39
5/2/2022 1:30:00 PM 13.52 56.336 0.514 8.02 5.04 10.46
5/2/2022 1:45:00 PM 13.49 56.282 0.516 8.02 4.86 10.42
5/2/2022 2:00:00 PM 13.54 56.372 0.516 8.03 5.04 10.45
5/2/2022 2:15:00 PM 13.59 56.462 0.515 8.04 4.96 10.42
5/2/2022 2:30:00 PM 13.72 56.696 0.466 8.05 4.96 10.54
5/2/2022 2:45:00 PM 13.77 56.786 0.517 8.06 5.26 10.58
5/2/2022 3:00:00 PM 13.94 57.092 0.466 8.09 5.02 10.68
5/2/2022 3:15:00 PM 13.99 57.182 0.516 8.11 4.99 10.65
5/2/2022 3:30:00 PM 14.09 57.362 0.466 8.12 4.71 10.67
5/2/2022 3:45:00 PM 14.15 57.47 0.514 8.14 4.72 10.72
5/2/2022 4:00:00 PM 14.29 57.722 0.442 8.16 4.81 10.8
5/2/2022 4:15:00 PM 14.36 57.848 0.374 8.18 4.74 10.79
5/2/2022 4:30:00 PM 14.51 58.118 0.515 8.2 4.85 10.86
5/2/2022 4:45:00 PM 14.63 58.334 0.514 8.22 4.51 10.88
5/2/2022 5:00:00 PM 14.75 58.55 0.514 8.24 5 10.88
5/2/2022 5:15:00 PM 14.84 58.712 0.418 8.25 4.73 10.89
5/2/2022 5:30:00 PM 14.95 58.91 0.463 8.27 4.83 10.89
5/2/2022 5:45:00 PM 15.05 59.09 0.512 8.29 4.48 10.88
5/2/2022 6:00:00 PM 15.16 59.288 0.439 8.3 4.52 10.87
5/2/2022 6:15:00 PM 15.26 59.468 0.511 8.32 4.6 10.89
5/2/2022 6:30:00 PM 15.35 59.63 0.462 8.32 4.87 10.87
5/2/2022 6:45:00 PM 15.43 59.774 0.511 8.34 4.79 10.84
5/2/2022 7:00:00 PM 15.5 59.9 0.461 8.34 4.86 10.81
5/2/2022 7:15:00 PM 15.56 60.008 0.462 8.36 4.9 10.79
5/2/2022 7:30:00 PM 15.61 60.098 0.511 8.35 4.79 10.78
5/2/2022 7:45:00 PM 15.64 60.152 0.461 8.36 4.88 10.76
5/2/2022 8:00:00 PM 15.67 60.206 0.447 8.36 4.89 10.73
5/2/2022 8:15:00 PM 15.69 60.242 0.461 8.36 4.68 10.7
5/2/2022 8:30:00 PM 15.7 60.26 0.447 8.36 4.97 10.67
5/2/2022 8:45:00 PM 15.7 60.26 0.461 8.35 4.76 10.67
5/2/2022 9:00:00 PM 15.69 60.242 0.447 8.35 5.02 10.64
5/2/2022 9:15:00 PM 15.68 60.224 0.461 8.34 5.06 10.62
5/2/2022 9:30:00 PM 15.67 60.206 0.438 8.35 5.24 10.6
5/2/2022 9:45:00 PM 15.66 60.188 0.46 8.34 4.37 10.59
5/2/2022 10:00:00 PM 15.64 60.152 0.446 8.33 5.27 10.56
5/2/2022 10:15:00 PM 15.63 60.134 0.46 8.31 5.11 10.53
5/2/2022 10:30:00 PM 15.63 60.134 0.46 8.31 4.87 10.51
5/2/2022 10:45:00 PM 15.62 60.116 0.459 8.31 4.88 10.48
5/2/2022 11:00:00 PM 15.62 60.116 0.459 8.3 4.78 10.45
5/2/2022 11:15:00 PM 15.61 60.098 0.457 8.29 4.96 10.42
5/2/2022 11:30:00 PM 15.61 60.098 0.433 8.28 5.08 10.39
5/2/2022 11:45:00 PM 15.6 60.08 0.419 8.27 5.04 10.34
5/3/2022 12:00:00 AM 15.59 60.062 0.455 8.25 4.9 10.31
5/3/2022 12:15:00 AM 15.57 60.026 0.503 8.24 5.37 10.26
5/3/2022 12:30:00 AM 15.55 59.99 0.431 8.21 4.98 10.22
5/3/2022 12:45:00 AM 15.52 59.936 0.5 8.21 4.64 10.17
5/3/2022 1:00:00 AM 15.49 59.882 0.452 8.17 4.78 10.13
5/3/2022 1:15:00 AM 15.45 59.81 0.499 8.16 4.92 10.08
5/3/2022 1:30:00 AM 15.4 59.72 0.451 8.15 5.22 10.04
5/3/2022 1:45:00 AM 15.34 59.612 0.498 8.13 4.58 10
5/3/2022 2:00:00 AM 15.29 59.522 0.45 8.1 4.81 9.95
5/3/2022 2:15:00 AM 15.22 59.396 0.497 8.09 5.18 9.9
5/3/2022 2:30:00 AM 15.16 59.288 0.45 8.07 4.98 9.86
5/3/2022 2:45:00 AM 15.1 59.18 0.36 8.06 4.85 9.83
5/3/2022 3:00:00 AM 15.04 59.072 0.45 8.04 5.21 9.81
5/3/2022 3:15:00 AM 14.98 58.964 0.498 8.03 4.93 9.77
5/3/2022 3:30:00 AM 14.91 58.838 0.45 8.01 5.19 9.73
5/3/2022 3:45:00 AM 14.84 58.712 0.498 7.99 5 9.71
5/3/2022 4:00:00 AM 14.8 58.64 0.451 7.99 5.12 9.67
5/3/2022 4:15:00 AM 14.76 58.568 0.364 7.98 5.11 9.64
5/3/2022 4:30:00 AM 14.71 58.478 0.451 7.97 5.09 9.63
5/3/2022 4:45:00 AM 14.66 58.388 0.5 7.97 5.11 9.6
5/3/2022 5:00:00 AM 14.61 58.298 0.451 7.96 5.45 9.58
5/3/2022 5:15:00 AM 14.55 58.19 0.405 7.95 5 9.55
5/3/2022 5:30:00 AM 14.5 58.1 0.38 7.93 5.44 9.55
5/3/2022 5:45:00 AM 14.46 58.028 0.382 7.94 5.14 9.54
5/3/2022 6:00:00 AM 14.41 57.938 0.453 7.93 5.48 9.52
5/3/2022 6:15:00 AM 14.35 57.83 0.383 7.93 5.19 9.52
5/3/2022 6:30:00 AM 14.3 57.74 0.504 7.91 5.83 9.52
5/3/2022 6:45:00 AM 14.26 57.668 0.503 7.92 5.56 9.51
5/3/2022 7:00:00 AM 14.22 57.596 0.505 7.91 5.58 9.54
5/3/2022 7:15:00 AM 14.17 57.506 0.504 7.91 5.07 9.54
5/3/2022 7:30:00 AM 14.13 57.434 0.381 7.91 5.3 9.53
5/3/2022 7:45:00 AM 14.08 57.344 0.506 7.9 7.44 9.53
5/3/2022 8:00:00 AM 14.03 57.254 0.506 7.9 6.99 9.55
5/3/2022 8:15:00 AM 13.99 57.182 0.459 7.9 5.43 9.57
5/3/2022 8:30:00 AM 13.95 57.11 0.375 7.86 6.6 9.58
5/3/2022 8:45:00 AM 13.92 57.056 0.509 7.89 5.35 9.58
5/3/2022 9:00:00 AM 13.89 57.002 0.387 7.9 5.26 9.59
5/3/2022 9:15:00 AM 13.87 56.966 0.51 7.9 5.18 9.63
5/3/2022 9:30:00 AM 13.86 56.948 0.511 7.9 5.14 9.66
5/3/2022 9:45:00 AM 13.84 56.912 0.374 7.9 4.65 9.67
5/3/2022 10:00:00 AM 13.84 56.912 0.439 7.91 4.94 9.73
5/3/2022 10:15:00 AM 13.85 56.93 0.372 7.91 4.56 9.74
5/3/2022 10:30:00 AM 13.85 56.93 0.515 7.9 4.6 9.71
5/3/2022 10:45:00 AM 13.84 56.912 0.515 7.9 4.86 9.74
5/3/2022 11:00:00 AM 13.89 57.002 0.516 7.9 4.66 9.79
5/3/2022 11:15:00 AM 13.92 57.056 0.515 7.92 4.31 9.81
5/3/2022 11:30:00 AM 13.97 57.146 0.467 7.92 4.49 9.84
5/3/2022 11:45:00 AM 14.05 57.29 0.375 7.93 4.43 9.86
5/3/2022 12:00:00 PM 14.13 57.434 0.517 7.93 4.03 9.89
5/3/2022 12:15:00 PM 14.22 57.596 0.411 7.95 4.05 9.89
5/3/2022 12:30:00 PM 14.35 57.83 0.519 7.94 4.1 9.91
5/3/2022 12:45:00 PM 14.46 58.028 0.47 7.95 3.98 9.92
5/3/2022 1:00:00 PM 14.59 58.262 0.472 7.95 4.14 9.91
5/3/2022 1:15:00 PM 14.71 58.478 0.472 7.95 4 9.92
5/3/2022 1:30:00 PM 14.77 58.586 0.473 7.96 4.08 9.92
5/3/2022 1:45:00 PM 14.83 58.694 0.474 7.97 4.28 9.9
5/3/2022 2:00:00 PM 14.9 58.82 0.525 7.98 4.42 9.93
5/3/2022 2:15:00 PM 14.99 58.982 0.475 7.98 4.32 9.94
5/3/2022 2:30:00 PM 15.15 59.27 0.476 7.98 4.16 9.97
5/3/2022 2:45:00 PM 15.31 59.558 0.477 7.99 3.87 9.97
5/3/2022 3:00:00 PM 15.28 59.504 0.527 8.01 4.58 9.97
5/3/2022 3:15:00 PM 15.41 59.738 0.462 8.02 4.69 10.01
5/3/2022 3:30:00 PM 15.49 59.882 0.478 8.03 4.27 10.02
5/3/2022 3:45:00 PM 15.48 59.864 0.462 8.04 4.13 10.02
5/3/2022 4:00:00 PM 15.55 59.99 0.477 8.06 4.21 10.08
5/3/2022 4:15:00 PM 15.62 60.116 0.478 8.08 4.31 10.17
5/3/2022 4:30:00 PM 15.7 60.26 0.478 8.09 4.27 10.19
5/3/2022 4:45:00 PM 15.81 60.458 0.463 8.11 4.25 10.21
5/3/2022 5:00:00 PM 15.85 60.53 0.478 8.12 3.86 10.22
5/3/2022 5:15:00 PM 15.91 60.638 0.455 8.14 4.08 10.29
5/3/2022 5:30:00 PM 15.95 60.71 0.479 8.16 4.17 10.31
5/3/2022 5:45:00 PM 15.98 60.764 0.456 8.17 4.15 10.36
5/3/2022 6:00:00 PM 16.06 60.908 0.435 8.19 4 10.43
5/3/2022 6:15:00 PM 16.13 61.034 0.466 8.21 4.18 10.4
5/3/2022 6:30:00 PM 16.19 61.142 0.466 8.22 4.26 10.45
5/3/2022 6:45:00 PM 16.24 61.232 0.462 8.25 3.94 10.44
5/3/2022 7:00:00 PM 16.28 61.304 0.481 8.26 3.7 10.46
5/3/2022 7:15:00 PM 16.33 61.394 0.463 8.27 4.2 10.47
5/3/2022 7:30:00 PM 16.38 61.484 0.468 8.29 3.7 10.47
5/3/2022 7:45:00 PM 16.43 61.574 0.468 8.3 4.16 10.48
5/3/2022 8:00:00 PM 16.48 61.664 0.469 8.31 3.72 10.49
5/3/2022 8:15:00 PM 16.52 61.736 0.464 8.33 4 10.5
5/3/2022 8:30:00 PM 16.57 61.826 0.414 8.35 3.89 10.5
5/3/2022 8:45:00 PM 16.61 61.898 0.465 8.36 4.67 10.52
5/3/2022 9:00:00 PM 16.66 61.988 0.424 8.37 4.14 10.51
5/3/2022 9:15:00 PM 16.7 62.06 0.464 8.39 4.55 10.51
5/3/2022 9:30:00 PM 16.73 62.114 0.469 8.4 4.45 10.5
5/3/2022 9:45:00 PM 16.75 62.15 0.459 8.4 4.41 10.48
5/3/2022 10:00:00 PM 16.77 62.186 0.463 8.4 4.64 10.47
5/3/2022 10:15:00 PM 16.77 62.186 0.463 8.41 4.6 10.45
5/3/2022 10:30:00 PM 16.77 62.186 0.468 8.4 4.55 10.42
5/3/2022 10:45:00 PM 16.78 62.204 0.462 8.4 4.85 10.4
5/3/2022 11:00:00 PM 16.78 62.204 0.467 8.4 5.08 10.38
5/3/2022 11:15:00 PM 16.78 62.204 0.458 8.39 5.14 10.34
5/3/2022 11:30:00 PM 16.78 62.204 0.468 8.38 5.33 10.31
5/3/2022 11:45:00 PM 16.76 62.168 0.463 8.37 4.89 10.29
5/4/2022 12:00:00 AM 16.75 62.15 0.468 8.36 5.09 10.25
5/4/2022 12:15:00 AM 16.73 62.114 0.463 8.36 5.06 10.2
5/4/2022 12:30:00 AM 16.72 62.096 0.468 8.34 4.76 10.16
5/4/2022 12:45:00 AM 16.7 62.06 0.463 8.33 5.18 10.11
5/4/2022 1:00:00 AM 16.68 62.024 0.421 8.31 4.69 10.05
5/4/2022 1:15:00 AM 16.66 61.988 0.463 8.3 4.81 10.01
5/4/2022 1:30:00 AM 16.61 61.898 0.417 8.29 4.75 9.96
5/4/2022 1:45:00 AM 16.57 61.826 0.463 8.26 4.99 9.9
5/4/2022 2:00:00 AM 16.53 61.754 0.468 8.24 4.59 9.86
5/4/2022 2:15:00 AM 16.47 61.646 0.463 8.22 5.02 9.8
5/4/2022 2:30:00 AM 16.42 61.556 0.468 8.19 4.98 9.75
5/4/2022 2:45:00 AM 16.36 61.448 0.463 8.18 5.02 9.7
5/4/2022 3:00:00 AM 16.31 61.358 0.467 8.16 4.72 9.66
5/4/2022 3:15:00 AM 16.26 61.268 0.462 8.14 5.08 9.62
5/4/2022 3:30:00 AM 16.2 61.16 0.467 8.12 5.54 9.57
5/4/2022 3:45:00 AM 16.13 61.034 0.462 8.1 5.39 9.53
5/4/2022 4:00:00 AM 16.07 60.926 0.467 8.09 5.03 9.49
5/4/2022 4:15:00 AM 16.01 60.818 0.468 8.07 4.99 9.45
5/4/2022 4:30:00 AM 15.95 60.71 0.467 8.06 5.11 9.41
5/4/2022 4:45:00 AM 15.89 60.602 0.462 8.04 4.98 9.39
5/4/2022 5:00:00 AM 15.82 60.476 0.482 8.02 4.96 9.36
5/4/2022 5:15:00 AM 15.75 60.35 0.467 8.01 4.52 9.33
5/4/2022 5:30:00 AM 15.7 60.26 0.482 8.01 4.26 9.32
5/4/2022 5:45:00 AM 15.64 60.152 0.466 8 5.17 9.3
5/4/2022 6:00:00 AM 15.58 60.044 0.466 7.98 4.7 9.28
5/4/2022 6:15:00 AM 15.52 59.936 0.465 7.97 4.88 9.27
5/4/2022 6:30:00 AM 15.46 59.828 0.465 7.97 4.5 9.26
5/4/2022 6:45:00 AM 15.41 59.738 0.479 7.97 4.84 9.26
5/4/2022 7:00:00 AM 15.34 59.612 0.463 7.95 5.24 9.25
5/4/2022 7:15:00 AM 15.28 59.504 0.526 7.95 5.19 9.25
5/4/2022 7:30:00 AM 15.23 59.414 0.462 7.95 5.4 9.24
5/4/2022 7:45:00 AM 15.17 59.306 0.477 7.94 5.21 9.25
5/4/2022 8:00:00 AM 15.12 59.216 0.461 7.94 4.74 9.27
5/4/2022 8:15:00 AM 15.07 59.126 0.475 7.93 5.19 9.26
5/4/2022 8:30:00 AM 15.01 59.018 0.46 7.92 5.5 9.27
5/4/2022 8:45:00 AM 14.97 58.946 0.525 7.93 5.22 9.29
5/4/2022 9:00:00 AM 14.92 58.856 0.459 7.92 5.13 9.32
5/4/2022 9:15:00 AM 14.87 58.766 0.521 7.93 5.15 9.32
5/4/2022 9:30:00 AM 14.83 58.694 0.458 7.91 4.23 9.33
5/4/2022 9:45:00 AM 14.79 58.622 0.523 7.92 5.11 9.37
5/4/2022 10:00:00 AM 14.77 58.586 0.457 7.92 5.04 9.4
5/4/2022 10:15:00 AM 14.76 58.568 0.523 7.93 4.88 9.45
5/4/2022 10:30:00 AM 14.73 58.514 0.457 7.91 4.79 9.43
5/4/2022 10:45:00 AM 14.69 58.442 0.52 7.91 4.47 9.41
5/4/2022 11:00:00 AM 14.66 58.388 0.471 7.91 4.86 9.4
5/4/2022 11:15:00 AM 14.63 58.334 0.456 7.91 4.62 9.42
5/4/2022 11:30:00 AM 14.61 58.298 0.436 7.91 4.77 9.4
5/4/2022 11:45:00 AM 14.6 58.28 0.472 7.9 4.72 9.45
5/4/2022 12:00:00 PM 14.6 58.28 0.522 7.92 4.72 9.48
5/4/2022 12:15:00 PM 14.6 58.28 0.473 7.92 4.65 9.5
5/4/2022 12:30:00 PM 14.6 58.28 0.473 7.93 4.82 9.54
5/4/2022 12:45:00 PM 14.61 58.298 0.459 7.92 4.61 9.54
5/4/2022 1:00:00 PM 14.61 58.298 0.476 7.93 4.84 9.57
5/4/2022 1:15:00 PM 14.61 58.298 0.478 7.93 4.64 9.58
5/4/2022 1:30:00 PM 14.63 58.334 0.479 7.94 4.95 9.62
5/4/2022 1:45:00 PM 14.67 58.406 0.532 7.95 4.68 9.68
5/4/2022 2:00:00 PM 14.68 58.424 0.534 7.94 4.82 9.68
5/4/2022 2:15:00 PM 14.66 58.388 0.484 7.95 4.45 9.61
5/4/2022 2:30:00 PM 14.65 58.37 0.47 7.95 4.82 9.63
5/4/2022 2:45:00 PM 14.71 58.478 0.454 7.97 4.41 9.78
5/4/2022 3:00:00 PM 14.76 58.568 0.472 7.99 4.74 9.85
5/4/2022 3:15:00 PM 14.91 58.838 0.488 8.01 4.67 9.96
5/4/2022 3:30:00 PM 15.02 59.036 0.473 8.01 4.66 9.98
5/4/2022 3:45:00 PM 14.97 58.946 0.456 8.03 4.4 9.96
5/4/2022 4:00:00 PM 14.98 58.964 0.488 8.03 4.76 10
5/4/2022 4:15:00 PM 15.1 59.18 0.456 8.06 4.42 10.11
5/4/2022 4:30:00 PM 15.17 59.306 0.473 8.08 5.04 10.12
5/4/2022 4:45:00 PM 15.26 59.468 0.453 8.08 4.66 10.16
5/4/2022 5:00:00 PM 15.34 59.612 0.487 8.1 4.96 10.19
5/4/2022 5:15:00 PM 15.4 59.72 0.456 8.12 5.07 10.23
5/4/2022 5:30:00 PM 15.46 59.828 0.485 8.14 5.22 10.25
5/4/2022 5:45:00 PM 15.5 59.9 0.534 8.15 4.54 10.27
5/4/2022 6:00:00 PM 15.53 59.954 0.533 8.16 4.9 10.28
5/4/2022 6:15:00 PM 15.57 60.026 0.482 8.17 5.7 10.3
5/4/2022 6:30:00 PM 15.59 60.062 0.481 8.19 4.79 10.3
5/4/2022 6:45:00 PM 15.61 60.098 0.48 8.19 4.93 10.33
5/4/2022 7:00:00 PM 15.61 60.098 0.479 8.21 5.25 10.34
5/4/2022 7:15:00 PM 15.62 60.116 0.463 8.22 5.2 10.35
5/4/2022 7:30:00 PM 15.62 60.116 0.462 8.22 4.96 10.36
5/4/2022 7:45:00 PM 15.62 60.116 0.476 8.23 5.35 10.36
5/4/2022 8:00:00 PM 15.63 60.134 0.476 8.23 4.91 10.36
5/4/2022 8:15:00 PM 15.64 60.152 0.45 8.24 5.09 10.37
5/4/2022 8:30:00 PM 15.67 60.206 0.473 8.26 5.32 10.38
5/4/2022 8:45:00 PM 15.68 60.224 0.457 8.26 5.57 10.4
5/4/2022 9:00:00 PM 15.69 60.242 0.471 8.28 5.34 10.41
5/4/2022 9:15:00 PM 15.71 60.278 0.446 8.29 5.41 10.41
5/4/2022 9:30:00 PM 15.73 60.314 0.468 8.3 5.47 10.41
5/4/2022 9:45:00 PM 15.75 60.35 0.453 8.3 5.53 10.41
5/4/2022 10:00:00 PM 15.77 60.386 0.515 8.3 5.41 10.41
5/4/2022 10:15:00 PM 15.78 60.404 0.451 8.31 5.03 10.39
5/4/2022 10:30:00 PM 15.79 60.422 0.512 8.31 4.99 10.37
5/4/2022 10:45:00 PM 15.79 60.422 0.45 8.3 5.65 10.35
5/4/2022 11:00:00 PM 15.79 60.422 0.464 8.29 5.02 10.33
5/4/2022 11:15:00 PM 15.79 60.422 0.448 8.28 5.32 10.3
5/4/2022 11:30:00 PM 15.78 60.404 0.462 8.27 5.43 10.27
5/4/2022 11:45:00 PM 15.77 60.386 0.447 8.26 5.45 10.24
5/5/2022 12:00:00 AM 15.76 60.368 0.507 8.25 5.17 10.19
5/5/2022 12:15:00 AM 15.74 60.332 0.446 8.23 5.24 10.15
5/5/2022 12:30:00 AM 15.71 60.278 0.46 8.2 5.21 10.11
5/5/2022 12:45:00 AM 15.68 60.224 0.445 8.19 5.03 10.08
5/5/2022 1:00:00 AM 15.65 60.17 0.459 8.17 5.17 10.02
5/5/2022 1:15:00 AM 15.62 60.116 0.507 8.15 5.11 9.98
5/5/2022 1:30:00 AM 15.59 60.062 0.507 8.14 5.21 9.93
5/5/2022 1:45:00 AM 15.56 60.008 0.457 8.11 5.27 9.88
5/5/2022 2:00:00 AM 15.52 59.936 0.456 8.09 5.79 9.83
5/5/2022 2:15:00 AM 15.49 59.882 0.456 8.09 5.69 9.79
5/5/2022 2:30:00 AM 15.46 59.828 0.454 8.07 5.2 9.75
5/5/2022 2:45:00 AM 15.42 59.756 0.501 8.06 4.84 9.71
5/5/2022 3:00:00 AM 15.39 59.702 0.5 8.03 4.87 9.68
5/5/2022 3:15:00 AM 15.35 59.63 0.499 8.03 4.8 9.64
5/5/2022 3:30:00 AM 15.31 59.558 0.427 8.02 4.93 9.61
5/5/2022 3:45:00 AM 15.27 59.486 0.497 8 4.87 9.59
5/5/2022 4:00:00 AM 15.24 59.432 0.497 7.99 6.31 9.57
5/5/2022 4:15:00 AM 15.19 59.342 0.496 7.98 4.6 9.54
5/5/2022 4:30:00 AM 15.15 59.27 0.448 7.97 5.27 9.52
5/5/2022 4:45:00 AM 15.1 59.18 0.496 7.96 4.69 9.5
5/5/2022 5:00:00 AM 15.05 59.09 0.497 7.95 4.98 9.48
5/5/2022 5:15:00 AM 15 59 0.377 7.95 4.7 9.46
5/5/2022 5:30:00 AM 14.94 58.892 0.496 7.92 5.05 9.45
5/5/2022 5:45:00 AM 14.88 58.784 0.496 7.93 4.79 9.44
5/5/2022 6:00:00 AM 14.83 58.694 0.497 7.92 5.33 9.44
5/5/2022 6:15:00 AM 14.78 58.604 0.496 7.91 5.23 9.43
5/5/2022 6:30:00 AM 14.73 58.514 0.496 7.92 5.13 9.44
5/5/2022 6:45:00 AM 14.69 58.442 0.38 7.92 4.93 9.46
5/5/2022 7:00:00 AM 14.65 58.37 0.422 7.91 4.82 9.48
5/5/2022 7:15:00 AM 14.62 58.316 0.495 7.91 5.09 9.49
5/5/2022 7:30:00 AM 14.58 58.244 0.495 7.91 5.33 9.51
5/5/2022 7:45:00 AM 14.55 58.19 0.422 7.92 5.33 9.52
5/5/2022 8:00:00 AM 14.53 58.154 0.376 7.91 5.1 9.55
5/5/2022 8:15:00 AM 14.51 58.118 0.497 7.91 4.3 9.57
5/5/2022 8:30:00 AM 14.51 58.118 0.379 7.91 4.99 9.61
5/5/2022 8:45:00 AM 14.53 58.154 0.497 7.92 5.24 9.64
5/5/2022 9:00:00 AM 14.54 58.172 0.497 7.92 4.73 9.64
5/5/2022 9:15:00 AM 14.56 58.208 0.497 7.92 4.46 9.68
5/5/2022 9:30:00 AM 14.59 58.262 0.378 7.92 4.95 9.68
5/5/2022 9:45:00 AM 14.63 58.334 0.497 7.92 4.6 9.68
5/5/2022 10:00:00 AM 14.68 58.424 0.499 7.93 4.58 9.7
5/5/2022 10:15:00 AM 14.73 58.514 0.451 7.93 5.06 9.71
5/5/2022 10:30:00 AM 14.81 58.658 0.38 7.94 4.65 9.73
5/5/2022 10:45:00 AM 14.87 58.766 0.453 7.94 4.73 9.74
5/5/2022 11:00:00 AM 14.91 58.838 0.366 7.94 4.51 9.75
5/5/2022 11:15:00 AM 15 59 0.455 7.94 4.73 9.76
5/5/2022 11:30:00 AM 15.06 59.108 0.503 7.95 5.22 9.75
5/5/2022 11:45:00 AM 15.09 59.162 0.457 7.95 4.37 9.76
5/5/2022 12:00:00 PM 15.21 59.378 0.507 7.95 4.62 9.75
5/5/2022 12:15:00 PM 15.3 59.54 0.509 7.95 4.6 9.73
5/5/2022 12:30:00 PM 15.36 59.648 0.46 7.95 4.97 9.72
5/5/2022 12:45:00 PM 15.4 59.72 0.447 7.95 5.05 9.68
5/5/2022 1:00:00 PM 15.42 59.756 0.464 7.95 4.87 9.64
5/5/2022 1:15:00 PM 15.52 59.936 0.45 7.95 5.16 9.61
5/5/2022 1:30:00 PM 15.63 60.134 0.467 7.95 5.39 9.56
5/5/2022 1:45:00 PM 15.75 60.35 0.445 7.95 5.35 9.47
5/5/2022 2:00:00 PM 15.85 60.53 0.471 7.94 5.38 9.42
5/5/2022 2:15:00 PM 16.02 60.836 0.458 7.95 5.68 9.33
5/5/2022 2:30:00 PM 16.17 61.106 0.46 7.93 6.26 9.26
5/5/2022 2:45:00 PM 16.26 61.268 0.462 7.95 5.9 9.18
5/5/2022 3:00:00 PM 16.37 61.466 0.479 7.95 6.2 9.09
5/5/2022 3:15:00 PM 16.53 61.754 0.46 7.95 6.73 9.05
5/5/2022 3:30:00 PM 16.59 61.862 0.481 7.95 7.25 9.03
5/5/2022 3:45:00 PM 16.74 62.132 0.463 7.97 6.96 9.01
5/5/2022 4:00:00 PM 16.87 62.366 0.483 7.99 7.13 9.02
5/5/2022 4:15:00 PM 16.98 62.564 0.465 8 7.09 9.06
5/5/2022 4:30:00 PM 17.04 62.672 0.471 8.01 6.89 9.12
5/5/2022 4:45:00 PM 17.06 62.708 0.466 8.02 7.08 9.16
5/5/2022 5:00:00 PM 17.2 62.96 0.471 8.03 6.97 9.21
5/5/2022 5:15:00 PM 17.27 63.086 0.466 8.06 6.82 9.31
5/5/2022 5:30:00 PM 17.26 63.068 0.424 8.07 6.79 9.39
5/5/2022 5:45:00 PM 17.33 63.194 0.466 8.1 6.96 9.49
5/5/2022 6:00:00 PM 17.38 63.284 0.471 8.12 6.64 9.57
5/5/2022 6:15:00 PM 17.4 63.32 0.465 8.13 6.47 9.62
5/5/2022 6:30:00 PM 17.42 63.356 0.47 8.16 6.3 9.66
5/5/2022 6:45:00 PM 17.47 63.446 0.464 8.17 6.25 9.77
5/5/2022 7:00:00 PM 17.49 63.482 0.468 8.18 6.13 9.8
5/5/2022 7:15:00 PM 17.54 63.572 0.463 8.19 6.22 9.87
5/5/2022 7:30:00 PM 17.59 63.662 0.467 8.2 5.73 9.91
5/5/2022 7:45:00 PM 17.63 63.734 0.461 8.22 5.68 9.94
5/5/2022 8:00:00 PM 17.66 63.788 0.465 8.24 5.34 9.98
5/5/2022 8:15:00 PM 17.7 63.86 0.459 8.26 5.54 10.04
5/5/2022 8:30:00 PM 17.74 63.932 0.463 8.28 5.45 10.07
5/5/2022 8:45:00 PM 17.78 64.004 0.457 8.29 6.14 10.09
5/5/2022 9:00:00 PM 17.81 64.058 0.461 8.3 5.18 10.11
5/5/2022 9:15:00 PM 17.84 64.112 0.455 8.31 5.84 10.12
5/5/2022 9:30:00 PM 17.87 64.166 0.459 8.32 5.23 10.12
5/5/2022 9:45:00 PM 17.88 64.184 0.459 8.32 5.5 10.1
5/5/2022 10:00:00 PM 17.9 64.22 0.473 8.33 5.43 10.1
5/5/2022 10:15:00 PM 17.91 64.238 0.454 8.33 5.65 10.09
5/5/2022 10:30:00 PM 17.92 64.256 0.459 8.32 5.05 10.07
5/5/2022 10:45:00 PM 17.93 64.274 0.454 8.31 5.33 10.04
5/5/2022 11:00:00 PM 17.95 64.31 0.455 8.31 5.08 10.01
5/5/2022 11:15:00 PM 17.95 64.31 0.46 8.31 5.24 9.97
5/5/2022 11:30:00 PM 17.95 64.31 0.461 8.3 5 9.94
5/5/2022 11:45:00 PM 17.95 64.31 0.476 8.3 5.3 9.91
5/6/2022 12:00:00 AM 17.94 64.292 0.462 8.28 5.32 9.85
5/6/2022 12:15:00 AM 17.92 64.256 0.463 8.27 5 9.81
5/6/2022 12:30:00 AM 17.9 64.22 0.459 8.26 5.29 9.78
5/6/2022 12:45:00 AM 17.88 64.184 0.464 8.24 5.42 9.72
5/6/2022 1:00:00 AM 17.85 64.13 0.441 8.22 5.11 9.68
5/6/2022 1:15:00 AM 17.81 64.058 0.46 8.22 5 9.63
5/6/2022 1:30:00 AM 17.77 63.986 0.46 8.19 5.31 9.6
5/6/2022 1:45:00 AM 17.73 63.914 0.46 8.18 5.61 9.56
5/6/2022 2:00:00 AM 17.68 63.824 0.465 8.17 5.52 9.51
5/6/2022 2:15:00 AM 17.63 63.734 0.466 8.14 5.39 9.46
5/6/2022 2:30:00 AM 17.58 63.644 0.429 8.12 5.23 9.41
5/6/2022 2:45:00 AM 17.53 63.554 0.461 8.1 5.52 9.35
5/6/2022 3:00:00 AM 17.48 63.464 0.461 8.08 5.29 9.3
5/6/2022 3:15:00 AM 17.42 63.356 0.462 8.06 5.68 9.26
5/6/2022 3:30:00 AM 17.36 63.248 0.461 8.05 5.39 9.2
5/6/2022 3:45:00 AM 17.31 63.158 0.461 8.03 5.59 9.16
5/6/2022 4:00:00 AM 17.25 63.05 0.467 8.01 5.23 9.12
5/6/2022 4:15:00 AM 17.19 62.942 0.462 8 5.29 9.07
5/6/2022 4:30:00 AM 17.14 62.852 0.467 7.99 5.18 9.03
5/6/2022 4:45:00 AM 17.08 62.744 0.462 7.97 6.45 9
5/6/2022 5:00:00 AM 17.03 62.654 0.405 7.96 5.74 8.96
5/6/2022 5:15:00 AM 16.97 62.546 0.462 7.95 4.72 8.93
5/6/2022 5:30:00 AM 16.92 62.456 0.467 7.95 4.51 8.88
5/6/2022 5:45:00 AM 16.87 62.366 0.466 7.93 6.19 8.87
5/6/2022 6:00:00 AM 16.81 62.258 0.466 7.94 5.3 8.86
5/6/2022 6:15:00 AM 16.76 62.168 0.461 7.92 5.06 8.85
5/6/2022 6:30:00 AM 16.7 62.06 0.48 7.91 5.82 8.84
5/6/2022 6:45:00 AM 16.65 61.97 0.46 7.9 5 8.83
5/6/2022 7:00:00 AM 16.59 61.862 0.465 7.9 4.93 8.83
5/6/2022 7:15:00 AM 16.53 61.754 0.464 7.87 4.54 8.83
5/6/2022 7:30:00 AM 16.48 61.664 0.463 7.89 5.13 8.84
5/6/2022 7:45:00 AM 16.42 61.556 0.458 7.89 5.31 8.84
5/6/2022 8:00:00 AM 16.37 61.466 0.462 7.88 5.07 8.85
5/6/2022 8:15:00 AM 16.32 61.376 0.475 7.88 6.11 8.86
5/6/2022 8:30:00 AM 16.27 61.286 0.46 7.88 4.87 8.86
5/6/2022 8:45:00 AM 16.22 61.196 0.475 7.87 4.74 8.87
5/6/2022 9:00:00 AM 16.17 61.106 0.474 7.87 4.65 8.88
5/6/2022 9:15:00 AM 16.11 60.998 0.459 7.87 5.27 8.87
5/6/2022 9:30:00 AM 16.07 60.926 0.523 7.87 4.74 8.91
5/6/2022 9:45:00 AM 16.03 60.854 0.474 7.87 4.71 8.95
5/6/2022 10:00:00 AM 15.98 60.764 0.448 7.87 4.89 8.93
5/6/2022 10:15:00 AM 15.93 60.674 0.522 7.86 5.15 8.95
5/6/2022 10:30:00 AM 15.88 60.584 0.473 7.85 4.88 8.95
5/6/2022 10:45:00 AM 15.85 60.53 0.458 7.87 4.42 8.99
5/6/2022 11:00:00 AM 15.81 60.458 0.444 7.87 4.25 8.99
5/6/2022 11:15:00 AM 15.78 60.404 0.523 7.86 4.95 9.01
5/6/2022 11:30:00 AM 15.75 60.35 0.448 7.87 4.9 9.03
5/6/2022 11:45:00 AM 15.72 60.296 0.446 7.87 4.29 9.05
5/6/2022 12:00:00 PM 15.69 60.242 0.523 7.87 4.76 9.06
5/6/2022 12:15:00 PM 15.67 60.206 0.449 7.87 4.61 9.08
5/6/2022 12:30:00 PM 15.65 60.17 0.473 7.88 4.97 9.07
5/6/2022 12:45:00 PM 15.62 60.116 0.474 7.86 5.16 9.08
5/6/2022 1:00:00 PM 15.59 60.062 0.474 7.87 5.38 9.12
5/6/2022 1:15:00 PM 15.56 60.008 0.459 7.86 5.41 9.14
5/6/2022 1:30:00 PM 15.55 59.99 0.418 7.87 5.03 9.17
5/6/2022 1:45:00 PM 15.53 59.954 0.457 7.87 5.1 9.24
5/6/2022 2:00:00 PM 15.51 59.918 0.53 7.87 7.03 9.26
5/6/2022 2:15:00 PM 15.48 59.864 0.466 7.87 5.11 9.28
5/6/2022 2:30:00 PM 15.44 59.792 0.482 7.88 5.95 9.34
5/6/2022 2:45:00 PM 15.4 59.72 0.47 7.89 5.42 9.41
5/6/2022 3:00:00 PM 15.35 59.63 0.487 7.9 6.88 9.45
5/6/2022 3:15:00 PM 15.31 59.558 0.472 7.91 5.78 9.55
5/6/2022 3:30:00 PM 15.26 59.468 0.485 7.92 6.1 9.57
5/6/2022 3:45:00 PM 15.2 59.36 0.464 7.93 6.72 9.64
5/6/2022 4:00:00 PM 15.15 59.27 0.457 7.93 7.17 9.69
5/6/2022 4:15:00 PM 15.1 59.18 0.465 7.94 6.74 9.74
5/6/2022 4:30:00 PM 15.05 59.09 0.505 7.94 8.01 9.78
5/6/2022 4:45:00 PM 15 59 0.448 7.93 9.13 9.81
5/6/2022 5:00:00 PM 14.94 58.892 0.375 7.93 9.54 9.85
5/6/2022 5:15:00 PM 14.88 58.784 0.483 7.93 9.67 9.88
5/6/2022 5:30:00 PM 14.83 58.694 0.376 7.93 9.89 9.9
5/6/2022 5:45:00 PM 14.76 58.568 0.38 7.91 9.45 9.91
5/6/2022 6:00:00 PM 14.7 58.46 0.377 7.91 11.86 9.9
5/6/2022 6:15:00 PM 14.64 58.352 0.379 7.89 12.88 9.89
5/6/2022 6:30:00 PM 14.59 58.262 0.377 7.86 12.46 9.86
5/6/2022 6:45:00 PM 14.54 58.172 0.376 7.85 14.92 9.85
5/6/2022 7:00:00 PM 14.5 58.1 0.368 7.84 18.69 9.83
5/6/2022 7:15:00 PM 14.47 58.046 0.355 7.83 22.36 9.79
5/6/2022 7:30:00 PM 14.45 58.01 0.347 7.79 27.75 9.74
5/6/2022 7:45:00 PM 14.42 57.956 0.338 7.76 33.86 9.69
5/6/2022 8:00:00 PM 14.39 57.902 0.33 7.76 46.62 9.67
5/6/2022 8:15:00 PM 14.34 57.812 0.315 7.73 57.5 9.67
5/6/2022 8:30:00 PM 14.28 57.704 0.306 7.72 68.67 9.68
5/6/2022 8:45:00 PM 14.22 57.596 0.297 7.7 85.18 9.7
5/6/2022 9:00:00 PM 14.17 57.506 0.291 7.71 77.47 9.73
5/6/2022 9:15:00 PM 14.12 57.416 0.285 7.72 99.36 9.74
5/6/2022 9:30:00 PM 14.05 57.29 0.28 7.7 107.67 9.76
5/6/2022 9:45:00 PM 13.97 57.146 0.272 7.69 108.58 9.78
5/6/2022 10:00:00 PM 13.88 56.984 0.267 7.7 117.1 9.81
5/6/2022 10:15:00 PM 13.8 56.84 0.262 7.69 118.81 9.83
5/6/2022 10:30:00 PM 13.71 56.678 0.256 7.69 120.82 9.85
5/6/2022 10:45:00 PM 13.64 56.552 0.254 7.68 136.62 9.85
5/6/2022 11:00:00 PM 13.57 56.426 0.248 7.68 125.32 9.89
5/6/2022 11:15:00 PM 13.5 56.3 0.248 7.69 123.07 9.89
5/6/2022 11:30:00 PM 13.43 56.174 0.248 7.68 124.48 9.88
5/6/2022 11:45:00 PM 13.37 56.066 0.254 7.67 131.51 9.87
5/7/2022 12:00:00 AM 13.31 55.958 0.251 7.65 128.41 9.85
5/7/2022 12:15:00 AM 13.25 55.85 0.255 7.66 133.15 9.84
5/7/2022 12:30:00 AM 13.2 55.76 0.257 7.66 130.5 9.84
5/7/2022 12:45:00 AM 13.15 55.67 0.26 7.65 121.25 9.82
5/7/2022 1:00:00 AM 13.1 55.58 0.259 7.63 122.77 9.83
5/7/2022 1:15:00 AM 13.06 55.508 0.257 7.63 123.66 9.89
5/7/2022 1:30:00 AM 13.01 55.418 0.255 7.63 132.06 9.88
5/7/2022 1:45:00 AM 12.97 55.346 0.255 7.62 128.69 9.87
5/7/2022 2:00:00 AM 12.93 55.274 0.253 7.62 113.95 9.89
5/7/2022 2:15:00 AM 12.89 55.202 0.252 7.62 112.4 9.89
5/7/2022 2:30:00 AM 12.86 55.148 0.249 7.62 96.68 9.91
5/7/2022 2:45:00 AM 12.82 55.076 0.249 7.62 106.52 9.94
5/7/2022 3:00:00 AM 12.78 55.004 0.249 7.62 95.47 9.94
5/7/2022 3:15:00 AM 12.74 54.932 0.253 7.63 108.97 9.97
5/7/2022 3:30:00 AM 12.71 54.878 0.248 7.61 96.39 9.99
5/7/2022 3:45:00 AM 12.67 54.806 0.257 7.61 82.7 9.99
5/7/2022 4:00:00 AM 12.64 54.752 0.254 7.62 98 9.98
5/7/2022 4:15:00 AM 12.6 54.68 0.254 7.61 98.17 9.99
5/7/2022 4:30:00 AM 12.57 54.626 0.254 7.61 88.95 10.01
5/7/2022 4:45:00 AM 12.54 54.572 0.255 7.6 83.05 10.01
5/7/2022 5:00:00 AM 12.5 54.5 0.255 7.6 77.23 10.02
5/7/2022 5:15:00 AM 12.47 54.446 0.255 7.6 79.78 10.03
5/7/2022 5:30:00 AM 12.44 54.392 0.254 7.61 80.39 10.05
5/7/2022 5:45:00 AM 12.41 54.338 0.253 7.61 69.53 10.08
5/7/2022 6:00:00 AM 12.38 54.284 0.251 7.62 71.15 10.09
5/7/2022 6:15:00 AM 12.35 54.23 0.253 7.62 72.29 10.11
5/7/2022 6:30:00 AM 12.32 54.176 0.253 7.63 64.3 10.17
5/7/2022 6:45:00 AM 12.3 54.14 0.256 7.63 57.2 10.14
5/7/2022 7:00:00 AM 12.27 54.086 0.256 7.64 56.18 10.15
5/7/2022 7:15:00 AM 12.24 54.032 0.261 7.63 49.16 10.16
5/7/2022 7:30:00 AM 12.22 53.996 0.258 7.63 51.85 10.18
5/7/2022 7:45:00 AM 12.19 53.942 0.261 7.63 51.1 10.19
5/7/2022 8:00:00 AM 12.16 53.888 0.26 7.64 48.34 10.2
5/7/2022 8:15:00 AM 12.14 53.852 0.264 7.64 44.01 10.21
5/7/2022 8:30:00 AM 12.11 53.798 0.262 7.65 44.14 10.23
5/7/2022 8:45:00 AM 12.09 53.762 0.265 7.64 57.98 10.23
5/7/2022 9:00:00 AM 12.07 53.726 0.265 7.66 44.74 10.25
5/7/2022 9:15:00 AM 12.04 53.672 0.266 7.65 40.31 10.27
5/7/2022 9:30:00 AM 12.03 53.654 0.266 7.64 42.2 10.27
5/7/2022 9:45:00 AM 12.01 53.618 0.266 7.67